<?xml version="1.0" encoding="UTF-8" standalone="no" ?>
<gpx xmlns="http://www.topografix.com/GPX/1/1" xmlns:xsi="http://www.w3.org/2001/XMLSchema-instance" xsi:schemaLocation="http://www.topografix.com/GPX/1/1 http://www.topografix.com/GPX/1/1/gpx.xsd" version="1.1" creator="VisuGPX - https://www.visugpx.com">
  <metadata>
    <name>20260526-grand-quevilly cool</name>
    <desc><![CDATA[Boucle A-R au départ de l'Hyper U]]></desc>
  </metadata>
  <trk>
    <name><![CDATA[SityTrail - 20260526-grand-quevilly cool]]></name>
    <desc><![CDATA[Boucle A-R au départ de l'Hyper U]]></desc>
    <trkseg>
      <trkpt lat="49.41706" lon="1.04522">
        <ele>16</ele>
        <time>2026-05-26T07:23:46.985Z</time>
      </trkpt>
      <trkpt lat="49.41706" lon="1.04518">
        <ele>16</ele>
        <time>2026-05-26T07:31:13.984Z</time>
      </trkpt>
      <trkpt lat="49.41706" lon="1.04518">
        <ele>16</ele>
        <time>2026-05-26T07:31:18.984Z</time>
      </trkpt>
      <trkpt lat="49.41706" lon="1.04518">
        <ele>16</ele>
        <time>2026-05-26T07:31:26.326Z</time>
      </trkpt>
      <trkpt lat="49.41706" lon="1.04515">
        <ele>16</ele>
        <time>2026-05-26T07:31:30.743Z</time>
      </trkpt>
      <trkpt lat="49.41707" lon="1.04506">
        <ele>16</ele>
        <time>2026-05-26T07:31:34.985Z</time>
      </trkpt>
      <trkpt lat="49.41711" lon="1.04502">
        <ele>15</ele>
        <time>2026-05-26T07:31:39.162Z</time>
      </trkpt>
      <trkpt lat="49.41713" lon="1.04497">
        <ele>15</ele>
        <time>2026-05-26T07:31:43.414Z</time>
      </trkpt>
      <trkpt lat="49.41718" lon="1.04493">
        <ele>15</ele>
        <time>2026-05-26T07:31:47.986Z</time>
      </trkpt>
      <trkpt lat="49.41724" lon="1.04495">
        <ele>15</ele>
        <time>2026-05-26T07:31:52.923Z</time>
      </trkpt>
      <trkpt lat="49.41727" lon="1.04496">
        <ele>15</ele>
        <time>2026-05-26T07:31:56.984Z</time>
      </trkpt>
      <trkpt lat="49.41731" lon="1.04489">
        <ele>15</ele>
        <time>2026-05-26T07:32:01.527Z</time>
      </trkpt>
      <trkpt lat="49.41735" lon="1.04483">
        <ele>16</ele>
        <time>2026-05-26T07:32:05.803Z</time>
      </trkpt>
      <trkpt lat="49.41737" lon="1.04474">
        <ele>17</ele>
        <time>2026-05-26T07:32:10.984Z</time>
      </trkpt>
      <trkpt lat="49.4174" lon="1.04465">
        <ele>17</ele>
        <time>2026-05-26T07:32:15.444Z</time>
      </trkpt>
      <trkpt lat="49.41743" lon="1.04458">
        <ele>16</ele>
        <time>2026-05-26T07:32:19.764Z</time>
      </trkpt>
      <trkpt lat="49.41746" lon="1.04452">
        <ele>16</ele>
        <time>2026-05-26T07:32:23.984Z</time>
      </trkpt>
      <trkpt lat="49.4175" lon="1.04445">
        <ele>16</ele>
        <time>2026-05-26T07:32:28.545Z</time>
      </trkpt>
      <trkpt lat="49.41753" lon="1.04438">
        <ele>16</ele>
        <time>2026-05-26T07:32:32.984Z</time>
      </trkpt>
      <trkpt lat="49.41757" lon="1.04431">
        <ele>16</ele>
        <time>2026-05-26T07:32:37.984Z</time>
      </trkpt>
      <trkpt lat="49.41761" lon="1.04424">
        <ele>16</ele>
        <time>2026-05-26T07:32:42.787Z</time>
      </trkpt>
      <trkpt lat="49.41764" lon="1.04418">
        <ele>16</ele>
        <time>2026-05-26T07:32:46.984Z</time>
      </trkpt>
      <trkpt lat="49.41767" lon="1.04411">
        <ele>17</ele>
        <time>2026-05-26T07:32:51.543Z</time>
      </trkpt>
      <trkpt lat="49.4177" lon="1.04405">
        <ele>17</ele>
        <time>2026-05-26T07:32:55.984Z</time>
      </trkpt>
      <trkpt lat="49.41774" lon="1.044">
        <ele>18</ele>
        <time>2026-05-26T07:33:00.523Z</time>
      </trkpt>
      <trkpt lat="49.41777" lon="1.04404">
        <ele>17</ele>
        <time>2026-05-26T07:33:04.984Z</time>
      </trkpt>
      <trkpt lat="49.41781" lon="1.0441">
        <ele>17</ele>
        <time>2026-05-26T07:33:09.304Z</time>
      </trkpt>
      <trkpt lat="49.41786" lon="1.04413">
        <ele>17</ele>
        <time>2026-05-26T07:33:13.984Z</time>
      </trkpt>
      <trkpt lat="49.4179" lon="1.04416">
        <ele>17</ele>
        <time>2026-05-26T07:33:18.744Z</time>
      </trkpt>
      <trkpt lat="49.41794" lon="1.04413">
        <ele>17</ele>
        <time>2026-05-26T07:33:22.985Z</time>
      </trkpt>
      <trkpt lat="49.41798" lon="1.04409">
        <ele>17</ele>
        <time>2026-05-26T07:33:27.928Z</time>
      </trkpt>
      <trkpt lat="49.41803" lon="1.04413">
        <ele>17</ele>
        <time>2026-05-26T07:33:31.984Z</time>
      </trkpt>
      <trkpt lat="49.41808" lon="1.0441">
        <ele>17</ele>
        <time>2026-05-26T07:33:36.945Z</time>
      </trkpt>
      <trkpt lat="49.41811" lon="1.04406">
        <ele>17</ele>
        <time>2026-05-26T07:33:40.984Z</time>
      </trkpt>
      <trkpt lat="49.41815" lon="1.04404">
        <ele>17</ele>
        <time>2026-05-26T07:33:44.984Z</time>
      </trkpt>
      <trkpt lat="49.4182" lon="1.04406">
        <ele>17</ele>
        <time>2026-05-26T07:33:49.467Z</time>
      </trkpt>
      <trkpt lat="49.41825" lon="1.04407">
        <ele>17</ele>
        <time>2026-05-26T07:33:53.550Z</time>
      </trkpt>
      <trkpt lat="49.4183" lon="1.04409">
        <ele>17</ele>
        <time>2026-05-26T07:33:57.984Z</time>
      </trkpt>
      <trkpt lat="49.41836" lon="1.04408">
        <ele>17</ele>
        <time>2026-05-26T07:34:02.984Z</time>
      </trkpt>
      <trkpt lat="49.41841" lon="1.04407">
        <ele>17</ele>
        <time>2026-05-26T07:34:07.203Z</time>
      </trkpt>
      <trkpt lat="49.41846" lon="1.04405">
        <ele>17</ele>
        <time>2026-05-26T07:34:11.984Z</time>
      </trkpt>
      <trkpt lat="49.41847" lon="1.04397">
        <ele>17</ele>
        <time>2026-05-26T07:34:16.942Z</time>
      </trkpt>
      <trkpt lat="49.41847" lon="1.04396">
        <ele>17</ele>
        <time>2026-05-26T07:34:20.984Z</time>
      </trkpt>
      <trkpt lat="49.41848" lon="1.04396">
        <ele>17</ele>
        <time>2026-05-26T07:34:25.607Z</time>
      </trkpt>
      <trkpt lat="49.41853" lon="1.0439">
        <ele>17</ele>
        <time>2026-05-26T07:34:29.984Z</time>
      </trkpt>
      <trkpt lat="49.41857" lon="1.04384">
        <ele>17</ele>
        <time>2026-05-26T07:34:34.528Z</time>
      </trkpt>
      <trkpt lat="49.4186" lon="1.04377">
        <ele>17</ele>
        <time>2026-05-26T07:34:38.984Z</time>
      </trkpt>
      <trkpt lat="49.41862" lon="1.04369">
        <ele>16</ele>
        <time>2026-05-26T07:34:43.625Z</time>
      </trkpt>
      <trkpt lat="49.41864" lon="1.04362">
        <ele>16</ele>
        <time>2026-05-26T07:34:47.984Z</time>
      </trkpt>
      <trkpt lat="49.41867" lon="1.04355">
        <ele>16</ele>
        <time>2026-05-26T07:34:52.625Z</time>
      </trkpt>
      <trkpt lat="49.4187" lon="1.04348">
        <ele>16</ele>
        <time>2026-05-26T07:34:56.984Z</time>
      </trkpt>
      <trkpt lat="49.41873" lon="1.0434">
        <ele>16</ele>
        <time>2026-05-26T07:35:01.704Z</time>
      </trkpt>
      <trkpt lat="49.41876" lon="1.04334">
        <ele>15</ele>
        <time>2026-05-26T07:35:05.984Z</time>
      </trkpt>
      <trkpt lat="49.41879" lon="1.04329">
        <ele>15</ele>
        <time>2026-05-26T07:35:10.354Z</time>
      </trkpt>
      <trkpt lat="49.41882" lon="1.04322">
        <ele>15</ele>
        <time>2026-05-26T07:35:14.985Z</time>
      </trkpt>
      <trkpt lat="49.41884" lon="1.04313">
        <ele>15</ele>
        <time>2026-05-26T07:35:19.845Z</time>
      </trkpt>
      <trkpt lat="49.41885" lon="1.04307">
        <ele>15</ele>
        <time>2026-05-26T07:35:23.984Z</time>
      </trkpt>
      <trkpt lat="49.41885" lon="1.04298">
        <ele>15</ele>
        <time>2026-05-26T07:35:28.748Z</time>
      </trkpt>
      <trkpt lat="49.41887" lon="1.04291">
        <ele>15</ele>
        <time>2026-05-26T07:35:32.984Z</time>
      </trkpt>
      <trkpt lat="49.41891" lon="1.04286">
        <ele>15</ele>
        <time>2026-05-26T07:35:37.923Z</time>
      </trkpt>
      <trkpt lat="49.41895" lon="1.04282">
        <ele>15</ele>
        <time>2026-05-26T07:35:41.984Z</time>
      </trkpt>
      <trkpt lat="49.41899" lon="1.04279">
        <ele>15</ele>
        <time>2026-05-26T07:35:46.599Z</time>
      </trkpt>
      <trkpt lat="49.41904" lon="1.04276">
        <ele>15</ele>
        <time>2026-05-26T07:35:50.984Z</time>
      </trkpt>
      <trkpt lat="49.4191" lon="1.04274">
        <ele>15</ele>
        <time>2026-05-26T07:35:55.984Z</time>
      </trkpt>
      <trkpt lat="49.41914" lon="1.0427">
        <ele>15</ele>
        <time>2026-05-26T07:36:00.523Z</time>
      </trkpt>
      <trkpt lat="49.41918" lon="1.04265">
        <ele>15</ele>
        <time>2026-05-26T07:36:04.984Z</time>
      </trkpt>
      <trkpt lat="49.41922" lon="1.0426">
        <ele>15</ele>
        <time>2026-05-26T07:36:09.665Z</time>
      </trkpt>
      <trkpt lat="49.41927" lon="1.04261">
        <ele>15</ele>
        <time>2026-05-26T07:36:13.984Z</time>
      </trkpt>
      <trkpt lat="49.41933" lon="1.04264">
        <ele>15</ele>
        <time>2026-05-26T07:36:18.743Z</time>
      </trkpt>
      <trkpt lat="49.41937" lon="1.04267">
        <ele>15</ele>
        <time>2026-05-26T07:36:22.984Z</time>
      </trkpt>
      <trkpt lat="49.41942" lon="1.0427">
        <ele>15</ele>
        <time>2026-05-26T07:36:27.481Z</time>
      </trkpt>
      <trkpt lat="49.41946" lon="1.04275">
        <ele>15</ele>
        <time>2026-05-26T07:36:31.984Z</time>
      </trkpt>
      <trkpt lat="49.41951" lon="1.0428">
        <ele>15</ele>
        <time>2026-05-26T07:36:36.945Z</time>
      </trkpt>
      <trkpt lat="49.41955" lon="1.04284">
        <ele>15</ele>
        <time>2026-05-26T07:36:40.984Z</time>
      </trkpt>
      <trkpt lat="49.4196" lon="1.04289">
        <ele>14</ele>
        <time>2026-05-26T07:36:45.984Z</time>
      </trkpt>
      <trkpt lat="49.41964" lon="1.04295">
        <ele>14</ele>
        <time>2026-05-26T07:36:50.583Z</time>
      </trkpt>
      <trkpt lat="49.4197" lon="1.04301">
        <ele>14</ele>
        <time>2026-05-26T07:36:54.984Z</time>
      </trkpt>
      <trkpt lat="49.41975" lon="1.04307">
        <ele>14</ele>
        <time>2026-05-26T07:36:59.643Z</time>
      </trkpt>
      <trkpt lat="49.41979" lon="1.04312">
        <ele>14</ele>
        <time>2026-05-26T07:37:03.984Z</time>
      </trkpt>
      <trkpt lat="49.41984" lon="1.04317">
        <ele>14</ele>
        <time>2026-05-26T07:37:08.642Z</time>
      </trkpt>
      <trkpt lat="49.41987" lon="1.04324">
        <ele>11</ele>
        <time>2026-05-26T07:37:12.984Z</time>
      </trkpt>
      <trkpt lat="49.41993" lon="1.0433">
        <ele>11</ele>
        <time>2026-05-26T07:37:17.704Z</time>
      </trkpt>
      <trkpt lat="49.41996" lon="1.04335">
        <ele>11</ele>
        <time>2026-05-26T07:37:21.984Z</time>
      </trkpt>
      <trkpt lat="49.42" lon="1.0434">
        <ele>11</ele>
        <time>2026-05-26T07:37:26.809Z</time>
      </trkpt>
      <trkpt lat="49.42002" lon="1.04344">
        <ele>11</ele>
        <time>2026-05-26T07:37:30.805Z</time>
      </trkpt>
      <trkpt lat="49.42007" lon="1.04351">
        <ele>11</ele>
        <time>2026-05-26T07:37:35.844Z</time>
      </trkpt>
      <trkpt lat="49.42009" lon="1.04358">
        <ele>11</ele>
        <time>2026-05-26T07:37:39.984Z</time>
      </trkpt>
      <trkpt lat="49.42012" lon="1.04364">
        <ele>11</ele>
        <time>2026-05-26T07:37:44.484Z</time>
      </trkpt>
      <trkpt lat="49.42015" lon="1.04371">
        <ele>11</ele>
        <time>2026-05-26T07:37:48.984Z</time>
      </trkpt>
      <trkpt lat="49.42018" lon="1.04378">
        <ele>11</ele>
        <time>2026-05-26T07:37:53.863Z</time>
      </trkpt>
      <trkpt lat="49.42021" lon="1.04382">
        <ele>11</ele>
        <time>2026-05-26T07:37:57.984Z</time>
      </trkpt>
      <trkpt lat="49.42024" lon="1.04389">
        <ele>11</ele>
        <time>2026-05-26T07:38:02.309Z</time>
      </trkpt>
      <trkpt lat="49.42029" lon="1.04396">
        <ele>11</ele>
        <time>2026-05-26T07:38:06.984Z</time>
      </trkpt>
      <trkpt lat="49.42033" lon="1.04403">
        <ele>11</ele>
        <time>2026-05-26T07:38:11.887Z</time>
      </trkpt>
      <trkpt lat="49.42035" lon="1.04409">
        <ele>11</ele>
        <time>2026-05-26T07:38:15.984Z</time>
      </trkpt>
      <trkpt lat="49.4204" lon="1.04416">
        <ele>11</ele>
        <time>2026-05-26T07:38:20.904Z</time>
      </trkpt>
      <trkpt lat="49.42043" lon="1.04421">
        <ele>11</ele>
        <time>2026-05-26T07:38:24.984Z</time>
      </trkpt>
      <trkpt lat="49.42048" lon="1.04427">
        <ele>11</ele>
        <time>2026-05-26T07:38:29.808Z</time>
      </trkpt>
      <trkpt lat="49.4205" lon="1.04436">
        <ele>11</ele>
        <time>2026-05-26T07:38:42.984Z</time>
      </trkpt>
      <trkpt lat="49.4205" lon="1.04436">
        <ele>11</ele>
        <time>2026-05-26T07:38:46.984Z</time>
      </trkpt>
      <trkpt lat="49.4205" lon="1.04437">
        <ele>11</ele>
        <time>2026-05-26T07:38:52.462Z</time>
      </trkpt>
      <trkpt lat="49.42052" lon="1.04439">
        <ele>11</ele>
        <time>2026-05-26T07:38:56.705Z</time>
      </trkpt>
      <trkpt lat="49.42058" lon="1.04443">
        <ele>11</ele>
        <time>2026-05-26T07:39:00.983Z</time>
      </trkpt>
      <trkpt lat="49.42065" lon="1.04446">
        <ele>11</ele>
        <time>2026-05-26T07:39:05.870Z</time>
      </trkpt>
      <trkpt lat="49.42069" lon="1.0445">
        <ele>11</ele>
        <time>2026-05-26T07:39:09.983Z</time>
      </trkpt>
      <trkpt lat="49.42073" lon="1.04454">
        <ele>14</ele>
        <time>2026-05-26T07:39:13.983Z</time>
      </trkpt>
      <trkpt lat="49.42076" lon="1.04462">
        <ele>14</ele>
        <time>2026-05-26T07:39:18.983Z</time>
      </trkpt>
      <trkpt lat="49.42078" lon="1.0447">
        <ele>14</ele>
        <time>2026-05-26T07:39:23.843Z</time>
      </trkpt>
      <trkpt lat="49.4208" lon="1.04475">
        <ele>14</ele>
        <time>2026-05-26T07:39:27.983Z</time>
      </trkpt>
      <trkpt lat="49.42081" lon="1.0448">
        <ele>14</ele>
        <time>2026-05-26T07:39:32.587Z</time>
      </trkpt>
      <trkpt lat="49.42083" lon="1.04481">
        <ele>14</ele>
        <time>2026-05-26T07:39:36.983Z</time>
      </trkpt>
      <trkpt lat="49.42087" lon="1.04482">
        <ele>14</ele>
        <time>2026-05-26T07:39:41.904Z</time>
      </trkpt>
      <trkpt lat="49.42092" lon="1.04486">
        <ele>17</ele>
        <time>2026-05-26T07:39:45.984Z</time>
      </trkpt>
      <trkpt lat="49.42097" lon="1.04492">
        <ele>15</ele>
        <time>2026-05-26T07:39:50.983Z</time>
      </trkpt>
      <trkpt lat="49.42101" lon="1.04498">
        <ele>15</ele>
        <time>2026-05-26T07:39:55.506Z</time>
      </trkpt>
      <trkpt lat="49.42105" lon="1.04505">
        <ele>15</ele>
        <time>2026-05-26T07:39:59.983Z</time>
      </trkpt>
      <trkpt lat="49.42109" lon="1.04511">
        <ele>15</ele>
        <time>2026-05-26T07:40:03.983Z</time>
      </trkpt>
      <trkpt lat="49.42113" lon="1.04516">
        <ele>16</ele>
        <time>2026-05-26T07:40:08.703Z</time>
      </trkpt>
      <trkpt lat="49.42117" lon="1.04523">
        <ele>16</ele>
        <time>2026-05-26T07:40:12.983Z</time>
      </trkpt>
      <trkpt lat="49.42123" lon="1.0453">
        <ele>16</ele>
        <time>2026-05-26T07:40:17.983Z</time>
      </trkpt>
      <trkpt lat="49.42127" lon="1.04536">
        <ele>15</ele>
        <time>2026-05-26T07:40:22.487Z</time>
      </trkpt>
      <trkpt lat="49.42131" lon="1.04541">
        <ele>15</ele>
        <time>2026-05-26T07:40:26.684Z</time>
      </trkpt>
      <trkpt lat="49.42134" lon="1.04546">
        <ele>15</ele>
        <time>2026-05-26T07:40:30.983Z</time>
      </trkpt>
      <trkpt lat="49.42138" lon="1.04552">
        <ele>15</ele>
        <time>2026-05-26T07:40:35.903Z</time>
      </trkpt>
      <trkpt lat="49.42141" lon="1.04558">
        <ele>15</ele>
        <time>2026-05-26T07:40:39.983Z</time>
      </trkpt>
      <trkpt lat="49.42145" lon="1.04564">
        <ele>15</ele>
        <time>2026-05-26T07:40:44.807Z</time>
      </trkpt>
      <trkpt lat="49.42148" lon="1.0457">
        <ele>15</ele>
        <time>2026-05-26T07:40:48.983Z</time>
      </trkpt>
      <trkpt lat="49.4215" lon="1.04577">
        <ele>15</ele>
        <time>2026-05-26T07:40:53.684Z</time>
      </trkpt>
      <trkpt lat="49.42153" lon="1.04583">
        <ele>15</ele>
        <time>2026-05-26T07:40:57.983Z</time>
      </trkpt>
      <trkpt lat="49.42157" lon="1.04589">
        <ele>15</ele>
        <time>2026-05-26T07:41:02.544Z</time>
      </trkpt>
      <trkpt lat="49.42161" lon="1.04595">
        <ele>15</ele>
        <time>2026-05-26T07:41:06.969Z</time>
      </trkpt>
      <trkpt lat="49.42165" lon="1.04598">
        <ele>15</ele>
        <time>2026-05-26T07:41:10.983Z</time>
      </trkpt>
      <trkpt lat="49.4217" lon="1.046">
        <ele>15</ele>
        <time>2026-05-26T07:41:15.802Z</time>
      </trkpt>
      <trkpt lat="49.42176" lon="1.04601">
        <ele>15</ele>
        <time>2026-05-26T07:41:19.983Z</time>
      </trkpt>
      <trkpt lat="49.42182" lon="1.04604">
        <ele>14</ele>
        <time>2026-05-26T07:41:24.646Z</time>
      </trkpt>
      <trkpt lat="49.42186" lon="1.04608">
        <ele>14</ele>
        <time>2026-05-26T07:41:28.983Z</time>
      </trkpt>
      <trkpt lat="49.4219" lon="1.04614">
        <ele>14</ele>
        <time>2026-05-26T07:41:33.566Z</time>
      </trkpt>
      <trkpt lat="49.42194" lon="1.04621">
        <ele>14</ele>
        <time>2026-05-26T07:41:37.904Z</time>
      </trkpt>
      <trkpt lat="49.42197" lon="1.04627">
        <ele>14</ele>
        <time>2026-05-26T07:41:41.984Z</time>
      </trkpt>
      <trkpt lat="49.42202" lon="1.04632">
        <ele>14</ele>
        <time>2026-05-26T07:41:46.763Z</time>
      </trkpt>
      <trkpt lat="49.42206" lon="1.04636">
        <ele>14</ele>
        <time>2026-05-26T07:41:50.983Z</time>
      </trkpt>
      <trkpt lat="49.4221" lon="1.04642">
        <ele>15</ele>
        <time>2026-05-26T07:41:55.648Z</time>
      </trkpt>
      <trkpt lat="49.42214" lon="1.04647">
        <ele>15</ele>
        <time>2026-05-26T07:41:59.983Z</time>
      </trkpt>
      <trkpt lat="49.42218" lon="1.04653">
        <ele>15</ele>
        <time>2026-05-26T07:42:03.983Z</time>
      </trkpt>
      <trkpt lat="49.42221" lon="1.0466">
        <ele>15</ele>
        <time>2026-05-26T07:42:08.983Z</time>
      </trkpt>
      <trkpt lat="49.42225" lon="1.04667">
        <ele>15</ele>
        <time>2026-05-26T07:42:13.983Z</time>
      </trkpt>
      <trkpt lat="49.42228" lon="1.04673">
        <ele>15</ele>
        <time>2026-05-26T07:42:18.963Z</time>
      </trkpt>
      <trkpt lat="49.42231" lon="1.04678">
        <ele>15</ele>
        <time>2026-05-26T07:42:22.983Z</time>
      </trkpt>
      <trkpt lat="49.42235" lon="1.04684">
        <ele>15</ele>
        <time>2026-05-26T07:42:27.903Z</time>
      </trkpt>
      <trkpt lat="49.42238" lon="1.0469">
        <ele>16</ele>
        <time>2026-05-26T07:42:31.984Z</time>
      </trkpt>
      <trkpt lat="49.42241" lon="1.04697">
        <ele>16</ele>
        <time>2026-05-26T07:42:36.770Z</time>
      </trkpt>
      <trkpt lat="49.42244" lon="1.04704">
        <ele>16</ele>
        <time>2026-05-26T07:42:40.983Z</time>
      </trkpt>
      <trkpt lat="49.42248" lon="1.04709">
        <ele>15</ele>
        <time>2026-05-26T07:42:44.983Z</time>
      </trkpt>
      <trkpt lat="49.42252" lon="1.04714">
        <ele>15</ele>
        <time>2026-05-26T07:42:49.983Z</time>
      </trkpt>
      <trkpt lat="49.42256" lon="1.04721">
        <ele>15</ele>
        <time>2026-05-26T07:42:54.586Z</time>
      </trkpt>
      <trkpt lat="49.42259" lon="1.04726">
        <ele>15</ele>
        <time>2026-05-26T07:42:58.687Z</time>
      </trkpt>
      <trkpt lat="49.42262" lon="1.04734">
        <ele>15</ele>
        <time>2026-05-26T07:43:02.983Z</time>
      </trkpt>
      <trkpt lat="49.42265" lon="1.04743">
        <ele>14</ele>
        <time>2026-05-26T07:43:07.983Z</time>
      </trkpt>
      <trkpt lat="49.42269" lon="1.04749">
        <ele>14</ele>
        <time>2026-05-26T07:43:12.983Z</time>
      </trkpt>
      <trkpt lat="49.42274" lon="1.04752">
        <ele>14</ele>
        <time>2026-05-26T07:43:17.969Z</time>
      </trkpt>
      <trkpt lat="49.42276" lon="1.04756">
        <ele>14</ele>
        <time>2026-05-26T07:43:21.983Z</time>
      </trkpt>
      <trkpt lat="49.42277" lon="1.0476">
        <ele>14</ele>
        <time>2026-05-26T07:43:26.531Z</time>
      </trkpt>
      <trkpt lat="49.4228" lon="1.04762">
        <ele>14</ele>
        <time>2026-05-26T07:43:31.685Z</time>
      </trkpt>
      <trkpt lat="49.42285" lon="1.04761">
        <ele>14</ele>
        <time>2026-05-26T07:43:35.983Z</time>
      </trkpt>
      <trkpt lat="49.4229" lon="1.04752">
        <ele>14</ele>
        <time>2026-05-26T07:43:39.983Z</time>
      </trkpt>
      <trkpt lat="49.42295" lon="1.04745">
        <ele>13</ele>
        <time>2026-05-26T07:43:44.987Z</time>
      </trkpt>
      <trkpt lat="49.423" lon="1.04748">
        <ele>13</ele>
        <time>2026-05-26T07:43:48.983Z</time>
      </trkpt>
      <trkpt lat="49.42304" lon="1.04752">
        <ele>13</ele>
        <time>2026-05-26T07:43:53.865Z</time>
      </trkpt>
      <trkpt lat="49.42308" lon="1.04756">
        <ele>13</ele>
        <time>2026-05-26T07:43:57.983Z</time>
      </trkpt>
      <trkpt lat="49.42312" lon="1.04764">
        <ele>13</ele>
        <time>2026-05-26T07:44:02.628Z</time>
      </trkpt>
      <trkpt lat="49.42316" lon="1.04771">
        <ele>13</ele>
        <time>2026-05-26T07:44:06.983Z</time>
      </trkpt>
      <trkpt lat="49.4232" lon="1.04778">
        <ele>12</ele>
        <time>2026-05-26T07:44:11.804Z</time>
      </trkpt>
      <trkpt lat="49.42324" lon="1.04783">
        <ele>12</ele>
        <time>2026-05-26T07:44:15.983Z</time>
      </trkpt>
      <trkpt lat="49.42326" lon="1.04788">
        <ele>12</ele>
        <time>2026-05-26T07:44:19.983Z</time>
      </trkpt>
      <trkpt lat="49.4233" lon="1.04792">
        <ele>12</ele>
        <time>2026-05-26T07:44:24.983Z</time>
      </trkpt>
      <trkpt lat="49.42331" lon="1.04794">
        <ele>12</ele>
        <time>2026-05-26T07:44:29.566Z</time>
      </trkpt>
      <trkpt lat="49.42333" lon="1.04795">
        <ele>12</ele>
        <time>2026-05-26T07:44:33.984Z</time>
      </trkpt>
      <trkpt lat="49.42335" lon="1.04802">
        <ele>12</ele>
        <time>2026-05-26T07:44:38.983Z</time>
      </trkpt>
      <trkpt lat="49.42337" lon="1.04809">
        <ele>12</ele>
        <time>2026-05-26T07:44:43.983Z</time>
      </trkpt>
      <trkpt lat="49.42338" lon="1.04813">
        <ele>12</ele>
        <time>2026-05-26T07:44:47.983Z</time>
      </trkpt>
      <trkpt lat="49.42336" lon="1.04819">
        <ele>12</ele>
        <time>2026-05-26T07:44:51.983Z</time>
      </trkpt>
      <trkpt lat="49.42332" lon="1.04824">
        <ele>12</ele>
        <time>2026-05-26T07:44:56.983Z</time>
      </trkpt>
      <trkpt lat="49.42329" lon="1.04829">
        <ele>12</ele>
        <time>2026-05-26T07:45:01.546Z</time>
      </trkpt>
      <trkpt lat="49.42326" lon="1.0483">
        <ele>12</ele>
        <time>2026-05-26T07:45:05.630Z</time>
      </trkpt>
      <trkpt lat="49.42325" lon="1.04837">
        <ele>12</ele>
        <time>2026-05-26T07:45:09.983Z</time>
      </trkpt>
      <trkpt lat="49.4233" lon="1.04844">
        <ele>12</ele>
        <time>2026-05-26T07:45:14.945Z</time>
      </trkpt>
      <trkpt lat="49.42332" lon="1.04849">
        <ele>12</ele>
        <time>2026-05-26T07:45:18.983Z</time>
      </trkpt>
      <trkpt lat="49.42336" lon="1.04853">
        <ele>12</ele>
        <time>2026-05-26T07:45:23.622Z</time>
      </trkpt>
      <trkpt lat="49.4234" lon="1.0486">
        <ele>12</ele>
        <time>2026-05-26T07:45:27.983Z</time>
      </trkpt>
      <trkpt lat="49.42345" lon="1.04865">
        <ele>12</ele>
        <time>2026-05-26T07:45:32.850Z</time>
      </trkpt>
      <trkpt lat="49.42349" lon="1.04869">
        <ele>12</ele>
        <time>2026-05-26T07:45:36.982Z</time>
      </trkpt>
      <trkpt lat="49.42352" lon="1.04878">
        <ele>12</ele>
        <time>2026-05-26T07:45:41.982Z</time>
      </trkpt>
      <trkpt lat="49.42354" lon="1.04887">
        <ele>12</ele>
        <time>2026-05-26T07:45:46.583Z</time>
      </trkpt>
      <trkpt lat="49.42356" lon="1.04894">
        <ele>12</ele>
        <time>2026-05-26T07:45:50.964Z</time>
      </trkpt>
      <trkpt lat="49.42357" lon="1.049">
        <ele>12</ele>
        <time>2026-05-26T07:45:54.982Z</time>
      </trkpt>
      <trkpt lat="49.4236" lon="1.04908">
        <ele>13</ele>
        <time>2026-05-26T07:45:59.508Z</time>
      </trkpt>
      <trkpt lat="49.42362" lon="1.04916">
        <ele>13</ele>
        <time>2026-05-26T07:46:03.982Z</time>
      </trkpt>
      <trkpt lat="49.42363" lon="1.04925">
        <ele>13</ele>
        <time>2026-05-26T07:46:08.886Z</time>
      </trkpt>
      <trkpt lat="49.42365" lon="1.04932">
        <ele>13</ele>
        <time>2026-05-26T07:46:12.982Z</time>
      </trkpt>
      <trkpt lat="49.42367" lon="1.0494">
        <ele>13</ele>
        <time>2026-05-26T07:46:17.948Z</time>
      </trkpt>
      <trkpt lat="49.42369" lon="1.04947">
        <ele>13</ele>
        <time>2026-05-26T07:46:21.982Z</time>
      </trkpt>
      <trkpt lat="49.42371" lon="1.04956">
        <ele>13</ele>
        <time>2026-05-26T07:46:26.843Z</time>
      </trkpt>
      <trkpt lat="49.42373" lon="1.04963">
        <ele>12</ele>
        <time>2026-05-26T07:46:30.982Z</time>
      </trkpt>
      <trkpt lat="49.42375" lon="1.04971">
        <ele>12</ele>
        <time>2026-05-26T07:46:35.764Z</time>
      </trkpt>
      <trkpt lat="49.42377" lon="1.04978">
        <ele>12</ele>
        <time>2026-05-26T07:46:39.926Z</time>
      </trkpt>
      <trkpt lat="49.42378" lon="1.04987">
        <ele>11</ele>
        <time>2026-05-26T07:46:44.642Z</time>
      </trkpt>
      <trkpt lat="49.42379" lon="1.04993">
        <ele>11</ele>
        <time>2026-05-26T07:46:48.982Z</time>
      </trkpt>
      <trkpt lat="49.4238" lon="1.05">
        <ele>11</ele>
        <time>2026-05-26T07:46:52.982Z</time>
      </trkpt>
      <trkpt lat="49.42381" lon="1.05009">
        <ele>11</ele>
        <time>2026-05-26T07:46:57.744Z</time>
      </trkpt>
      <trkpt lat="49.42383" lon="1.05017">
        <ele>11</ele>
        <time>2026-05-26T07:47:01.982Z</time>
      </trkpt>
      <trkpt lat="49.42385" lon="1.05025">
        <ele>11</ele>
        <time>2026-05-26T07:47:06.963Z</time>
      </trkpt>
      <trkpt lat="49.42386" lon="1.05031">
        <ele>11</ele>
        <time>2026-05-26T07:47:10.982Z</time>
      </trkpt>
      <trkpt lat="49.42387" lon="1.05039">
        <ele>11</ele>
        <time>2026-05-26T07:47:15.489Z</time>
      </trkpt>
      <trkpt lat="49.42388" lon="1.05046">
        <ele>11</ele>
        <time>2026-05-26T07:47:19.846Z</time>
      </trkpt>
      <trkpt lat="49.4239" lon="1.05055">
        <ele>11</ele>
        <time>2026-05-26T07:47:24.709Z</time>
      </trkpt>
      <trkpt lat="49.42392" lon="1.05062">
        <ele>11</ele>
        <time>2026-05-26T07:47:28.982Z</time>
      </trkpt>
      <trkpt lat="49.42394" lon="1.05071">
        <ele>12</ele>
        <time>2026-05-26T07:47:33.587Z</time>
      </trkpt>
      <trkpt lat="49.42396" lon="1.05079">
        <ele>12</ele>
        <time>2026-05-26T07:47:37.986Z</time>
      </trkpt>
      <trkpt lat="49.42397" lon="1.05086">
        <ele>12</ele>
        <time>2026-05-26T07:47:41.982Z</time>
      </trkpt>
      <trkpt lat="49.42399" lon="1.05094">
        <ele>12</ele>
        <time>2026-05-26T07:47:46.970Z</time>
      </trkpt>
      <trkpt lat="49.424" lon="1.05101">
        <ele>13</ele>
        <time>2026-05-26T07:47:50.982Z</time>
      </trkpt>
      <trkpt lat="49.42402" lon="1.05108">
        <ele>13</ele>
        <time>2026-05-26T07:47:55.768Z</time>
      </trkpt>
      <trkpt lat="49.42403" lon="1.05116">
        <ele>13</ele>
        <time>2026-05-26T07:47:59.923Z</time>
      </trkpt>
      <trkpt lat="49.42404" lon="1.05125">
        <ele>12</ele>
        <time>2026-05-26T07:48:04.768Z</time>
      </trkpt>
      <trkpt lat="49.42404" lon="1.05131">
        <ele>12</ele>
        <time>2026-05-26T07:48:08.982Z</time>
      </trkpt>
      <trkpt lat="49.42404" lon="1.05138">
        <ele>12</ele>
        <time>2026-05-26T07:48:13.982Z</time>
      </trkpt>
      <trkpt lat="49.42405" lon="1.05146">
        <ele>12</ele>
        <time>2026-05-26T07:48:18.982Z</time>
      </trkpt>
      <trkpt lat="49.42409" lon="1.0515">
        <ele>12</ele>
        <time>2026-05-26T07:48:23.982Z</time>
      </trkpt>
      <trkpt lat="49.4241" lon="1.05157">
        <ele>13</ele>
        <time>2026-05-26T07:48:28.924Z</time>
      </trkpt>
      <trkpt lat="49.42409" lon="1.05162">
        <ele>13</ele>
        <time>2026-05-26T07:48:32.984Z</time>
      </trkpt>
      <trkpt lat="49.42409" lon="1.05166">
        <ele>13</ele>
        <time>2026-05-26T07:48:37.362Z</time>
      </trkpt>
      <trkpt lat="49.42409" lon="1.0517">
        <ele>13</ele>
        <time>2026-05-26T07:48:41.384Z</time>
      </trkpt>
      <trkpt lat="49.42409" lon="1.05175">
        <ele>13</ele>
        <time>2026-05-26T07:48:45.468Z</time>
      </trkpt>
      <trkpt lat="49.42409" lon="1.05181">
        <ele>13</ele>
        <time>2026-05-26T07:48:49.603Z</time>
      </trkpt>
      <trkpt lat="49.42409" lon="1.05187">
        <ele>13</ele>
        <time>2026-05-26T07:48:53.982Z</time>
      </trkpt>
      <trkpt lat="49.4241" lon="1.05194">
        <ele>13</ele>
        <time>2026-05-26T07:48:58.463Z</time>
      </trkpt>
      <trkpt lat="49.42413" lon="1.05198">
        <ele>13</ele>
        <time>2026-05-26T07:49:02.467Z</time>
      </trkpt>
      <trkpt lat="49.42417" lon="1.05203">
        <ele>13</ele>
        <time>2026-05-26T07:49:06.982Z</time>
      </trkpt>
      <trkpt lat="49.42421" lon="1.05209">
        <ele>13</ele>
        <time>2026-05-26T07:49:11.983Z</time>
      </trkpt>
      <trkpt lat="49.42425" lon="1.05213">
        <ele>13</ele>
        <time>2026-05-26T07:49:16.982Z</time>
      </trkpt>
      <trkpt lat="49.4243" lon="1.05216">
        <ele>13</ele>
        <time>2026-05-26T07:49:21.804Z</time>
      </trkpt>
      <trkpt lat="49.42435" lon="1.05216">
        <ele>12</ele>
        <time>2026-05-26T07:49:25.982Z</time>
      </trkpt>
      <trkpt lat="49.42439" lon="1.05215">
        <ele>12</ele>
        <time>2026-05-26T07:49:29.982Z</time>
      </trkpt>
      <trkpt lat="49.42443" lon="1.05211">
        <ele>12</ele>
        <time>2026-05-26T07:49:34.648Z</time>
      </trkpt>
      <trkpt lat="49.42447" lon="1.05207">
        <ele>12</ele>
        <time>2026-05-26T07:49:38.982Z</time>
      </trkpt>
      <trkpt lat="49.42451" lon="1.05203">
        <ele>12</ele>
        <time>2026-05-26T07:49:43.254Z</time>
      </trkpt>
      <trkpt lat="49.42455" lon="1.05199">
        <ele>12</ele>
        <time>2026-05-26T07:49:47.982Z</time>
      </trkpt>
      <trkpt lat="49.42459" lon="1.05196">
        <ele>11</ele>
        <time>2026-05-26T07:49:52.982Z</time>
      </trkpt>
      <trkpt lat="49.42464" lon="1.05193">
        <ele>11</ele>
        <time>2026-05-26T07:49:57.583Z</time>
      </trkpt>
      <trkpt lat="49.42469" lon="1.05191">
        <ele>11</ele>
        <time>2026-05-26T07:50:01.982Z</time>
      </trkpt>
      <trkpt lat="49.42475" lon="1.0519">
        <ele>11</ele>
        <time>2026-05-26T07:50:06.566Z</time>
      </trkpt>
      <trkpt lat="49.42479" lon="1.05189">
        <ele>11</ele>
        <time>2026-05-26T07:50:10.728Z</time>
      </trkpt>
      <trkpt lat="49.42483" lon="1.0519">
        <ele>11</ele>
        <time>2026-05-26T07:50:14.982Z</time>
      </trkpt>
      <trkpt lat="49.42487" lon="1.05191">
        <ele>10</ele>
        <time>2026-05-26T07:50:18.982Z</time>
      </trkpt>
      <trkpt lat="49.42494" lon="1.05193">
        <ele>10</ele>
        <time>2026-05-26T07:50:23.982Z</time>
      </trkpt>
      <trkpt lat="49.42499" lon="1.05194">
        <ele>10</ele>
        <time>2026-05-26T07:50:28.684Z</time>
      </trkpt>
      <trkpt lat="49.42503" lon="1.05195">
        <ele>10</ele>
        <time>2026-05-26T07:50:32.982Z</time>
      </trkpt>
      <trkpt lat="49.42509" lon="1.05197">
        <ele>10</ele>
        <time>2026-05-26T07:50:37.623Z</time>
      </trkpt>
      <trkpt lat="49.42514" lon="1.05198">
        <ele>10</ele>
        <time>2026-05-26T07:50:41.982Z</time>
      </trkpt>
      <trkpt lat="49.4252" lon="1.05199">
        <ele>10</ele>
        <time>2026-05-26T07:50:46.623Z</time>
      </trkpt>
      <trkpt lat="49.42525" lon="1.052">
        <ele>10</ele>
        <time>2026-05-26T07:50:50.982Z</time>
      </trkpt>
      <trkpt lat="49.42529" lon="1.05202">
        <ele>10</ele>
        <time>2026-05-26T07:50:55.728Z</time>
      </trkpt>
      <trkpt lat="49.42534" lon="1.05203">
        <ele>10</ele>
        <time>2026-05-26T07:50:59.982Z</time>
      </trkpt>
      <trkpt lat="49.42539" lon="1.05206">
        <ele>10</ele>
        <time>2026-05-26T07:51:04.808Z</time>
      </trkpt>
      <trkpt lat="49.42543" lon="1.05206">
        <ele>10</ele>
        <time>2026-05-26T07:51:08.982Z</time>
      </trkpt>
      <trkpt lat="49.42549" lon="1.05203">
        <ele>10</ele>
        <time>2026-05-26T07:51:13.982Z</time>
      </trkpt>
      <trkpt lat="49.42552" lon="1.052">
        <ele>10</ele>
        <time>2026-05-26T07:51:17.982Z</time>
      </trkpt>
      <trkpt lat="49.42557" lon="1.05197">
        <ele>10</ele>
        <time>2026-05-26T07:51:22.869Z</time>
      </trkpt>
      <trkpt lat="49.42561" lon="1.05197">
        <ele>10</ele>
        <time>2026-05-26T07:51:26.982Z</time>
      </trkpt>
      <trkpt lat="49.42567" lon="1.05198">
        <ele>10</ele>
        <time>2026-05-26T07:51:31.728Z</time>
      </trkpt>
      <trkpt lat="49.42571" lon="1.052">
        <ele>9</ele>
        <time>2026-05-26T07:51:35.883Z</time>
      </trkpt>
      <trkpt lat="49.42576" lon="1.05202">
        <ele>9</ele>
        <time>2026-05-26T07:51:40.982Z</time>
      </trkpt>
      <trkpt lat="49.42579" lon="1.05202">
        <ele>9</ele>
        <time>2026-05-26T07:51:44.982Z</time>
      </trkpt>
      <trkpt lat="49.42582" lon="1.05203">
        <ele>9</ele>
        <time>2026-05-26T07:51:49.590Z</time>
      </trkpt>
      <trkpt lat="49.42586" lon="1.05204">
        <ele>9</ele>
        <time>2026-05-26T07:51:53.944Z</time>
      </trkpt>
      <trkpt lat="49.42589" lon="1.05206">
        <ele>9</ele>
        <time>2026-05-26T07:51:57.982Z</time>
      </trkpt>
      <trkpt lat="49.42593" lon="1.05208">
        <ele>9</ele>
        <time>2026-05-26T07:52:02.655Z</time>
      </trkpt>
      <trkpt lat="49.42598" lon="1.05212">
        <ele>8</ele>
        <time>2026-05-26T07:52:06.982Z</time>
      </trkpt>
      <trkpt lat="49.42601" lon="1.05213">
        <ele>8</ele>
        <time>2026-05-26T07:52:11.602Z</time>
      </trkpt>
      <trkpt lat="49.42604" lon="1.05215">
        <ele>8</ele>
        <time>2026-05-26T07:52:15.667Z</time>
      </trkpt>
      <trkpt lat="49.42606" lon="1.05215">
        <ele>8</ele>
        <time>2026-05-26T07:52:19.981Z</time>
      </trkpt>
      <trkpt lat="49.42608" lon="1.05215">
        <ele>8</ele>
        <time>2026-05-26T07:52:23.981Z</time>
      </trkpt>
      <trkpt lat="49.42613" lon="1.05216">
        <ele>8</ele>
        <time>2026-05-26T07:52:28.908Z</time>
      </trkpt>
      <trkpt lat="49.42616" lon="1.05217">
        <ele>8</ele>
        <time>2026-05-26T07:52:32.981Z</time>
      </trkpt>
      <trkpt lat="49.42621" lon="1.05219">
        <ele>8</ele>
        <time>2026-05-26T07:52:37.981Z</time>
      </trkpt>
      <trkpt lat="49.42625" lon="1.0522">
        <ele>9</ele>
        <time>2026-05-26T07:52:42.589Z</time>
      </trkpt>
      <trkpt lat="49.4263" lon="1.05222">
        <ele>9</ele>
        <time>2026-05-26T07:52:46.768Z</time>
      </trkpt>
      <trkpt lat="49.42635" lon="1.05224">
        <ele>9</ele>
        <time>2026-05-26T07:52:50.981Z</time>
      </trkpt>
      <trkpt lat="49.4264" lon="1.05226">
        <ele>9</ele>
        <time>2026-05-26T07:52:55.865Z</time>
      </trkpt>
      <trkpt lat="49.42647" lon="1.05228">
        <ele>9</ele>
        <time>2026-05-26T07:53:00.684Z</time>
      </trkpt>
      <trkpt lat="49.42652" lon="1.0523">
        <ele>9</ele>
        <time>2026-05-26T07:53:04.865Z</time>
      </trkpt>
      <trkpt lat="49.42658" lon="1.05231">
        <ele>10</ele>
        <time>2026-05-26T07:53:09.747Z</time>
      </trkpt>
      <trkpt lat="49.42662" lon="1.05233">
        <ele>10</ele>
        <time>2026-05-26T07:53:13.981Z</time>
      </trkpt>
      <trkpt lat="49.42668" lon="1.05235">
        <ele>10</ele>
        <time>2026-05-26T07:53:18.783Z</time>
      </trkpt>
      <trkpt lat="49.42672" lon="1.05236">
        <ele>10</ele>
        <time>2026-05-26T07:53:22.981Z</time>
      </trkpt>
      <trkpt lat="49.42678" lon="1.05238">
        <ele>10</ele>
        <time>2026-05-26T07:53:27.562Z</time>
      </trkpt>
      <trkpt lat="49.42683" lon="1.05238">
        <ele>10</ele>
        <time>2026-05-26T07:53:31.981Z</time>
      </trkpt>
      <trkpt lat="49.42689" lon="1.0524">
        <ele>10</ele>
        <time>2026-05-26T07:53:36.905Z</time>
      </trkpt>
      <trkpt lat="49.42693" lon="1.05241">
        <ele>10</ele>
        <time>2026-05-26T07:53:40.981Z</time>
      </trkpt>
      <trkpt lat="49.427" lon="1.05244">
        <ele>10</ele>
        <time>2026-05-26T07:53:45.808Z</time>
      </trkpt>
      <trkpt lat="49.42706" lon="1.05247">
        <ele>10</ele>
        <time>2026-05-26T07:53:50.348Z</time>
      </trkpt>
      <trkpt lat="49.42711" lon="1.05244">
        <ele>10</ele>
        <time>2026-05-26T07:53:54.950Z</time>
      </trkpt>
      <trkpt lat="49.42711" lon="1.05235">
        <ele>9</ele>
        <time>2026-05-26T07:53:58.981Z</time>
      </trkpt>
      <trkpt lat="49.42711" lon="1.05229">
        <ele>9</ele>
        <time>2026-05-26T07:54:03.027Z</time>
      </trkpt>
      <trkpt lat="49.42712" lon="1.05221">
        <ele>9</ele>
        <time>2026-05-26T07:54:07.742Z</time>
      </trkpt>
      <trkpt lat="49.42715" lon="1.05214">
        <ele>9</ele>
        <time>2026-05-26T07:54:11.981Z</time>
      </trkpt>
      <trkpt lat="49.42719" lon="1.05212">
        <ele>9</ele>
        <time>2026-05-26T07:54:16.825Z</time>
      </trkpt>
      <trkpt lat="49.42722" lon="1.05209">
        <ele>9</ele>
        <time>2026-05-26T07:54:20.981Z</time>
      </trkpt>
      <trkpt lat="49.42726" lon="1.05214">
        <ele>9</ele>
        <time>2026-05-26T07:56:36.981Z</time>
      </trkpt>
      <trkpt lat="49.42735" lon="1.05212">
        <ele>9</ele>
        <time>2026-05-26T07:56:41.666Z</time>
      </trkpt>
      <trkpt lat="49.4274" lon="1.05207">
        <ele>7</ele>
        <time>2026-05-26T07:56:45.981Z</time>
      </trkpt>
      <trkpt lat="49.42746" lon="1.05204">
        <ele>7</ele>
        <time>2026-05-26T07:56:50.849Z</time>
      </trkpt>
      <trkpt lat="49.42751" lon="1.052">
        <ele>7</ele>
        <time>2026-05-26T07:56:55.485Z</time>
      </trkpt>
      <trkpt lat="49.42756" lon="1.05197">
        <ele>7</ele>
        <time>2026-05-26T07:56:59.579Z</time>
      </trkpt>
      <trkpt lat="49.4276" lon="1.05194">
        <ele>7</ele>
        <time>2026-05-26T07:57:03.981Z</time>
      </trkpt>
      <trkpt lat="49.42763" lon="1.05197">
        <ele>7</ele>
        <time>2026-05-26T07:57:07.981Z</time>
      </trkpt>
      <trkpt lat="49.42765" lon="1.05195">
        <ele>5</ele>
        <time>2026-05-26T07:57:12.981Z</time>
      </trkpt>
      <trkpt lat="49.42769" lon="1.05191">
        <ele>5</ele>
        <time>2026-05-26T07:57:17.981Z</time>
      </trkpt>
      <trkpt lat="49.42773" lon="1.05188">
        <ele>5</ele>
        <time>2026-05-26T07:57:22.723Z</time>
      </trkpt>
      <trkpt lat="49.42777" lon="1.05184">
        <ele>5</ele>
        <time>2026-05-26T07:57:26.981Z</time>
      </trkpt>
      <trkpt lat="49.42781" lon="1.05178">
        <ele>5</ele>
        <time>2026-05-26T07:57:31.723Z</time>
      </trkpt>
      <trkpt lat="49.42784" lon="1.05173">
        <ele>5</ele>
        <time>2026-05-26T07:57:35.981Z</time>
      </trkpt>
      <trkpt lat="49.42788" lon="1.05167">
        <ele>5</ele>
        <time>2026-05-26T07:57:40.724Z</time>
      </trkpt>
      <trkpt lat="49.42792" lon="1.05163">
        <ele>5</ele>
        <time>2026-05-26T07:57:44.982Z</time>
      </trkpt>
      <trkpt lat="49.42797" lon="1.05158">
        <ele>5</ele>
        <time>2026-05-26T07:57:49.743Z</time>
      </trkpt>
      <trkpt lat="49.42801" lon="1.05153">
        <ele>5</ele>
        <time>2026-05-26T07:57:53.982Z</time>
      </trkpt>
      <trkpt lat="49.42805" lon="1.05147">
        <ele>5</ele>
        <time>2026-05-26T07:57:58.909Z</time>
      </trkpt>
      <trkpt lat="49.42808" lon="1.05145">
        <ele>5</ele>
        <time>2026-05-26T07:58:02.981Z</time>
      </trkpt>
      <trkpt lat="49.42812" lon="1.05141">
        <ele>5</ele>
        <time>2026-05-26T07:58:07.981Z</time>
      </trkpt>
      <trkpt lat="49.42817" lon="1.05136">
        <ele>5</ele>
        <time>2026-05-26T07:58:12.667Z</time>
      </trkpt>
      <trkpt lat="49.42823" lon="1.05131">
        <ele>5</ele>
        <time>2026-05-26T07:58:16.981Z</time>
      </trkpt>
      <trkpt lat="49.42828" lon="1.05126">
        <ele>5</ele>
        <time>2026-05-26T07:58:21.703Z</time>
      </trkpt>
      <trkpt lat="49.42831" lon="1.05123">
        <ele>4</ele>
        <time>2026-05-26T07:58:25.864Z</time>
      </trkpt>
      <trkpt lat="49.42835" lon="1.0512">
        <ele>4</ele>
        <time>2026-05-26T07:58:29.904Z</time>
      </trkpt>
      <trkpt lat="49.42839" lon="1.05118">
        <ele>4</ele>
        <time>2026-05-26T07:58:33.981Z</time>
      </trkpt>
      <trkpt lat="49.42844" lon="1.05114">
        <ele>4</ele>
        <time>2026-05-26T07:58:38.807Z</time>
      </trkpt>
      <trkpt lat="49.42849" lon="1.05111">
        <ele>4</ele>
        <time>2026-05-26T07:58:42.981Z</time>
      </trkpt>
      <trkpt lat="49.42853" lon="1.05108">
        <ele>4</ele>
        <time>2026-05-26T07:58:46.981Z</time>
      </trkpt>
      <trkpt lat="49.42857" lon="1.05105">
        <ele>4</ele>
        <time>2026-05-26T07:58:50.981Z</time>
      </trkpt>
      <trkpt lat="49.42861" lon="1.05104">
        <ele>4</ele>
        <time>2026-05-26T07:58:55.763Z</time>
      </trkpt>
      <trkpt lat="49.42866" lon="1.05101">
        <ele>4</ele>
        <time>2026-05-26T07:59:00.347Z</time>
      </trkpt>
      <trkpt lat="49.42871" lon="1.05096">
        <ele>4</ele>
        <time>2026-05-26T07:59:04.922Z</time>
      </trkpt>
      <trkpt lat="49.42874" lon="1.05093">
        <ele>4</ele>
        <time>2026-05-26T07:59:08.980Z</time>
      </trkpt>
      <trkpt lat="49.42879" lon="1.05089">
        <ele>4</ele>
        <time>2026-05-26T07:59:13.782Z</time>
      </trkpt>
      <trkpt lat="49.42882" lon="1.05085">
        <ele>4</ele>
        <time>2026-05-26T07:59:17.908Z</time>
      </trkpt>
      <trkpt lat="49.42886" lon="1.0508">
        <ele>4</ele>
        <time>2026-05-26T07:59:21.980Z</time>
      </trkpt>
      <trkpt lat="49.42891" lon="1.05076">
        <ele>4</ele>
        <time>2026-05-26T07:59:26.980Z</time>
      </trkpt>
      <trkpt lat="49.42894" lon="1.05074">
        <ele>4</ele>
        <time>2026-05-26T07:59:31.949Z</time>
      </trkpt>
      <trkpt lat="49.42898" lon="1.05071">
        <ele>4</ele>
        <time>2026-05-26T07:59:35.980Z</time>
      </trkpt>
      <trkpt lat="49.42904" lon="1.05066">
        <ele>5</ele>
        <time>2026-05-26T07:59:40.983Z</time>
      </trkpt>
      <trkpt lat="49.42908" lon="1.05063">
        <ele>5</ele>
        <time>2026-05-26T07:59:44.980Z</time>
      </trkpt>
      <trkpt lat="49.42912" lon="1.0506">
        <ele>5</ele>
        <time>2026-05-26T07:59:49.980Z</time>
      </trkpt>
      <trkpt lat="49.42916" lon="1.05057">
        <ele>5</ele>
        <time>2026-05-26T07:59:53.980Z</time>
      </trkpt>
      <trkpt lat="49.42921" lon="1.05053">
        <ele>5</ele>
        <time>2026-05-26T07:59:58.748Z</time>
      </trkpt>
      <trkpt lat="49.42926" lon="1.05047">
        <ele>5</ele>
        <time>2026-05-26T08:00:03.666Z</time>
      </trkpt>
      <trkpt lat="49.4293" lon="1.05043">
        <ele>5</ele>
        <time>2026-05-26T08:00:07.980Z</time>
      </trkpt>
      <trkpt lat="49.42935" lon="1.05038">
        <ele>6</ele>
        <time>2026-05-26T08:00:12.982Z</time>
      </trkpt>
      <trkpt lat="49.4294" lon="1.05034">
        <ele>6</ele>
        <time>2026-05-26T08:00:16.980Z</time>
      </trkpt>
      <trkpt lat="49.42943" lon="1.0503">
        <ele>6</ele>
        <time>2026-05-26T08:00:21.980Z</time>
      </trkpt>
      <trkpt lat="49.42946" lon="1.05028">
        <ele>6</ele>
        <time>2026-05-26T08:00:25.980Z</time>
      </trkpt>
      <trkpt lat="49.42952" lon="1.05023">
        <ele>6</ele>
        <time>2026-05-26T08:00:30.980Z</time>
      </trkpt>
      <trkpt lat="49.42957" lon="1.05018">
        <ele>6</ele>
        <time>2026-05-26T08:00:35.882Z</time>
      </trkpt>
      <trkpt lat="49.4296" lon="1.05016">
        <ele>7</ele>
        <time>2026-05-26T08:00:39.980Z</time>
      </trkpt>
      <trkpt lat="49.42965" lon="1.05011">
        <ele>7</ele>
        <time>2026-05-26T08:00:44.964Z</time>
      </trkpt>
      <trkpt lat="49.42969" lon="1.05008">
        <ele>7</ele>
        <time>2026-05-26T08:00:48.980Z</time>
      </trkpt>
      <trkpt lat="49.42974" lon="1.05005">
        <ele>7</ele>
        <time>2026-05-26T08:00:53.804Z</time>
      </trkpt>
      <trkpt lat="49.42979" lon="1.05">
        <ele>7</ele>
        <time>2026-05-26T08:00:58.687Z</time>
      </trkpt>
      <trkpt lat="49.42983" lon="1.04996">
        <ele>7</ele>
        <time>2026-05-26T08:01:03.243Z</time>
      </trkpt>
      <trkpt lat="49.42988" lon="1.04991">
        <ele>6</ele>
        <time>2026-05-26T08:01:07.687Z</time>
      </trkpt>
      <trkpt lat="49.42992" lon="1.04987">
        <ele>6</ele>
        <time>2026-05-26T08:01:11.980Z</time>
      </trkpt>
      <trkpt lat="49.42997" lon="1.04983">
        <ele>6</ele>
        <time>2026-05-26T08:01:16.828Z</time>
      </trkpt>
      <trkpt lat="49.43001" lon="1.04979">
        <ele>6</ele>
        <time>2026-05-26T08:01:20.980Z</time>
      </trkpt>
      <trkpt lat="49.43005" lon="1.04975">
        <ele>6</ele>
        <time>2026-05-26T08:01:25.943Z</time>
      </trkpt>
      <trkpt lat="49.43009" lon="1.04971">
        <ele>6</ele>
        <time>2026-05-26T08:01:29.980Z</time>
      </trkpt>
      <trkpt lat="49.43014" lon="1.04967">
        <ele>6</ele>
        <time>2026-05-26T08:01:34.980Z</time>
      </trkpt>
      <trkpt lat="49.43018" lon="1.04962">
        <ele>4</ele>
        <time>2026-05-26T08:01:39.587Z</time>
      </trkpt>
      <trkpt lat="49.43024" lon="1.04959">
        <ele>4</ele>
        <time>2026-05-26T08:01:43.705Z</time>
      </trkpt>
      <trkpt lat="49.43029" lon="1.04958">
        <ele>5</ele>
        <time>2026-05-26T08:01:47.980Z</time>
      </trkpt>
      <trkpt lat="49.43033" lon="1.04956">
        <ele>5</ele>
        <time>2026-05-26T08:01:51.980Z</time>
      </trkpt>
      <trkpt lat="49.43037" lon="1.04956">
        <ele>5</ele>
        <time>2026-05-26T08:01:55.980Z</time>
      </trkpt>
      <trkpt lat="49.43042" lon="1.04956">
        <ele>5</ele>
        <time>2026-05-26T08:02:00.980Z</time>
      </trkpt>
      <trkpt lat="49.43049" lon="1.04956">
        <ele>5</ele>
        <time>2026-05-26T08:02:05.604Z</time>
      </trkpt>
      <trkpt lat="49.43054" lon="1.04955">
        <ele>5</ele>
        <time>2026-05-26T08:02:09.980Z</time>
      </trkpt>
      <trkpt lat="49.4306" lon="1.04954">
        <ele>5</ele>
        <time>2026-05-26T08:02:14.746Z</time>
      </trkpt>
      <trkpt lat="49.43064" lon="1.04953">
        <ele>5</ele>
        <time>2026-05-26T08:02:18.980Z</time>
      </trkpt>
      <trkpt lat="49.43069" lon="1.04951">
        <ele>5</ele>
        <time>2026-05-26T08:02:23.983Z</time>
      </trkpt>
      <trkpt lat="49.43073" lon="1.04951">
        <ele>6</ele>
        <time>2026-05-26T08:02:27.980Z</time>
      </trkpt>
      <trkpt lat="49.43078" lon="1.0495">
        <ele>6</ele>
        <time>2026-05-26T08:02:32.980Z</time>
      </trkpt>
      <trkpt lat="49.43084" lon="1.04949">
        <ele>6</ele>
        <time>2026-05-26T08:02:37.829Z</time>
      </trkpt>
      <trkpt lat="49.43094" lon="1.0496">
        <ele>5</ele>
        <time>2026-05-26T08:07:03.979Z</time>
      </trkpt>
      <trkpt lat="49.43094" lon="1.0496">
        <ele>5</ele>
        <time>2026-05-26T08:07:08.979Z</time>
      </trkpt>
      <trkpt lat="49.43092" lon="1.04962">
        <ele>5</ele>
        <time>2026-05-26T08:07:13.950Z</time>
      </trkpt>
      <trkpt lat="49.43089" lon="1.04967">
        <ele>5</ele>
        <time>2026-05-26T08:07:18.962Z</time>
      </trkpt>
      <trkpt lat="49.4309" lon="1.04972">
        <ele>5</ele>
        <time>2026-05-26T08:07:23.309Z</time>
      </trkpt>
      <trkpt lat="49.43085" lon="1.04975">
        <ele>5</ele>
        <time>2026-05-26T08:07:27.979Z</time>
      </trkpt>
      <trkpt lat="49.4308" lon="1.04979">
        <ele>5</ele>
        <time>2026-05-26T08:07:32.704Z</time>
      </trkpt>
      <trkpt lat="49.43075" lon="1.04982">
        <ele>5</ele>
        <time>2026-05-26T08:07:37.385Z</time>
      </trkpt>
      <trkpt lat="49.4307" lon="1.04987">
        <ele>5</ele>
        <time>2026-05-26T08:07:41.979Z</time>
      </trkpt>
      <trkpt lat="49.43065" lon="1.0499">
        <ele>4</ele>
        <time>2026-05-26T08:07:46.762Z</time>
      </trkpt>
      <trkpt lat="49.43062" lon="1.04993">
        <ele>4</ele>
        <time>2026-05-26T08:07:50.979Z</time>
      </trkpt>
      <trkpt lat="49.43058" lon="1.04998">
        <ele>4</ele>
        <time>2026-05-26T08:07:55.979Z</time>
      </trkpt>
      <trkpt lat="49.43055" lon="1.05005">
        <ele>4</ele>
        <time>2026-05-26T08:08:00.707Z</time>
      </trkpt>
      <trkpt lat="49.43053" lon="1.05013">
        <ele>4</ele>
        <time>2026-05-26T08:08:04.979Z</time>
      </trkpt>
      <trkpt lat="49.4305" lon="1.0502">
        <ele>5</ele>
        <time>2026-05-26T08:08:09.943Z</time>
      </trkpt>
      <trkpt lat="49.43048" lon="1.05027">
        <ele>5</ele>
        <time>2026-05-26T08:08:14.526Z</time>
      </trkpt>
      <trkpt lat="49.43046" lon="1.05032">
        <ele>5</ele>
        <time>2026-05-26T08:08:18.979Z</time>
      </trkpt>
      <trkpt lat="49.43043" lon="1.0504">
        <ele>5</ele>
        <time>2026-05-26T08:08:23.641Z</time>
      </trkpt>
      <trkpt lat="49.43041" lon="1.05046">
        <ele>4</ele>
        <time>2026-05-26T08:08:27.979Z</time>
      </trkpt>
      <trkpt lat="49.43039" lon="1.05053">
        <ele>4</ele>
        <time>2026-05-26T08:08:32.369Z</time>
      </trkpt>
      <trkpt lat="49.43036" lon="1.05059">
        <ele>4</ele>
        <time>2026-05-26T08:08:36.979Z</time>
      </trkpt>
      <trkpt lat="49.43034" lon="1.05065">
        <ele>4</ele>
        <time>2026-05-26T08:08:40.979Z</time>
      </trkpt>
      <trkpt lat="49.43031" lon="1.05073">
        <ele>4</ele>
        <time>2026-05-26T08:08:45.979Z</time>
      </trkpt>
      <trkpt lat="49.43028" lon="1.0508">
        <ele>4</ele>
        <time>2026-05-26T08:08:50.563Z</time>
      </trkpt>
      <trkpt lat="49.43027" lon="1.05087">
        <ele>4</ele>
        <time>2026-05-26T08:08:54.979Z</time>
      </trkpt>
      <trkpt lat="49.43025" lon="1.05097">
        <ele>4</ele>
        <time>2026-05-26T08:08:59.563Z</time>
      </trkpt>
      <trkpt lat="49.43025" lon="1.05106">
        <ele>4</ele>
        <time>2026-05-26T08:09:03.979Z</time>
      </trkpt>
      <trkpt lat="49.43024" lon="1.05114">
        <ele>4</ele>
        <time>2026-05-26T08:09:08.547Z</time>
      </trkpt>
      <trkpt lat="49.43023" lon="1.05122">
        <ele>4</ele>
        <time>2026-05-26T08:09:12.979Z</time>
      </trkpt>
      <trkpt lat="49.43023" lon="1.05129">
        <ele>4</ele>
        <time>2026-05-26T08:09:16.979Z</time>
      </trkpt>
      <trkpt lat="49.43022" lon="1.05138">
        <ele>4</ele>
        <time>2026-05-26T08:09:21.979Z</time>
      </trkpt>
      <trkpt lat="49.43021" lon="1.05146">
        <ele>4</ele>
        <time>2026-05-26T08:09:26.506Z</time>
      </trkpt>
      <trkpt lat="49.4302" lon="1.05154">
        <ele>5</ele>
        <time>2026-05-26T08:09:30.979Z</time>
      </trkpt>
      <trkpt lat="49.43019" lon="1.05162">
        <ele>5</ele>
        <time>2026-05-26T08:09:35.548Z</time>
      </trkpt>
      <trkpt lat="49.43018" lon="1.0517">
        <ele>5</ele>
        <time>2026-05-26T08:09:39.947Z</time>
      </trkpt>
      <trkpt lat="49.43018" lon="1.05176">
        <ele>5</ele>
        <time>2026-05-26T08:09:43.979Z</time>
      </trkpt>
      <trkpt lat="49.43017" lon="1.05185">
        <ele>5</ele>
        <time>2026-05-26T08:09:48.903Z</time>
      </trkpt>
      <trkpt lat="49.43017" lon="1.05192">
        <ele>5</ele>
        <time>2026-05-26T08:09:52.979Z</time>
      </trkpt>
      <trkpt lat="49.43015" lon="1.052">
        <ele>5</ele>
        <time>2026-05-26T08:09:57.868Z</time>
      </trkpt>
      <trkpt lat="49.43014" lon="1.05207">
        <ele>5</ele>
        <time>2026-05-26T08:10:01.979Z</time>
      </trkpt>
      <trkpt lat="49.43013" lon="1.05215">
        <ele>6</ele>
        <time>2026-05-26T08:10:06.403Z</time>
      </trkpt>
      <trkpt lat="49.43011" lon="1.05223">
        <ele>6</ele>
        <time>2026-05-26T08:10:10.979Z</time>
      </trkpt>
      <trkpt lat="49.43009" lon="1.05232">
        <ele>6</ele>
        <time>2026-05-26T08:10:15.642Z</time>
      </trkpt>
      <trkpt lat="49.43009" lon="1.05241">
        <ele>6</ele>
        <time>2026-05-26T08:10:20.128Z</time>
      </trkpt>
      <trkpt lat="49.43009" lon="1.0525">
        <ele>6</ele>
        <time>2026-05-26T08:10:24.729Z</time>
      </trkpt>
      <trkpt lat="49.43008" lon="1.05256">
        <ele>6</ele>
        <time>2026-05-26T08:10:28.979Z</time>
      </trkpt>
      <trkpt lat="49.43007" lon="1.05265">
        <ele>6</ele>
        <time>2026-05-26T08:10:33.979Z</time>
      </trkpt>
      <trkpt lat="49.43006" lon="1.05272">
        <ele>6</ele>
        <time>2026-05-26T08:10:38.507Z</time>
      </trkpt>
      <trkpt lat="49.43006" lon="1.0528">
        <ele>6</ele>
        <time>2026-05-26T08:10:42.979Z</time>
      </trkpt>
      <trkpt lat="49.43006" lon="1.0529">
        <ele>6</ele>
        <time>2026-05-26T08:10:47.623Z</time>
      </trkpt>
      <trkpt lat="49.43006" lon="1.05299">
        <ele>5</ele>
        <time>2026-05-26T08:10:51.979Z</time>
      </trkpt>
      <trkpt lat="49.43006" lon="1.05307">
        <ele>5</ele>
        <time>2026-05-26T08:10:56.569Z</time>
      </trkpt>
      <trkpt lat="49.43005" lon="1.05312">
        <ele>5</ele>
        <time>2026-05-26T08:11:00.979Z</time>
      </trkpt>
      <trkpt lat="49.43006" lon="1.05314">
        <ele>5</ele>
        <time>2026-05-26T08:11:54.646Z</time>
      </trkpt>
      <trkpt lat="49.43007" lon="1.05313">
        <ele>5</ele>
        <time>2026-05-26T08:11:58.979Z</time>
      </trkpt>
      <trkpt lat="49.43007" lon="1.05316">
        <ele>5</ele>
        <time>2026-05-26T08:12:03.979Z</time>
      </trkpt>
      <trkpt lat="49.43006" lon="1.05328">
        <ele>5</ele>
        <time>2026-05-26T08:12:08.979Z</time>
      </trkpt>
      <trkpt lat="49.43011" lon="1.05335">
        <ele>5</ele>
        <time>2026-05-26T08:12:13.979Z</time>
      </trkpt>
      <trkpt lat="49.43014" lon="1.05343">
        <ele>5</ele>
        <time>2026-05-26T08:12:17.979Z</time>
      </trkpt>
      <trkpt lat="49.43013" lon="1.05351">
        <ele>4</ele>
        <time>2026-05-26T08:12:21.979Z</time>
      </trkpt>
      <trkpt lat="49.43012" lon="1.05355">
        <ele>4</ele>
        <time>2026-05-26T08:12:25.979Z</time>
      </trkpt>
      <trkpt lat="49.43012" lon="1.0536">
        <ele>4</ele>
        <time>2026-05-26T08:12:30.979Z</time>
      </trkpt>
      <trkpt lat="49.4301" lon="1.05365">
        <ele>4</ele>
        <time>2026-05-26T08:12:35.843Z</time>
      </trkpt>
      <trkpt lat="49.43008" lon="1.05374">
        <ele>4</ele>
        <time>2026-05-26T08:12:39.978Z</time>
      </trkpt>
      <trkpt lat="49.43004" lon="1.05382">
        <ele>3</ele>
        <time>2026-05-26T08:12:44.544Z</time>
      </trkpt>
      <trkpt lat="49.43002" lon="1.0539">
        <ele>3</ele>
        <time>2026-05-26T08:12:48.978Z</time>
      </trkpt>
      <trkpt lat="49.43001" lon="1.05397">
        <ele>3</ele>
        <time>2026-05-26T08:12:53.978Z</time>
      </trkpt>
      <trkpt lat="49.43" lon="1.05405">
        <ele>3</ele>
        <time>2026-05-26T08:12:58.707Z</time>
      </trkpt>
      <trkpt lat="49.42999" lon="1.05413">
        <ele>3</ele>
        <time>2026-05-26T08:13:02.978Z</time>
      </trkpt>
      <trkpt lat="49.42998" lon="1.05422">
        <ele>3</ele>
        <time>2026-05-26T08:13:07.903Z</time>
      </trkpt>
      <trkpt lat="49.42999" lon="1.05428">
        <ele>3</ele>
        <time>2026-05-26T08:13:11.979Z</time>
      </trkpt>
      <trkpt lat="49.42998" lon="1.05437">
        <ele>3</ele>
        <time>2026-05-26T08:13:16.978Z</time>
      </trkpt>
      <trkpt lat="49.42997" lon="1.05446">
        <ele>3</ele>
        <time>2026-05-26T08:13:21.687Z</time>
      </trkpt>
      <trkpt lat="49.42995" lon="1.05454">
        <ele>3</ele>
        <time>2026-05-26T08:13:25.978Z</time>
      </trkpt>
      <trkpt lat="49.42992" lon="1.0546">
        <ele>4</ele>
        <time>2026-05-26T08:13:30.978Z</time>
      </trkpt>
      <trkpt lat="49.42988" lon="1.05465">
        <ele>4</ele>
        <time>2026-05-26T08:13:35.649Z</time>
      </trkpt>
      <trkpt lat="49.42986" lon="1.05471">
        <ele>4</ele>
        <time>2026-05-26T08:13:39.883Z</time>
      </trkpt>
      <trkpt lat="49.42985" lon="1.05482">
        <ele>4</ele>
        <time>2026-05-26T08:13:44.785Z</time>
      </trkpt>
      <trkpt lat="49.42984" lon="1.05487">
        <ele>4</ele>
        <time>2026-05-26T08:13:49.382Z</time>
      </trkpt>
      <trkpt lat="49.42983" lon="1.05496">
        <ele>4</ele>
        <time>2026-05-26T08:13:53.563Z</time>
      </trkpt>
      <trkpt lat="49.42982" lon="1.05504">
        <ele>4</ele>
        <time>2026-05-26T08:13:57.978Z</time>
      </trkpt>
      <trkpt lat="49.42982" lon="1.05512">
        <ele>4</ele>
        <time>2026-05-26T08:14:02.468Z</time>
      </trkpt>
      <trkpt lat="49.4298" lon="1.0552">
        <ele>5</ele>
        <time>2026-05-26T08:14:06.769Z</time>
      </trkpt>
      <trkpt lat="49.4298" lon="1.05522">
        <ele>5</ele>
        <time>2026-05-26T08:14:10.826Z</time>
      </trkpt>
      <trkpt lat="49.42979" lon="1.05523">
        <ele>5</ele>
        <time>2026-05-26T08:14:14.978Z</time>
      </trkpt>
      <trkpt lat="49.42974" lon="1.05528">
        <ele>5</ele>
        <time>2026-05-26T08:14:19.978Z</time>
      </trkpt>
      <trkpt lat="49.42967" lon="1.0553">
        <ele>5</ele>
        <time>2026-05-26T08:14:24.665Z</time>
      </trkpt>
      <trkpt lat="49.42959" lon="1.05523">
        <ele>5</ele>
        <time>2026-05-26T08:14:28.978Z</time>
      </trkpt>
      <trkpt lat="49.42953" lon="1.05522">
        <ele>4</ele>
        <time>2026-05-26T08:14:33.823Z</time>
      </trkpt>
      <trkpt lat="49.42949" lon="1.05524">
        <ele>4</ele>
        <time>2026-05-26T08:14:37.978Z</time>
      </trkpt>
      <trkpt lat="49.42946" lon="1.05528">
        <ele>4</ele>
        <time>2026-05-26T08:14:42.978Z</time>
      </trkpt>
      <trkpt lat="49.42942" lon="1.05531">
        <ele>4</ele>
        <time>2026-05-26T08:14:47.610Z</time>
      </trkpt>
      <trkpt lat="49.42937" lon="1.05529">
        <ele>4</ele>
        <time>2026-05-26T08:14:51.978Z</time>
      </trkpt>
      <trkpt lat="49.4293" lon="1.05528">
        <ele>5</ele>
        <time>2026-05-26T08:14:56.829Z</time>
      </trkpt>
      <trkpt lat="49.42925" lon="1.05527">
        <ele>5</ele>
        <time>2026-05-26T08:15:01.484Z</time>
      </trkpt>
      <trkpt lat="49.4292" lon="1.05526">
        <ele>5</ele>
        <time>2026-05-26T08:15:05.978Z</time>
      </trkpt>
      <trkpt lat="49.42915" lon="1.05524">
        <ele>5</ele>
        <time>2026-05-26T08:15:10.978Z</time>
      </trkpt>
      <trkpt lat="49.42915" lon="1.05524">
        <ele>5</ele>
        <time>2026-05-26T08:15:15.978Z</time>
      </trkpt>
      <trkpt lat="49.42914" lon="1.05524">
        <ele>5</ele>
        <time>2026-05-26T08:15:19.978Z</time>
      </trkpt>
      <trkpt lat="49.42911" lon="1.05528">
        <ele>5</ele>
        <time>2026-05-26T08:15:24.928Z</time>
      </trkpt>
      <trkpt lat="49.42911" lon="1.05541">
        <ele>5</ele>
        <time>2026-05-26T08:16:22.978Z</time>
      </trkpt>
      <trkpt lat="49.42911" lon="1.05543">
        <ele>6</ele>
        <time>2026-05-26T08:16:26.979Z</time>
      </trkpt>
      <trkpt lat="49.4291" lon="1.05547">
        <ele>6</ele>
        <time>2026-05-26T08:16:31.303Z</time>
      </trkpt>
      <trkpt lat="49.42909" lon="1.05551">
        <ele>6</ele>
        <time>2026-05-26T08:16:35.925Z</time>
      </trkpt>
      <trkpt lat="49.42908" lon="1.05552">
        <ele>6</ele>
        <time>2026-05-26T08:16:40.978Z</time>
      </trkpt>
      <trkpt lat="49.42907" lon="1.0555">
        <ele>6</ele>
        <time>2026-05-26T08:16:54.978Z</time>
      </trkpt>
      <trkpt lat="49.42907" lon="1.05549">
        <ele>6</ele>
        <time>2026-05-26T08:16:59.978Z</time>
      </trkpt>
      <trkpt lat="49.42904" lon="1.05549">
        <ele>6</ele>
        <time>2026-05-26T08:17:04.828Z</time>
      </trkpt>
      <trkpt lat="49.429" lon="1.05548">
        <ele>6</ele>
        <time>2026-05-26T08:17:08.978Z</time>
      </trkpt>
      <trkpt lat="49.42894" lon="1.05547">
        <ele>6</ele>
        <time>2026-05-26T08:17:13.978Z</time>
      </trkpt>
      <trkpt lat="49.4289" lon="1.05546">
        <ele>6</ele>
        <time>2026-05-26T08:17:18.484Z</time>
      </trkpt>
      <trkpt lat="49.42886" lon="1.05546">
        <ele>6</ele>
        <time>2026-05-26T08:17:22.979Z</time>
      </trkpt>
      <trkpt lat="49.42883" lon="1.0555">
        <ele>6</ele>
        <time>2026-05-26T08:17:27.588Z</time>
      </trkpt>
      <trkpt lat="49.42881" lon="1.05556">
        <ele>6</ele>
        <time>2026-05-26T08:17:31.848Z</time>
      </trkpt>
      <trkpt lat="49.42878" lon="1.05563">
        <ele>6</ele>
        <time>2026-05-26T08:17:35.978Z</time>
      </trkpt>
      <trkpt lat="49.42875" lon="1.05569">
        <ele>6</ele>
        <time>2026-05-26T08:17:40.978Z</time>
      </trkpt>
      <trkpt lat="49.42872" lon="1.05574">
        <ele>7</ele>
        <time>2026-05-26T08:17:45.978Z</time>
      </trkpt>
      <trkpt lat="49.42869" lon="1.05579">
        <ele>7</ele>
        <time>2026-05-26T08:17:49.978Z</time>
      </trkpt>
      <trkpt lat="49.42866" lon="1.05584">
        <ele>7</ele>
        <time>2026-05-26T08:18:04.978Z</time>
      </trkpt>
      <trkpt lat="49.42866" lon="1.05588">
        <ele>7</ele>
        <time>2026-05-26T08:18:09.826Z</time>
      </trkpt>
      <trkpt lat="49.42864" lon="1.05596">
        <ele>7</ele>
        <time>2026-05-26T08:18:13.846Z</time>
      </trkpt>
      <trkpt lat="49.42864" lon="1.05604">
        <ele>7</ele>
        <time>2026-05-26T08:18:17.978Z</time>
      </trkpt>
      <trkpt lat="49.42862" lon="1.05613">
        <ele>7</ele>
        <time>2026-05-26T08:18:22.978Z</time>
      </trkpt>
      <trkpt lat="49.42862" lon="1.0562">
        <ele>7</ele>
        <time>2026-05-26T08:18:51.348Z</time>
      </trkpt>
      <trkpt lat="49.42861" lon="1.05626">
        <ele>6</ele>
        <time>2026-05-26T08:18:55.978Z</time>
      </trkpt>
      <trkpt lat="49.42862" lon="1.05632">
        <ele>6</ele>
        <time>2026-05-26T08:19:00.443Z</time>
      </trkpt>
      <trkpt lat="49.42861" lon="1.0564">
        <ele>6</ele>
        <time>2026-05-26T08:19:04.977Z</time>
      </trkpt>
      <trkpt lat="49.42861" lon="1.05648">
        <ele>6</ele>
        <time>2026-05-26T08:19:09.724Z</time>
      </trkpt>
      <trkpt lat="49.4286" lon="1.05655">
        <ele>6</ele>
        <time>2026-05-26T08:19:13.977Z</time>
      </trkpt>
      <trkpt lat="49.4286" lon="1.05663">
        <ele>6</ele>
        <time>2026-05-26T08:19:18.823Z</time>
      </trkpt>
      <trkpt lat="49.4286" lon="1.05669">
        <ele>6</ele>
        <time>2026-05-26T08:19:22.977Z</time>
      </trkpt>
      <trkpt lat="49.42859" lon="1.05677">
        <ele>6</ele>
        <time>2026-05-26T08:19:27.683Z</time>
      </trkpt>
      <trkpt lat="49.42858" lon="1.05684">
        <ele>7</ele>
        <time>2026-05-26T08:19:31.977Z</time>
      </trkpt>
      <trkpt lat="49.42857" lon="1.0569">
        <ele>7</ele>
        <time>2026-05-26T08:19:36.842Z</time>
      </trkpt>
      <trkpt lat="49.42856" lon="1.05699">
        <ele>7</ele>
        <time>2026-05-26T08:19:41.907Z</time>
      </trkpt>
      <trkpt lat="49.42856" lon="1.05707">
        <ele>7</ele>
        <time>2026-05-26T08:19:45.977Z</time>
      </trkpt>
      <trkpt lat="49.42855" lon="1.05713">
        <ele>8</ele>
        <time>2026-05-26T08:19:49.977Z</time>
      </trkpt>
      <trkpt lat="49.42853" lon="1.0572">
        <ele>8</ele>
        <time>2026-05-26T08:19:54.623Z</time>
      </trkpt>
      <trkpt lat="49.4285" lon="1.05725">
        <ele>8</ele>
        <time>2026-05-26T08:19:58.977Z</time>
      </trkpt>
      <trkpt lat="49.42846" lon="1.0573">
        <ele>8</ele>
        <time>2026-05-26T08:20:03.501Z</time>
      </trkpt>
      <trkpt lat="49.42841" lon="1.05734">
        <ele>8</ele>
        <time>2026-05-26T08:20:07.977Z</time>
      </trkpt>
      <trkpt lat="49.42836" lon="1.05736">
        <ele>9</ele>
        <time>2026-05-26T08:20:12.404Z</time>
      </trkpt>
      <trkpt lat="49.42833" lon="1.05737">
        <ele>9</ele>
        <time>2026-05-26T08:20:16.689Z</time>
      </trkpt>
      <trkpt lat="49.42829" lon="1.05734">
        <ele>8</ele>
        <time>2026-05-26T08:20:20.977Z</time>
      </trkpt>
      <trkpt lat="49.42828" lon="1.05736">
        <ele>9</ele>
        <time>2026-05-26T08:23:46.977Z</time>
      </trkpt>
      <trkpt lat="49.42833" lon="1.05736">
        <ele>8</ele>
        <time>2026-05-26T08:23:51.977Z</time>
      </trkpt>
      <trkpt lat="49.42838" lon="1.05733">
        <ele>8</ele>
        <time>2026-05-26T08:23:56.977Z</time>
      </trkpt>
      <trkpt lat="49.42841" lon="1.05731">
        <ele>8</ele>
        <time>2026-05-26T08:24:01.977Z</time>
      </trkpt>
      <trkpt lat="49.42846" lon="1.05726">
        <ele>8</ele>
        <time>2026-05-26T08:24:06.977Z</time>
      </trkpt>
      <trkpt lat="49.42849" lon="1.05721">
        <ele>8</ele>
        <time>2026-05-26T08:24:11.977Z</time>
      </trkpt>
      <trkpt lat="49.42852" lon="1.05716">
        <ele>8</ele>
        <time>2026-05-26T08:24:16.977Z</time>
      </trkpt>
      <trkpt lat="49.42854" lon="1.05709">
        <ele>8</ele>
        <time>2026-05-26T08:24:21.977Z</time>
      </trkpt>
      <trkpt lat="49.42855" lon="1.05702">
        <ele>7</ele>
        <time>2026-05-26T08:24:26.467Z</time>
      </trkpt>
      <trkpt lat="49.42857" lon="1.05697">
        <ele>7</ele>
        <time>2026-05-26T08:24:30.928Z</time>
      </trkpt>
      <trkpt lat="49.42862" lon="1.05698">
        <ele>7</ele>
        <time>2026-05-26T08:24:34.977Z</time>
      </trkpt>
      <trkpt lat="49.42866" lon="1.057">
        <ele>7</ele>
        <time>2026-05-26T08:24:38.977Z</time>
      </trkpt>
      <trkpt lat="49.42872" lon="1.05702">
        <ele>7</ele>
        <time>2026-05-26T08:24:43.906Z</time>
      </trkpt>
      <trkpt lat="49.42876" lon="1.05703">
        <ele>7</ele>
        <time>2026-05-26T08:24:48.508Z</time>
      </trkpt>
      <trkpt lat="49.42881" lon="1.05704">
        <ele>7</ele>
        <time>2026-05-26T08:24:52.977Z</time>
      </trkpt>
      <trkpt lat="49.42887" lon="1.05705">
        <ele>7</ele>
        <time>2026-05-26T08:24:57.843Z</time>
      </trkpt>
      <trkpt lat="49.42891" lon="1.05706">
        <ele>7</ele>
        <time>2026-05-26T08:25:01.977Z</time>
      </trkpt>
      <trkpt lat="49.42898" lon="1.05707">
        <ele>7</ele>
        <time>2026-05-26T08:25:06.666Z</time>
      </trkpt>
      <trkpt lat="49.42906" lon="1.0571">
        <ele>7</ele>
        <time>2026-05-26T08:25:10.977Z</time>
      </trkpt>
      <trkpt lat="49.42913" lon="1.05711">
        <ele>7</ele>
        <time>2026-05-26T08:25:14.977Z</time>
      </trkpt>
      <trkpt lat="49.42914" lon="1.05711">
        <ele>7</ele>
        <time>2026-05-26T08:25:19.977Z</time>
      </trkpt>
      <trkpt lat="49.42919" lon="1.05711">
        <ele>7</ele>
        <time>2026-05-26T08:25:24.511Z</time>
      </trkpt>
      <trkpt lat="49.42925" lon="1.0571">
        <ele>7</ele>
        <time>2026-05-26T08:25:28.976Z</time>
      </trkpt>
      <trkpt lat="49.42928" lon="1.05715">
        <ele>7</ele>
        <time>2026-05-26T08:25:32.976Z</time>
      </trkpt>
      <trkpt lat="49.42931" lon="1.05715">
        <ele>7</ele>
        <time>2026-05-26T08:25:37.367Z</time>
      </trkpt>
      <trkpt lat="49.42936" lon="1.05716">
        <ele>7</ele>
        <time>2026-05-26T08:25:41.976Z</time>
      </trkpt>
      <trkpt lat="49.42941" lon="1.05717">
        <ele>7</ele>
        <time>2026-05-26T08:25:45.976Z</time>
      </trkpt>
      <trkpt lat="49.42945" lon="1.05718">
        <ele>7</ele>
        <time>2026-05-26T08:25:50.644Z</time>
      </trkpt>
      <trkpt lat="49.42945" lon="1.05719">
        <ele>7</ele>
        <time>2026-05-26T08:25:54.976Z</time>
      </trkpt>
      <trkpt lat="49.42948" lon="1.05719">
        <ele>7</ele>
        <time>2026-05-26T08:25:58.976Z</time>
      </trkpt>
      <trkpt lat="49.42954" lon="1.0572">
        <ele>7</ele>
        <time>2026-05-26T08:26:03.976Z</time>
      </trkpt>
      <trkpt lat="49.42958" lon="1.0572">
        <ele>7</ele>
        <time>2026-05-26T08:26:08.547Z</time>
      </trkpt>
      <trkpt lat="49.42961" lon="1.0572">
        <ele>8</ele>
        <time>2026-05-26T08:26:12.684Z</time>
      </trkpt>
      <trkpt lat="49.42965" lon="1.05721">
        <ele>8</ele>
        <time>2026-05-26T08:26:17.768Z</time>
      </trkpt>
      <trkpt lat="49.4297" lon="1.05724">
        <ele>8</ele>
        <time>2026-05-26T08:26:21.976Z</time>
      </trkpt>
      <trkpt lat="49.42972" lon="1.05726">
        <ele>8</ele>
        <time>2026-05-26T08:26:27.976Z</time>
      </trkpt>
      <trkpt lat="49.42972" lon="1.05724">
        <ele>8</ele>
        <time>2026-05-26T08:26:31.976Z</time>
      </trkpt>
      <trkpt lat="49.42977" lon="1.05722">
        <ele>8</ele>
        <time>2026-05-26T08:26:35.976Z</time>
      </trkpt>
      <trkpt lat="49.42983" lon="1.05722">
        <ele>8</ele>
        <time>2026-05-26T08:26:40.950Z</time>
      </trkpt>
      <trkpt lat="49.42988" lon="1.05721">
        <ele>8</ele>
        <time>2026-05-26T08:26:44.976Z</time>
      </trkpt>
      <trkpt lat="49.42994" lon="1.05721">
        <ele>8</ele>
        <time>2026-05-26T08:26:49.968Z</time>
      </trkpt>
      <trkpt lat="49.42997" lon="1.05723">
        <ele>8</ele>
        <time>2026-05-26T08:26:53.976Z</time>
      </trkpt>
      <trkpt lat="49.43003" lon="1.05725">
        <ele>8</ele>
        <time>2026-05-26T08:26:58.976Z</time>
      </trkpt>
      <trkpt lat="49.43009" lon="1.0573">
        <ele>8</ele>
        <time>2026-05-26T08:27:03.588Z</time>
      </trkpt>
      <trkpt lat="49.43012" lon="1.05732">
        <ele>8</ele>
        <time>2026-05-26T08:27:07.575Z</time>
      </trkpt>
      <trkpt lat="49.43015" lon="1.05735">
        <ele>7</ele>
        <time>2026-05-26T08:27:11.976Z</time>
      </trkpt>
      <trkpt lat="49.43015" lon="1.05743">
        <ele>7</ele>
        <time>2026-05-26T08:27:16.976Z</time>
      </trkpt>
      <trkpt lat="49.43014" lon="1.05751">
        <ele>7</ele>
        <time>2026-05-26T08:27:21.783Z</time>
      </trkpt>
      <trkpt lat="49.43014" lon="1.05759">
        <ele>8</ele>
        <time>2026-05-26T08:27:25.903Z</time>
      </trkpt>
      <trkpt lat="49.43013" lon="1.05764">
        <ele>8</ele>
        <time>2026-05-26T08:27:29.976Z</time>
      </trkpt>
      <trkpt lat="49.43012" lon="1.05774">
        <ele>8</ele>
        <time>2026-05-26T08:27:34.976Z</time>
      </trkpt>
      <trkpt lat="49.43012" lon="1.05783">
        <ele>8</ele>
        <time>2026-05-26T08:27:39.629Z</time>
      </trkpt>
      <trkpt lat="49.43011" lon="1.0579">
        <ele>8</ele>
        <time>2026-05-26T08:27:43.745Z</time>
      </trkpt>
      <trkpt lat="49.43011" lon="1.05797">
        <ele>8</ele>
        <time>2026-05-26T08:27:47.976Z</time>
      </trkpt>
      <trkpt lat="49.4301" lon="1.05805">
        <ele>8</ele>
        <time>2026-05-26T08:27:52.624Z</time>
      </trkpt>
      <trkpt lat="49.4301" lon="1.05812">
        <ele>8</ele>
        <time>2026-05-26T08:27:56.976Z</time>
      </trkpt>
      <trkpt lat="49.43009" lon="1.0582">
        <ele>8</ele>
        <time>2026-05-26T08:28:01.976Z</time>
      </trkpt>
      <trkpt lat="49.43009" lon="1.05828">
        <ele>8</ele>
        <time>2026-05-26T08:28:06.523Z</time>
      </trkpt>
      <trkpt lat="49.43009" lon="1.05834">
        <ele>8</ele>
        <time>2026-05-26T08:28:10.976Z</time>
      </trkpt>
      <trkpt lat="49.43008" lon="1.05842">
        <ele>8</ele>
        <time>2026-05-26T08:28:15.524Z</time>
      </trkpt>
      <trkpt lat="49.43008" lon="1.0585">
        <ele>8</ele>
        <time>2026-05-26T08:28:19.984Z</time>
      </trkpt>
      <trkpt lat="49.43008" lon="1.05855">
        <ele>8</ele>
        <time>2026-05-26T08:28:23.976Z</time>
      </trkpt>
      <trkpt lat="49.43008" lon="1.05863">
        <ele>8</ele>
        <time>2026-05-26T08:28:28.976Z</time>
      </trkpt>
      <trkpt lat="49.43008" lon="1.05873">
        <ele>8</ele>
        <time>2026-05-26T08:28:33.744Z</time>
      </trkpt>
      <trkpt lat="49.43007" lon="1.0588">
        <ele>7</ele>
        <time>2026-05-26T08:28:37.908Z</time>
      </trkpt>
      <trkpt lat="49.43006" lon="1.05888">
        <ele>7</ele>
        <time>2026-05-26T08:28:41.976Z</time>
      </trkpt>
      <trkpt lat="49.43006" lon="1.05897">
        <ele>7</ele>
        <time>2026-05-26T08:28:46.976Z</time>
      </trkpt>
      <trkpt lat="49.43005" lon="1.05906">
        <ele>6</ele>
        <time>2026-05-26T08:28:51.685Z</time>
      </trkpt>
      <trkpt lat="49.43005" lon="1.05911">
        <ele>6</ele>
        <time>2026-05-26T08:28:55.976Z</time>
      </trkpt>
      <trkpt lat="49.43007" lon="1.05914">
        <ele>6</ele>
        <time>2026-05-26T08:29:00.976Z</time>
      </trkpt>
      <trkpt lat="49.43007" lon="1.05912">
        <ele>6</ele>
        <time>2026-05-26T08:29:05.976Z</time>
      </trkpt>
      <trkpt lat="49.43007" lon="1.05911">
        <ele>6</ele>
        <time>2026-05-26T08:29:10.976Z</time>
      </trkpt>
      <trkpt lat="49.43009" lon="1.05911">
        <ele>6</ele>
        <time>2026-05-26T08:29:15.316Z</time>
      </trkpt>
      <trkpt lat="49.43015" lon="1.05912">
        <ele>7</ele>
        <time>2026-05-26T08:29:19.976Z</time>
      </trkpt>
      <trkpt lat="49.43019" lon="1.05917">
        <ele>7</ele>
        <time>2026-05-26T08:29:23.976Z</time>
      </trkpt>
      <trkpt lat="49.4302" lon="1.05925">
        <ele>7</ele>
        <time>2026-05-26T08:29:28.488Z</time>
      </trkpt>
      <trkpt lat="49.4302" lon="1.05932">
        <ele>7</ele>
        <time>2026-05-26T08:29:32.605Z</time>
      </trkpt>
      <trkpt lat="49.43019" lon="1.05938">
        <ele>7</ele>
        <time>2026-05-26T08:29:36.976Z</time>
      </trkpt>
      <trkpt lat="49.43019" lon="1.05943">
        <ele>7</ele>
        <time>2026-05-26T08:29:41.976Z</time>
      </trkpt>
      <trkpt lat="49.43019" lon="1.05941">
        <ele>7</ele>
        <time>2026-05-26T08:30:29.976Z</time>
      </trkpt>
      <trkpt lat="49.43021" lon="1.05942">
        <ele>7</ele>
        <time>2026-05-26T08:30:34.549Z</time>
      </trkpt>
      <trkpt lat="49.43021" lon="1.05944">
        <ele>7</ele>
        <time>2026-05-26T08:30:38.843Z</time>
      </trkpt>
      <trkpt lat="49.43018" lon="1.05953">
        <ele>7</ele>
        <time>2026-05-26T08:30:42.964Z</time>
      </trkpt>
      <trkpt lat="49.43016" lon="1.05961">
        <ele>7</ele>
        <time>2026-05-26T08:30:47.810Z</time>
      </trkpt>
      <trkpt lat="49.43016" lon="1.05969">
        <ele>7</ele>
        <time>2026-05-26T08:30:51.976Z</time>
      </trkpt>
      <trkpt lat="49.43016" lon="1.05976">
        <ele>7</ele>
        <time>2026-05-26T08:30:56.976Z</time>
      </trkpt>
      <trkpt lat="49.43016" lon="1.05985">
        <ele>7</ele>
        <time>2026-05-26T08:31:01.649Z</time>
      </trkpt>
      <trkpt lat="49.43016" lon="1.05993">
        <ele>7</ele>
        <time>2026-05-26T08:31:05.976Z</time>
      </trkpt>
      <trkpt lat="49.43017" lon="1.06002">
        <ele>7</ele>
        <time>2026-05-26T08:31:10.966Z</time>
      </trkpt>
      <trkpt lat="49.43016" lon="1.06013">
        <ele>7</ele>
        <time>2026-05-26T08:31:15.910Z</time>
      </trkpt>
      <trkpt lat="49.43015" lon="1.0602">
        <ele>7</ele>
        <time>2026-05-26T08:31:19.984Z</time>
      </trkpt>
      <trkpt lat="49.43014" lon="1.06026">
        <ele>7</ele>
        <time>2026-05-26T08:31:23.976Z</time>
      </trkpt>
      <trkpt lat="49.43014" lon="1.06035">
        <ele>9</ele>
        <time>2026-05-26T08:31:28.687Z</time>
      </trkpt>
      <trkpt lat="49.43013" lon="1.06042">
        <ele>9</ele>
        <time>2026-05-26T08:31:32.975Z</time>
      </trkpt>
      <trkpt lat="49.43012" lon="1.06049">
        <ele>9</ele>
        <time>2026-05-26T08:31:36.975Z</time>
      </trkpt>
      <trkpt lat="49.43012" lon="1.06059">
        <ele>9</ele>
        <time>2026-05-26T08:31:41.886Z</time>
      </trkpt>
      <trkpt lat="49.43012" lon="1.06066">
        <ele>9</ele>
        <time>2026-05-26T08:31:45.975Z</time>
      </trkpt>
      <trkpt lat="49.43011" lon="1.06074">
        <ele>9</ele>
        <time>2026-05-26T08:31:50.762Z</time>
      </trkpt>
      <trkpt lat="49.4301" lon="1.06079">
        <ele>9</ele>
        <time>2026-05-26T08:31:54.975Z</time>
      </trkpt>
      <trkpt lat="49.43009" lon="1.06085">
        <ele>9</ele>
        <time>2026-05-26T08:31:59.509Z</time>
      </trkpt>
      <trkpt lat="49.43007" lon="1.06095">
        <ele>9</ele>
        <time>2026-05-26T08:32:03.883Z</time>
      </trkpt>
      <trkpt lat="49.43008" lon="1.06102">
        <ele>9</ele>
        <time>2026-05-26T08:32:07.975Z</time>
      </trkpt>
      <trkpt lat="49.43008" lon="1.0611">
        <ele>9</ele>
        <time>2026-05-26T08:32:12.681Z</time>
      </trkpt>
      <trkpt lat="49.43009" lon="1.0612">
        <ele>9</ele>
        <time>2026-05-26T08:32:16.975Z</time>
      </trkpt>
      <trkpt lat="49.43011" lon="1.06126">
        <ele>9</ele>
        <time>2026-05-26T08:32:21.507Z</time>
      </trkpt>
      <trkpt lat="49.43013" lon="1.0613">
        <ele>9</ele>
        <time>2026-05-26T08:32:25.975Z</time>
      </trkpt>
      <trkpt lat="49.43013" lon="1.06137">
        <ele>9</ele>
        <time>2026-05-26T08:32:30.587Z</time>
      </trkpt>
      <trkpt lat="49.43012" lon="1.06146">
        <ele>9</ele>
        <time>2026-05-26T08:32:34.669Z</time>
      </trkpt>
      <trkpt lat="49.43017" lon="1.06148">
        <ele>9</ele>
        <time>2026-05-26T08:32:38.975Z</time>
      </trkpt>
      <trkpt lat="49.4302" lon="1.06144">
        <ele>9</ele>
        <time>2026-05-26T08:32:42.975Z</time>
      </trkpt>
      <trkpt lat="49.43025" lon="1.06144">
        <ele>9</ele>
        <time>2026-05-26T08:32:47.946Z</time>
      </trkpt>
      <trkpt lat="49.43031" lon="1.06146">
        <ele>9</ele>
        <time>2026-05-26T08:32:51.975Z</time>
      </trkpt>
      <trkpt lat="49.43036" lon="1.06147">
        <ele>9</ele>
        <time>2026-05-26T08:32:56.564Z</time>
      </trkpt>
      <trkpt lat="49.43041" lon="1.06149">
        <ele>9</ele>
        <time>2026-05-26T08:33:00.975Z</time>
      </trkpt>
      <trkpt lat="49.43046" lon="1.0615">
        <ele>10</ele>
        <time>2026-05-26T08:33:05.975Z</time>
      </trkpt>
      <trkpt lat="49.4305" lon="1.06151">
        <ele>10</ele>
        <time>2026-05-26T08:33:10.787Z</time>
      </trkpt>
      <trkpt lat="49.43055" lon="1.06149">
        <ele>10</ele>
        <time>2026-05-26T08:34:43.600Z</time>
      </trkpt>
      <trkpt lat="49.43056" lon="1.06149">
        <ele>10</ele>
        <time>2026-05-26T08:34:47.975Z</time>
      </trkpt>
      <trkpt lat="49.43055" lon="1.06153">
        <ele>10</ele>
        <time>2026-05-26T08:34:51.975Z</time>
      </trkpt>
      <trkpt lat="49.43046" lon="1.0615">
        <ele>10</ele>
        <time>2026-05-26T08:34:56.362Z</time>
      </trkpt>
      <trkpt lat="49.4304" lon="1.06147">
        <ele>9</ele>
        <time>2026-05-26T08:35:00.763Z</time>
      </trkpt>
      <trkpt lat="49.43034" lon="1.06149">
        <ele>9</ele>
        <time>2026-05-26T08:35:05.829Z</time>
      </trkpt>
      <trkpt lat="49.43029" lon="1.06149">
        <ele>9</ele>
        <time>2026-05-26T08:35:09.967Z</time>
      </trkpt>
      <trkpt lat="49.43024" lon="1.06149">
        <ele>9</ele>
        <time>2026-05-26T08:35:14.522Z</time>
      </trkpt>
      <trkpt lat="49.43019" lon="1.06149">
        <ele>9</ele>
        <time>2026-05-26T08:35:18.975Z</time>
      </trkpt>
      <trkpt lat="49.43012" lon="1.06148">
        <ele>9</ele>
        <time>2026-05-26T08:35:23.707Z</time>
      </trkpt>
      <trkpt lat="49.43007" lon="1.06152">
        <ele>9</ele>
        <time>2026-05-26T08:35:27.825Z</time>
      </trkpt>
      <trkpt lat="49.43006" lon="1.06158">
        <ele>9</ele>
        <time>2026-05-26T08:35:31.975Z</time>
      </trkpt>
      <trkpt lat="49.43006" lon="1.06166">
        <ele>9</ele>
        <time>2026-05-26T08:35:36.769Z</time>
      </trkpt>
      <trkpt lat="49.43005" lon="1.06174">
        <ele>9</ele>
        <time>2026-05-26T08:35:40.975Z</time>
      </trkpt>
      <trkpt lat="49.43006" lon="1.06178">
        <ele>9</ele>
        <time>2026-05-26T08:35:45.975Z</time>
      </trkpt>
      <trkpt lat="49.43006" lon="1.06188">
        <ele>8</ele>
        <time>2026-05-26T08:35:50.645Z</time>
      </trkpt>
      <trkpt lat="49.43005" lon="1.06196">
        <ele>8</ele>
        <time>2026-05-26T08:35:54.975Z</time>
      </trkpt>
      <trkpt lat="49.43004" lon="1.06201">
        <ele>8</ele>
        <time>2026-05-26T08:35:58.975Z</time>
      </trkpt>
      <trkpt lat="49.43005" lon="1.0621">
        <ele>9</ele>
        <time>2026-05-26T08:36:03.975Z</time>
      </trkpt>
      <trkpt lat="49.43006" lon="1.06218">
        <ele>9</ele>
        <time>2026-05-26T08:36:08.883Z</time>
      </trkpt>
      <trkpt lat="49.43006" lon="1.06226">
        <ele>9</ele>
        <time>2026-05-26T08:36:12.975Z</time>
      </trkpt>
      <trkpt lat="49.43005" lon="1.06233">
        <ele>9</ele>
        <time>2026-05-26T08:36:16.987Z</time>
      </trkpt>
      <trkpt lat="49.43004" lon="1.06242">
        <ele>9</ele>
        <time>2026-05-26T08:36:21.703Z</time>
      </trkpt>
      <trkpt lat="49.43004" lon="1.06249">
        <ele>9</ele>
        <time>2026-05-26T08:36:25.975Z</time>
      </trkpt>
      <trkpt lat="49.43004" lon="1.06256">
        <ele>9</ele>
        <time>2026-05-26T08:36:30.976Z</time>
      </trkpt>
      <trkpt lat="49.43003" lon="1.06262">
        <ele>9</ele>
        <time>2026-05-26T08:36:35.975Z</time>
      </trkpt>
      <trkpt lat="49.43003" lon="1.06269">
        <ele>10</ele>
        <time>2026-05-26T08:36:40.644Z</time>
      </trkpt>
      <trkpt lat="49.43001" lon="1.06277">
        <ele>10</ele>
        <time>2026-05-26T08:36:44.975Z</time>
      </trkpt>
      <trkpt lat="49.43001" lon="1.06286">
        <ele>10</ele>
        <time>2026-05-26T08:36:48.975Z</time>
      </trkpt>
      <trkpt lat="49.43001" lon="1.06295">
        <ele>11</ele>
        <time>2026-05-26T08:36:53.923Z</time>
      </trkpt>
      <trkpt lat="49.43001" lon="1.06302">
        <ele>11</ele>
        <time>2026-05-26T08:36:57.975Z</time>
      </trkpt>
      <trkpt lat="49.43" lon="1.06311">
        <ele>11</ele>
        <time>2026-05-26T08:37:02.975Z</time>
      </trkpt>
      <trkpt lat="49.42999" lon="1.0632">
        <ele>11</ele>
        <time>2026-05-26T08:37:07.975Z</time>
      </trkpt>
      <trkpt lat="49.42999" lon="1.06329">
        <ele>11</ele>
        <time>2026-05-26T08:37:12.547Z</time>
      </trkpt>
      <trkpt lat="49.42999" lon="1.06337">
        <ele>11</ele>
        <time>2026-05-26T08:37:16.867Z</time>
      </trkpt>
      <trkpt lat="49.42998" lon="1.06345">
        <ele>11</ele>
        <time>2026-05-26T08:37:20.975Z</time>
      </trkpt>
      <trkpt lat="49.42998" lon="1.06351">
        <ele>11</ele>
        <time>2026-05-26T08:37:24.975Z</time>
      </trkpt>
      <trkpt lat="49.42998" lon="1.06361">
        <ele>11</ele>
        <time>2026-05-26T08:37:29.909Z</time>
      </trkpt>
      <trkpt lat="49.42997" lon="1.06365">
        <ele>11</ele>
        <time>2026-05-26T08:37:33.975Z</time>
      </trkpt>
      <trkpt lat="49.42997" lon="1.0637">
        <ele>11</ele>
        <time>2026-05-26T08:37:38.975Z</time>
      </trkpt>
      <trkpt lat="49.42996" lon="1.06379">
        <ele>11</ele>
        <time>2026-05-26T08:37:43.844Z</time>
      </trkpt>
      <trkpt lat="49.42995" lon="1.06392">
        <ele>11</ele>
        <time>2026-05-26T08:37:47.974Z</time>
      </trkpt>
      <trkpt lat="49.42995" lon="1.06403">
        <ele>11</ele>
        <time>2026-05-26T08:37:51.974Z</time>
      </trkpt>
      <trkpt lat="49.42995" lon="1.06409">
        <ele>11</ele>
        <time>2026-05-26T08:37:56.763Z</time>
      </trkpt>
      <trkpt lat="49.42995" lon="1.06414">
        <ele>11</ele>
        <time>2026-05-26T08:38:00.863Z</time>
      </trkpt>
      <trkpt lat="49.42994" lon="1.06426">
        <ele>11</ele>
        <time>2026-05-26T08:38:05.823Z</time>
      </trkpt>
      <trkpt lat="49.42995" lon="1.0643">
        <ele>11</ele>
        <time>2026-05-26T08:38:09.974Z</time>
      </trkpt>
      <trkpt lat="49.42994" lon="1.06438">
        <ele>11</ele>
        <time>2026-05-26T08:38:14.974Z</time>
      </trkpt>
      <trkpt lat="49.42994" lon="1.06444">
        <ele>11</ele>
        <time>2026-05-26T08:38:18.974Z</time>
      </trkpt>
      <trkpt lat="49.42994" lon="1.06452">
        <ele>11</ele>
        <time>2026-05-26T08:38:23.342Z</time>
      </trkpt>
      <trkpt lat="49.42993" lon="1.06459">
        <ele>12</ele>
        <time>2026-05-26T08:38:27.645Z</time>
      </trkpt>
      <trkpt lat="49.42993" lon="1.06465">
        <ele>12</ele>
        <time>2026-05-26T08:38:31.974Z</time>
      </trkpt>
      <trkpt lat="49.42994" lon="1.06466">
        <ele>12</ele>
        <time>2026-05-26T08:38:36.974Z</time>
      </trkpt>
      <trkpt lat="49.42994" lon="1.06466">
        <ele>12</ele>
        <time>2026-05-26T08:38:41.974Z</time>
      </trkpt>
      <trkpt lat="49.42993" lon="1.06472">
        <ele>12</ele>
        <time>2026-05-26T08:38:45.974Z</time>
      </trkpt>
      <trkpt lat="49.42993" lon="1.0648">
        <ele>12</ele>
        <time>2026-05-26T08:38:50.923Z</time>
      </trkpt>
      <trkpt lat="49.42992" lon="1.06485">
        <ele>12</ele>
        <time>2026-05-26T08:38:54.974Z</time>
      </trkpt>
      <trkpt lat="49.42994" lon="1.06485">
        <ele>12</ele>
        <time>2026-05-26T08:38:59.863Z</time>
      </trkpt>
      <trkpt lat="49.42994" lon="1.06484">
        <ele>12</ele>
        <time>2026-05-26T08:39:03.789Z</time>
      </trkpt>
      <trkpt lat="49.42995" lon="1.06484">
        <ele>12</ele>
        <time>2026-05-26T08:39:07.974Z</time>
      </trkpt>
      <trkpt lat="49.42999" lon="1.06486">
        <ele>12</ele>
        <time>2026-05-26T08:39:12.703Z</time>
      </trkpt>
      <trkpt lat="49.43004" lon="1.06487">
        <ele>11</ele>
        <time>2026-05-26T08:39:16.974Z</time>
      </trkpt>
      <trkpt lat="49.4301" lon="1.06488">
        <ele>11</ele>
        <time>2026-05-26T08:39:21.606Z</time>
      </trkpt>
      <trkpt lat="49.43016" lon="1.0649">
        <ele>11</ele>
        <time>2026-05-26T08:39:25.829Z</time>
      </trkpt>
      <trkpt lat="49.4302" lon="1.06496">
        <ele>11</ele>
        <time>2026-05-26T08:39:29.974Z</time>
      </trkpt>
      <trkpt lat="49.43023" lon="1.06496">
        <ele>11</ele>
        <time>2026-05-26T08:39:34.925Z</time>
      </trkpt>
      <trkpt lat="49.43016" lon="1.06491">
        <ele>11</ele>
        <time>2026-05-26T08:40:30.974Z</time>
      </trkpt>
      <trkpt lat="49.43016" lon="1.0649">
        <ele>11</ele>
        <time>2026-05-26T08:40:39.974Z</time>
      </trkpt>
      <trkpt lat="49.43016" lon="1.0649">
        <ele>11</ele>
        <time>2026-05-26T08:40:46.819Z</time>
      </trkpt>
      <trkpt lat="49.43015" lon="1.06491">
        <ele>11</ele>
        <time>2026-05-26T08:40:51.078Z</time>
      </trkpt>
      <trkpt lat="49.43009" lon="1.06493">
        <ele>11</ele>
        <time>2026-05-26T08:40:55.339Z</time>
      </trkpt>
      <trkpt lat="49.43009" lon="1.06492">
        <ele>11</ele>
        <time>2026-05-26T08:41:17.974Z</time>
      </trkpt>
      <trkpt lat="49.43009" lon="1.06492">
        <ele>11</ele>
        <time>2026-05-26T08:41:22.974Z</time>
      </trkpt>
      <trkpt lat="49.43009" lon="1.06492">
        <ele>11</ele>
        <time>2026-05-26T08:41:28.940Z</time>
      </trkpt>
      <trkpt lat="49.43006" lon="1.06498">
        <ele>11</ele>
        <time>2026-05-26T08:41:32.974Z</time>
      </trkpt>
      <trkpt lat="49.43" lon="1.065">
        <ele>11</ele>
        <time>2026-05-26T08:41:36.974Z</time>
      </trkpt>
      <trkpt lat="49.42995" lon="1.065">
        <ele>11</ele>
        <time>2026-05-26T08:41:41.528Z</time>
      </trkpt>
      <trkpt lat="49.42989" lon="1.06502">
        <ele>11</ele>
        <time>2026-05-26T08:41:45.930Z</time>
      </trkpt>
      <trkpt lat="49.42988" lon="1.06503">
        <ele>11</ele>
        <time>2026-05-26T08:41:49.974Z</time>
      </trkpt>
      <trkpt lat="49.42987" lon="1.06504">
        <ele>11</ele>
        <time>2026-05-26T08:41:54.494Z</time>
      </trkpt>
      <trkpt lat="49.42979" lon="1.06502">
        <ele>11</ele>
        <time>2026-05-26T08:41:58.974Z</time>
      </trkpt>
      <trkpt lat="49.42975" lon="1.06502">
        <ele>11</ele>
        <time>2026-05-26T08:42:03.974Z</time>
      </trkpt>
      <trkpt lat="49.4297" lon="1.06501">
        <ele>11</ele>
        <time>2026-05-26T08:42:08.432Z</time>
      </trkpt>
      <trkpt lat="49.42964" lon="1.06501">
        <ele>11</ele>
        <time>2026-05-26T08:42:12.707Z</time>
      </trkpt>
      <trkpt lat="49.42957" lon="1.065">
        <ele>11</ele>
        <time>2026-05-26T08:42:16.947Z</time>
      </trkpt>
      <trkpt lat="49.42952" lon="1.065">
        <ele>11</ele>
        <time>2026-05-26T08:42:20.974Z</time>
      </trkpt>
      <trkpt lat="49.42947" lon="1.06499">
        <ele>11</ele>
        <time>2026-05-26T08:42:25.492Z</time>
      </trkpt>
      <trkpt lat="49.42942" lon="1.06499">
        <ele>11</ele>
        <time>2026-05-26T08:42:29.827Z</time>
      </trkpt>
      <trkpt lat="49.42937" lon="1.06498">
        <ele>11</ele>
        <time>2026-05-26T08:42:33.974Z</time>
      </trkpt>
      <trkpt lat="49.42929" lon="1.06503">
        <ele>12</ele>
        <time>2026-05-26T08:42:47.874Z</time>
      </trkpt>
      <trkpt lat="49.42925" lon="1.06508">
        <ele>12</ele>
        <time>2026-05-26T08:42:52.277Z</time>
      </trkpt>
      <trkpt lat="49.4292" lon="1.06514">
        <ele>12</ele>
        <time>2026-05-26T08:42:56.938Z</time>
      </trkpt>
      <trkpt lat="49.42916" lon="1.06517">
        <ele>12</ele>
        <time>2026-05-26T08:43:00.974Z</time>
      </trkpt>
      <trkpt lat="49.42912" lon="1.0652">
        <ele>12</ele>
        <time>2026-05-26T08:43:05.463Z</time>
      </trkpt>
      <trkpt lat="49.42907" lon="1.06522">
        <ele>12</ele>
        <time>2026-05-26T08:43:09.901Z</time>
      </trkpt>
      <trkpt lat="49.42902" lon="1.06524">
        <ele>11</ele>
        <time>2026-05-26T08:43:14.376Z</time>
      </trkpt>
      <trkpt lat="49.42897" lon="1.06527">
        <ele>11</ele>
        <time>2026-05-26T08:43:18.963Z</time>
      </trkpt>
      <trkpt lat="49.42894" lon="1.06531">
        <ele>11</ele>
        <time>2026-05-26T08:43:23.973Z</time>
      </trkpt>
      <trkpt lat="49.42888" lon="1.06537">
        <ele>11</ele>
        <time>2026-05-26T08:44:15.973Z</time>
      </trkpt>
      <trkpt lat="49.42888" lon="1.06537">
        <ele>11</ele>
        <time>2026-05-26T08:44:20.483Z</time>
      </trkpt>
      <trkpt lat="49.42887" lon="1.06538">
        <ele>11</ele>
        <time>2026-05-26T08:44:24.947Z</time>
      </trkpt>
      <trkpt lat="49.42886" lon="1.06537">
        <ele>11</ele>
        <time>2026-05-26T08:44:28.973Z</time>
      </trkpt>
      <trkpt lat="49.42884" lon="1.06537">
        <ele>11</ele>
        <time>2026-05-26T08:44:33.973Z</time>
      </trkpt>
      <trkpt lat="49.42878" lon="1.06531">
        <ele>11</ele>
        <time>2026-05-26T08:45:48.973Z</time>
      </trkpt>
      <trkpt lat="49.42878" lon="1.06531">
        <ele>11</ele>
        <time>2026-05-26T08:45:52.973Z</time>
      </trkpt>
      <trkpt lat="49.42878" lon="1.0653">
        <ele>11</ele>
        <time>2026-05-26T08:45:57.973Z</time>
      </trkpt>
      <trkpt lat="49.42874" lon="1.06529">
        <ele>7</ele>
        <time>2026-05-26T08:46:01.973Z</time>
      </trkpt>
      <trkpt lat="49.42868" lon="1.06528">
        <ele>7</ele>
        <time>2026-05-26T08:46:06.452Z</time>
      </trkpt>
      <trkpt lat="49.42866" lon="1.06529">
        <ele>7</ele>
        <time>2026-05-26T08:46:10.792Z</time>
      </trkpt>
      <trkpt lat="49.42863" lon="1.06527">
        <ele>7</ele>
        <time>2026-05-26T08:46:14.973Z</time>
      </trkpt>
      <trkpt lat="49.42859" lon="1.06527">
        <ele>7</ele>
        <time>2026-05-26T08:46:19.398Z</time>
      </trkpt>
      <trkpt lat="49.42855" lon="1.06525">
        <ele>7</ele>
        <time>2026-05-26T08:46:23.973Z</time>
      </trkpt>
      <trkpt lat="49.4285" lon="1.06525">
        <ele>7</ele>
        <time>2026-05-26T08:46:27.973Z</time>
      </trkpt>
      <trkpt lat="49.42845" lon="1.06525">
        <ele>6</ele>
        <time>2026-05-26T08:46:32.547Z</time>
      </trkpt>
      <trkpt lat="49.4284" lon="1.06524">
        <ele>6</ele>
        <time>2026-05-26T08:46:37.410Z</time>
      </trkpt>
      <trkpt lat="49.42834" lon="1.06523">
        <ele>6</ele>
        <time>2026-05-26T08:46:41.974Z</time>
      </trkpt>
      <trkpt lat="49.42828" lon="1.06522">
        <ele>6</ele>
        <time>2026-05-26T08:46:45.973Z</time>
      </trkpt>
      <trkpt lat="49.42823" lon="1.06522">
        <ele>6</ele>
        <time>2026-05-26T08:46:50.973Z</time>
      </trkpt>
      <trkpt lat="49.42818" lon="1.06522">
        <ele>5</ele>
        <time>2026-05-26T08:46:54.973Z</time>
      </trkpt>
      <trkpt lat="49.42813" lon="1.06521">
        <ele>5</ele>
        <time>2026-05-26T08:46:59.776Z</time>
      </trkpt>
      <trkpt lat="49.42808" lon="1.06521">
        <ele>5</ele>
        <time>2026-05-26T08:47:03.938Z</time>
      </trkpt>
      <trkpt lat="49.42802" lon="1.06522">
        <ele>5</ele>
        <time>2026-05-26T08:47:08.517Z</time>
      </trkpt>
      <trkpt lat="49.42797" lon="1.06522">
        <ele>5</ele>
        <time>2026-05-26T08:47:12.973Z</time>
      </trkpt>
      <trkpt lat="49.42792" lon="1.06521">
        <ele>6</ele>
        <time>2026-05-26T08:47:17.852Z</time>
      </trkpt>
      <trkpt lat="49.42788" lon="1.0652">
        <ele>6</ele>
        <time>2026-05-26T08:47:21.973Z</time>
      </trkpt>
      <trkpt lat="49.42785" lon="1.06521">
        <ele>6</ele>
        <time>2026-05-26T08:47:26.973Z</time>
      </trkpt>
      <trkpt lat="49.42781" lon="1.06523">
        <ele>6</ele>
        <time>2026-05-26T08:47:31.816Z</time>
      </trkpt>
      <trkpt lat="49.42777" lon="1.06522">
        <ele>6</ele>
        <time>2026-05-26T08:47:36.973Z</time>
      </trkpt>
      <trkpt lat="49.42775" lon="1.06522">
        <ele>6</ele>
        <time>2026-05-26T08:47:41.973Z</time>
      </trkpt>
      <trkpt lat="49.42776" lon="1.06522">
        <ele>6</ele>
        <time>2026-05-26T08:47:46.973Z</time>
      </trkpt>
      <trkpt lat="49.42773" lon="1.0652">
        <ele>6</ele>
        <time>2026-05-26T08:47:51.724Z</time>
      </trkpt>
      <trkpt lat="49.42768" lon="1.06519">
        <ele>6</ele>
        <time>2026-05-26T08:47:55.920Z</time>
      </trkpt>
      <trkpt lat="49.42766" lon="1.06517">
        <ele>6</ele>
        <time>2026-05-26T08:48:00.973Z</time>
      </trkpt>
      <trkpt lat="49.42761" lon="1.06516">
        <ele>8</ele>
        <time>2026-05-26T08:48:05.639Z</time>
      </trkpt>
      <trkpt lat="49.42756" lon="1.06515">
        <ele>8</ele>
        <time>2026-05-26T08:48:09.973Z</time>
      </trkpt>
      <trkpt lat="49.42751" lon="1.06514">
        <ele>8</ele>
        <time>2026-05-26T08:48:14.973Z</time>
      </trkpt>
      <trkpt lat="49.42746" lon="1.06512">
        <ele>8</ele>
        <time>2026-05-26T08:48:18.973Z</time>
      </trkpt>
      <trkpt lat="49.42742" lon="1.06511">
        <ele>8</ele>
        <time>2026-05-26T08:48:22.973Z</time>
      </trkpt>
      <trkpt lat="49.42736" lon="1.06508">
        <ele>8</ele>
        <time>2026-05-26T08:48:27.397Z</time>
      </trkpt>
      <trkpt lat="49.42734" lon="1.06501">
        <ele>7</ele>
        <time>2026-05-26T08:48:31.973Z</time>
      </trkpt>
      <trkpt lat="49.42733" lon="1.06497">
        <ele>7</ele>
        <time>2026-05-26T08:48:36.973Z</time>
      </trkpt>
      <trkpt lat="49.42735" lon="1.06496">
        <ele>7</ele>
        <time>2026-05-26T08:48:57.972Z</time>
      </trkpt>
      <trkpt lat="49.42735" lon="1.06495">
        <ele>7</ele>
        <time>2026-05-26T08:49:02.574Z</time>
      </trkpt>
      <trkpt lat="49.42731" lon="1.06497">
        <ele>7</ele>
        <time>2026-05-26T08:49:06.636Z</time>
      </trkpt>
      <trkpt lat="49.42728" lon="1.065">
        <ele>7</ele>
        <time>2026-05-26T08:49:10.972Z</time>
      </trkpt>
      <trkpt lat="49.42724" lon="1.06503">
        <ele>7</ele>
        <time>2026-05-26T08:49:14.972Z</time>
      </trkpt>
      <trkpt lat="49.42716" lon="1.06507">
        <ele>7</ele>
        <time>2026-05-26T08:49:19.972Z</time>
      </trkpt>
      <trkpt lat="49.42712" lon="1.0651">
        <ele>7</ele>
        <time>2026-05-26T08:49:24.454Z</time>
      </trkpt>
      <trkpt lat="49.42709" lon="1.06511">
        <ele>7</ele>
        <time>2026-05-26T08:49:28.972Z</time>
      </trkpt>
      <trkpt lat="49.42704" lon="1.06509">
        <ele>7</ele>
        <time>2026-05-26T08:49:33.744Z</time>
      </trkpt>
      <trkpt lat="49.42702" lon="1.06499">
        <ele>7</ele>
        <time>2026-05-26T08:49:37.972Z</time>
      </trkpt>
      <trkpt lat="49.42701" lon="1.0649">
        <ele>7</ele>
        <time>2026-05-26T08:49:42.972Z</time>
      </trkpt>
      <trkpt lat="49.427" lon="1.06482">
        <ele>8</ele>
        <time>2026-05-26T08:49:47.483Z</time>
      </trkpt>
      <trkpt lat="49.42699" lon="1.06476">
        <ele>8</ele>
        <time>2026-05-26T08:49:51.972Z</time>
      </trkpt>
      <trkpt lat="49.42698" lon="1.06469">
        <ele>8</ele>
        <time>2026-05-26T08:49:56.025Z</time>
      </trkpt>
      <trkpt lat="49.42696" lon="1.06462">
        <ele>8</ele>
        <time>2026-05-26T08:50:00.457Z</time>
      </trkpt>
      <trkpt lat="49.42695" lon="1.06453">
        <ele>9</ele>
        <time>2026-05-26T08:50:04.972Z</time>
      </trkpt>
      <trkpt lat="49.42693" lon="1.06447">
        <ele>9</ele>
        <time>2026-05-26T08:50:09.363Z</time>
      </trkpt>
      <trkpt lat="49.42692" lon="1.06444">
        <ele>9</ele>
        <time>2026-05-26T08:50:13.683Z</time>
      </trkpt>
      <trkpt lat="49.42692" lon="1.06442">
        <ele>9</ele>
        <time>2026-05-26T08:50:17.972Z</time>
      </trkpt>
      <trkpt lat="49.42691" lon="1.06436">
        <ele>9</ele>
        <time>2026-05-26T08:50:22.922Z</time>
      </trkpt>
      <trkpt lat="49.42689" lon="1.06428">
        <ele>10</ele>
        <time>2026-05-26T08:50:26.972Z</time>
      </trkpt>
      <trkpt lat="49.42689" lon="1.06425">
        <ele>10</ele>
        <time>2026-05-26T08:50:30.972Z</time>
      </trkpt>
      <trkpt lat="49.42688" lon="1.06418">
        <ele>10</ele>
        <time>2026-05-26T08:50:35.972Z</time>
      </trkpt>
      <trkpt lat="49.42686" lon="1.06412">
        <ele>10</ele>
        <time>2026-05-26T08:50:40.501Z</time>
      </trkpt>
      <trkpt lat="49.42685" lon="1.06405">
        <ele>10</ele>
        <time>2026-05-26T08:50:44.972Z</time>
      </trkpt>
      <trkpt lat="49.42683" lon="1.06399">
        <ele>10</ele>
        <time>2026-05-26T08:50:49.705Z</time>
      </trkpt>
      <trkpt lat="49.42681" lon="1.06392">
        <ele>10</ele>
        <time>2026-05-26T08:50:54.348Z</time>
      </trkpt>
      <trkpt lat="49.42679" lon="1.06386">
        <ele>11</ele>
        <time>2026-05-26T08:50:58.959Z</time>
      </trkpt>
      <trkpt lat="49.42678" lon="1.06378">
        <ele>11</ele>
        <time>2026-05-26T08:51:03.972Z</time>
      </trkpt>
      <trkpt lat="49.42666" lon="1.0637">
        <ele>10</ele>
        <time>2026-05-26T08:51:20.972Z</time>
      </trkpt>
      <trkpt lat="49.42663" lon="1.06368">
        <ele>10</ele>
        <time>2026-05-26T08:51:25.972Z</time>
      </trkpt>
      <trkpt lat="49.42657" lon="1.06362">
        <ele>10</ele>
        <time>2026-05-26T08:51:30.740Z</time>
      </trkpt>
      <trkpt lat="49.4265" lon="1.06356">
        <ele>11</ele>
        <time>2026-05-26T08:51:35.778Z</time>
      </trkpt>
      <trkpt lat="49.42645" lon="1.06359">
        <ele>11</ele>
        <time>2026-05-26T08:51:39.972Z</time>
      </trkpt>
      <trkpt lat="49.4263" lon="1.0636">
        <ele>11</ele>
        <time>2026-05-26T08:52:07.972Z</time>
      </trkpt>
      <trkpt lat="49.4263" lon="1.0636">
        <ele>11</ele>
        <time>2026-05-26T08:52:12.972Z</time>
      </trkpt>
      <trkpt lat="49.42628" lon="1.06362">
        <ele>11</ele>
        <time>2026-05-26T08:52:17.972Z</time>
      </trkpt>
      <trkpt lat="49.42621" lon="1.06362">
        <ele>11</ele>
        <time>2026-05-26T08:52:22.972Z</time>
      </trkpt>
      <trkpt lat="49.42618" lon="1.06362">
        <ele>11</ele>
        <time>2026-05-26T08:52:27.972Z</time>
      </trkpt>
      <trkpt lat="49.42614" lon="1.06364">
        <ele>11</ele>
        <time>2026-05-26T08:52:32.972Z</time>
      </trkpt>
      <trkpt lat="49.42613" lon="1.06362">
        <ele>11</ele>
        <time>2026-05-26T08:52:36.972Z</time>
      </trkpt>
      <trkpt lat="49.42612" lon="1.0636">
        <ele>11</ele>
        <time>2026-05-26T08:52:41.976Z</time>
      </trkpt>
      <trkpt lat="49.42606" lon="1.06358">
        <ele>11</ele>
        <time>2026-05-26T08:52:46.667Z</time>
      </trkpt>
      <trkpt lat="49.426" lon="1.06357">
        <ele>11</ele>
        <time>2026-05-26T08:52:51.733Z</time>
      </trkpt>
      <trkpt lat="49.42595" lon="1.06356">
        <ele>11</ele>
        <time>2026-05-26T08:52:55.972Z</time>
      </trkpt>
      <trkpt lat="49.42591" lon="1.06355">
        <ele>11</ele>
        <time>2026-05-26T08:53:00.770Z</time>
      </trkpt>
      <trkpt lat="49.42586" lon="1.06354">
        <ele>11</ele>
        <time>2026-05-26T08:53:04.791Z</time>
      </trkpt>
      <trkpt lat="49.42582" lon="1.06358">
        <ele>11</ele>
        <time>2026-05-26T08:53:08.972Z</time>
      </trkpt>
      <trkpt lat="49.42578" lon="1.06357">
        <ele>11</ele>
        <time>2026-05-26T08:53:12.972Z</time>
      </trkpt>
      <trkpt lat="49.42574" lon="1.06353">
        <ele>11</ele>
        <time>2026-05-26T08:53:17.849Z</time>
      </trkpt>
      <trkpt lat="49.42573" lon="1.06349">
        <ele>11</ele>
        <time>2026-05-26T08:53:21.972Z</time>
      </trkpt>
      <trkpt lat="49.42571" lon="1.06347">
        <ele>11</ele>
        <time>2026-05-26T08:53:26.886Z</time>
      </trkpt>
      <trkpt lat="49.4257" lon="1.06349">
        <ele>11</ele>
        <time>2026-05-26T08:53:35.972Z</time>
      </trkpt>
      <trkpt lat="49.4257" lon="1.06349">
        <ele>11</ele>
        <time>2026-05-26T08:53:39.972Z</time>
      </trkpt>
      <trkpt lat="49.42567" lon="1.06348">
        <ele>11</ele>
        <time>2026-05-26T08:53:44.121Z</time>
      </trkpt>
      <trkpt lat="49.42562" lon="1.06347">
        <ele>11</ele>
        <time>2026-05-26T08:53:48.638Z</time>
      </trkpt>
      <trkpt lat="49.42556" lon="1.06344">
        <ele>11</ele>
        <time>2026-05-26T08:53:53.972Z</time>
      </trkpt>
      <trkpt lat="49.42552" lon="1.06345">
        <ele>11</ele>
        <time>2026-05-26T08:53:58.189Z</time>
      </trkpt>
      <trkpt lat="49.42548" lon="1.06346">
        <ele>11</ele>
        <time>2026-05-26T08:54:02.972Z</time>
      </trkpt>
      <trkpt lat="49.42545" lon="1.06347">
        <ele>11</ele>
        <time>2026-05-26T08:54:07.971Z</time>
      </trkpt>
      <trkpt lat="49.42541" lon="1.06346">
        <ele>13</ele>
        <time>2026-05-26T08:54:12.129Z</time>
      </trkpt>
      <trkpt lat="49.42537" lon="1.06346">
        <ele>13</ele>
        <time>2026-05-26T08:54:16.696Z</time>
      </trkpt>
      <trkpt lat="49.42533" lon="1.06346">
        <ele>13</ele>
        <time>2026-05-26T08:54:20.785Z</time>
      </trkpt>
      <trkpt lat="49.42527" lon="1.06346">
        <ele>13</ele>
        <time>2026-05-26T08:54:24.971Z</time>
      </trkpt>
      <trkpt lat="49.42523" lon="1.06345">
        <ele>13</ele>
        <time>2026-05-26T08:54:29.529Z</time>
      </trkpt>
      <trkpt lat="49.4252" lon="1.06344">
        <ele>13</ele>
        <time>2026-05-26T08:54:33.971Z</time>
      </trkpt>
      <trkpt lat="49.42515" lon="1.0634">
        <ele>13</ele>
        <time>2026-05-26T08:54:38.971Z</time>
      </trkpt>
      <trkpt lat="49.42512" lon="1.06336">
        <ele>16</ele>
        <time>2026-05-26T08:54:43.541Z</time>
      </trkpt>
      <trkpt lat="49.42508" lon="1.06332">
        <ele>16</ele>
        <time>2026-05-26T08:54:47.784Z</time>
      </trkpt>
      <trkpt lat="49.42504" lon="1.06328">
        <ele>16</ele>
        <time>2026-05-26T08:54:52.207Z</time>
      </trkpt>
      <trkpt lat="49.42502" lon="1.06325">
        <ele>16</ele>
        <time>2026-05-26T08:54:56.232Z</time>
      </trkpt>
      <trkpt lat="49.42499" lon="1.06324">
        <ele>16</ele>
        <time>2026-05-26T08:55:00.548Z</time>
      </trkpt>
      <trkpt lat="49.42495" lon="1.06321">
        <ele>16</ele>
        <time>2026-05-26T08:55:04.964Z</time>
      </trkpt>
      <trkpt lat="49.42491" lon="1.06319">
        <ele>16</ele>
        <time>2026-05-26T08:55:09.228Z</time>
      </trkpt>
      <trkpt lat="49.42486" lon="1.06318">
        <ele>14</ele>
        <time>2026-05-26T08:55:13.971Z</time>
      </trkpt>
      <trkpt lat="49.42481" lon="1.06316">
        <ele>15</ele>
        <time>2026-05-26T08:55:18.971Z</time>
      </trkpt>
      <trkpt lat="49.42475" lon="1.06314">
        <ele>15</ele>
        <time>2026-05-26T08:55:23.943Z</time>
      </trkpt>
      <trkpt lat="49.4247" lon="1.06313">
        <ele>15</ele>
        <time>2026-05-26T08:55:28.951Z</time>
      </trkpt>
      <trkpt lat="49.42465" lon="1.06312">
        <ele>15</ele>
        <time>2026-05-26T08:55:33.911Z</time>
      </trkpt>
      <trkpt lat="49.4246" lon="1.06311">
        <ele>15</ele>
        <time>2026-05-26T08:55:38.790Z</time>
      </trkpt>
      <trkpt lat="49.42455" lon="1.06309">
        <ele>15</ele>
        <time>2026-05-26T08:55:43.726Z</time>
      </trkpt>
      <trkpt lat="49.42451" lon="1.06311">
        <ele>15</ele>
        <time>2026-05-26T08:55:47.972Z</time>
      </trkpt>
      <trkpt lat="49.42447" lon="1.06308">
        <ele>15</ele>
        <time>2026-05-26T08:55:52.693Z</time>
      </trkpt>
      <trkpt lat="49.42444" lon="1.06306">
        <ele>15</ele>
        <time>2026-05-26T08:55:56.971Z</time>
      </trkpt>
      <trkpt lat="49.42438" lon="1.06304">
        <ele>15</ele>
        <time>2026-05-26T08:56:01.886Z</time>
      </trkpt>
      <trkpt lat="49.42433" lon="1.06303">
        <ele>15</ele>
        <time>2026-05-26T08:56:06.402Z</time>
      </trkpt>
      <trkpt lat="49.42426" lon="1.06301">
        <ele>16</ele>
        <time>2026-05-26T08:56:10.529Z</time>
      </trkpt>
      <trkpt lat="49.42422" lon="1.06299">
        <ele>16</ele>
        <time>2026-05-26T08:56:14.789Z</time>
      </trkpt>
      <trkpt lat="49.42418" lon="1.06299">
        <ele>16</ele>
        <time>2026-05-26T08:56:18.907Z</time>
      </trkpt>
      <trkpt lat="49.42414" lon="1.06299">
        <ele>16</ele>
        <time>2026-05-26T08:56:22.971Z</time>
      </trkpt>
      <trkpt lat="49.42407" lon="1.06302">
        <ele>16</ele>
        <time>2026-05-26T08:56:27.971Z</time>
      </trkpt>
      <trkpt lat="49.42403" lon="1.06298">
        <ele>16</ele>
        <time>2026-05-26T08:56:32.971Z</time>
      </trkpt>
      <trkpt lat="49.42398" lon="1.06291">
        <ele>18</ele>
        <time>2026-05-26T08:56:37.885Z</time>
      </trkpt>
      <trkpt lat="49.42393" lon="1.06288">
        <ele>18</ele>
        <time>2026-05-26T08:56:42.302Z</time>
      </trkpt>
      <trkpt lat="49.42389" lon="1.06286">
        <ele>18</ele>
        <time>2026-05-26T08:56:46.423Z</time>
      </trkpt>
      <trkpt lat="49.42383" lon="1.06283">
        <ele>18</ele>
        <time>2026-05-26T08:56:50.725Z</time>
      </trkpt>
      <trkpt lat="49.42377" lon="1.0628">
        <ele>18</ele>
        <time>2026-05-26T08:56:55.766Z</time>
      </trkpt>
      <trkpt lat="49.42372" lon="1.06278">
        <ele>20</ele>
        <time>2026-05-26T08:56:59.971Z</time>
      </trkpt>
      <trkpt lat="49.42366" lon="1.06275">
        <ele>20</ele>
        <time>2026-05-26T08:57:04.942Z</time>
      </trkpt>
      <trkpt lat="49.42363" lon="1.06271">
        <ele>20</ele>
        <time>2026-05-26T08:57:09.544Z</time>
      </trkpt>
      <trkpt lat="49.42364" lon="1.06264">
        <ele>20</ele>
        <time>2026-05-26T08:57:13.971Z</time>
      </trkpt>
      <trkpt lat="49.42365" lon="1.06255">
        <ele>20</ele>
        <time>2026-05-26T08:57:18.563Z</time>
      </trkpt>
      <trkpt lat="49.42362" lon="1.06248">
        <ele>20</ele>
        <time>2026-05-26T08:57:22.971Z</time>
      </trkpt>
      <trkpt lat="49.42362" lon="1.06241">
        <ele>20</ele>
        <time>2026-05-26T08:57:26.971Z</time>
      </trkpt>
      <trkpt lat="49.42363" lon="1.06233">
        <ele>21</ele>
        <time>2026-05-26T08:57:31.464Z</time>
      </trkpt>
      <trkpt lat="49.42363" lon="1.06226">
        <ele>21</ele>
        <time>2026-05-26T08:57:35.971Z</time>
      </trkpt>
      <trkpt lat="49.42363" lon="1.06216">
        <ele>21</ele>
        <time>2026-05-26T08:57:40.764Z</time>
      </trkpt>
      <trkpt lat="49.42362" lon="1.06208">
        <ele>21</ele>
        <time>2026-05-26T08:57:45.428Z</time>
      </trkpt>
      <trkpt lat="49.42362" lon="1.062">
        <ele>21</ele>
        <time>2026-05-26T08:57:49.971Z</time>
      </trkpt>
      <trkpt lat="49.42362" lon="1.06191">
        <ele>21</ele>
        <time>2026-05-26T08:57:54.972Z</time>
      </trkpt>
      <trkpt lat="49.42361" lon="1.06185">
        <ele>21</ele>
        <time>2026-05-26T08:57:58.965Z</time>
      </trkpt>
      <trkpt lat="49.42361" lon="1.06177">
        <ele>21</ele>
        <time>2026-05-26T08:58:03.973Z</time>
      </trkpt>
      <trkpt lat="49.4236" lon="1.06169">
        <ele>21</ele>
        <time>2026-05-26T08:58:08.725Z</time>
      </trkpt>
      <trkpt lat="49.42359" lon="1.06161">
        <ele>21</ele>
        <time>2026-05-26T08:58:12.977Z</time>
      </trkpt>
      <trkpt lat="49.42358" lon="1.06155">
        <ele>21</ele>
        <time>2026-05-26T08:58:17.789Z</time>
      </trkpt>
      <trkpt lat="49.42356" lon="1.06149">
        <ele>21</ele>
        <time>2026-05-26T08:58:21.943Z</time>
      </trkpt>
      <trkpt lat="49.42357" lon="1.06143">
        <ele>21</ele>
        <time>2026-05-26T08:58:25.968Z</time>
      </trkpt>
      <trkpt lat="49.42355" lon="1.06138">
        <ele>21</ele>
        <time>2026-05-26T08:58:51.978Z</time>
      </trkpt>
      <trkpt lat="49.42355" lon="1.06137">
        <ele>21</ele>
        <time>2026-05-26T08:58:56.542Z</time>
      </trkpt>
      <trkpt lat="49.42354" lon="1.06132">
        <ele>21</ele>
        <time>2026-05-26T08:59:00.975Z</time>
      </trkpt>
      <trkpt lat="49.42354" lon="1.0613">
        <ele>21</ele>
        <time>2026-05-26T08:59:05.965Z</time>
      </trkpt>
      <trkpt lat="49.42354" lon="1.06125">
        <ele>20</ele>
        <time>2026-05-26T08:59:09.970Z</time>
      </trkpt>
      <trkpt lat="49.4235" lon="1.06122">
        <ele>20</ele>
        <time>2026-05-26T08:59:13.971Z</time>
      </trkpt>
      <trkpt lat="49.42344" lon="1.06122">
        <ele>22</ele>
        <time>2026-05-26T08:59:18.541Z</time>
      </trkpt>
      <trkpt lat="49.42343" lon="1.06116">
        <ele>22</ele>
        <time>2026-05-26T08:59:22.977Z</time>
      </trkpt>
      <trkpt lat="49.42345" lon="1.06107">
        <ele>22</ele>
        <time>2026-05-26T08:59:27.770Z</time>
      </trkpt>
      <trkpt lat="49.42346" lon="1.06098">
        <ele>22</ele>
        <time>2026-05-26T08:59:32.906Z</time>
      </trkpt>
      <trkpt lat="49.42347" lon="1.06091">
        <ele>23</ele>
        <time>2026-05-26T08:59:36.977Z</time>
      </trkpt>
      <trkpt lat="49.42347" lon="1.06085">
        <ele>23</ele>
        <time>2026-05-26T08:59:40.977Z</time>
      </trkpt>
      <trkpt lat="49.42348" lon="1.06077">
        <ele>21</ele>
        <time>2026-05-26T08:59:45.429Z</time>
      </trkpt>
      <trkpt lat="49.42349" lon="1.06068">
        <ele>23</ele>
        <time>2026-05-26T08:59:49.663Z</time>
      </trkpt>
      <trkpt lat="49.4235" lon="1.0606">
        <ele>23</ele>
        <time>2026-05-26T08:59:53.965Z</time>
      </trkpt>
      <trkpt lat="49.4235" lon="1.06052">
        <ele>23</ele>
        <time>2026-05-26T08:59:58.522Z</time>
      </trkpt>
      <trkpt lat="49.4235" lon="1.06044">
        <ele>23</ele>
        <time>2026-05-26T09:00:02.973Z</time>
      </trkpt>
      <trkpt lat="49.4235" lon="1.06036">
        <ele>24</ele>
        <time>2026-05-26T09:00:07.969Z</time>
      </trkpt>
      <trkpt lat="49.42351" lon="1.06027">
        <ele>24</ele>
        <time>2026-05-26T09:00:12.687Z</time>
      </trkpt>
      <trkpt lat="49.42351" lon="1.06019">
        <ele>24</ele>
        <time>2026-05-26T09:00:16.977Z</time>
      </trkpt>
      <trkpt lat="49.42352" lon="1.0601">
        <ele>24</ele>
        <time>2026-05-26T09:00:21.626Z</time>
      </trkpt>
      <trkpt lat="49.42353" lon="1.06003">
        <ele>24</ele>
        <time>2026-05-26T09:00:25.683Z</time>
      </trkpt>
      <trkpt lat="49.42353" lon="1.05995">
        <ele>24</ele>
        <time>2026-05-26T09:00:29.974Z</time>
      </trkpt>
      <trkpt lat="49.42354" lon="1.05986">
        <ele>23</ele>
        <time>2026-05-26T09:00:34.973Z</time>
      </trkpt>
      <trkpt lat="49.42354" lon="1.0598">
        <ele>23</ele>
        <time>2026-05-26T09:00:38.975Z</time>
      </trkpt>
      <trkpt lat="49.42354" lon="1.05971">
        <ele>23</ele>
        <time>2026-05-26T09:00:43.905Z</time>
      </trkpt>
      <trkpt lat="49.42355" lon="1.05963">
        <ele>23</ele>
        <time>2026-05-26T09:00:48.489Z</time>
      </trkpt>
      <trkpt lat="49.42355" lon="1.05956">
        <ele>23</ele>
        <time>2026-05-26T09:00:52.973Z</time>
      </trkpt>
      <trkpt lat="49.42355" lon="1.05947">
        <ele>23</ele>
        <time>2026-05-26T09:00:57.764Z</time>
      </trkpt>
      <trkpt lat="49.42355" lon="1.05941">
        <ele>23</ele>
        <time>2026-05-26T09:01:02.549Z</time>
      </trkpt>
      <trkpt lat="49.42352" lon="1.05936">
        <ele>23</ele>
        <time>2026-05-26T09:01:06.966Z</time>
      </trkpt>
      <trkpt lat="49.42346" lon="1.05935">
        <ele>21</ele>
        <time>2026-05-26T09:01:11.977Z</time>
      </trkpt>
      <trkpt lat="49.42342" lon="1.05936">
        <ele>21</ele>
        <time>2026-05-26T09:01:16.528Z</time>
      </trkpt>
      <trkpt lat="49.4234" lon="1.05936">
        <ele>21</ele>
        <time>2026-05-26T09:01:20.968Z</time>
      </trkpt>
      <trkpt lat="49.42335" lon="1.05935">
        <ele>21</ele>
        <time>2026-05-26T09:01:25.888Z</time>
      </trkpt>
      <trkpt lat="49.42331" lon="1.05933">
        <ele>21</ele>
        <time>2026-05-26T09:01:29.928Z</time>
      </trkpt>
      <trkpt lat="49.42326" lon="1.0593">
        <ele>20</ele>
        <time>2026-05-26T09:01:34.844Z</time>
      </trkpt>
      <trkpt lat="49.42321" lon="1.05929">
        <ele>20</ele>
        <time>2026-05-26T09:01:38.977Z</time>
      </trkpt>
      <trkpt lat="49.42317" lon="1.05928">
        <ele>20</ele>
        <time>2026-05-26T09:01:43.529Z</time>
      </trkpt>
      <trkpt lat="49.42312" lon="1.05927">
        <ele>20</ele>
        <time>2026-05-26T09:01:47.973Z</time>
      </trkpt>
      <trkpt lat="49.42307" lon="1.05927">
        <ele>20</ele>
        <time>2026-05-26T09:01:52.967Z</time>
      </trkpt>
      <trkpt lat="49.42303" lon="1.05928">
        <ele>20</ele>
        <time>2026-05-26T09:01:57.967Z</time>
      </trkpt>
      <trkpt lat="49.42297" lon="1.05928">
        <ele>20</ele>
        <time>2026-05-26T09:02:02.682Z</time>
      </trkpt>
      <trkpt lat="49.42292" lon="1.05927">
        <ele>20</ele>
        <time>2026-05-26T09:02:06.984Z</time>
      </trkpt>
      <trkpt lat="49.42286" lon="1.05926">
        <ele>22</ele>
        <time>2026-05-26T09:02:11.976Z</time>
      </trkpt>
      <trkpt lat="49.42281" lon="1.05924">
        <ele>22</ele>
        <time>2026-05-26T09:02:16.564Z</time>
      </trkpt>
      <trkpt lat="49.42277" lon="1.05922">
        <ele>22</ele>
        <time>2026-05-26T09:02:20.736Z</time>
      </trkpt>
      <trkpt lat="49.4227" lon="1.05918">
        <ele>22</ele>
        <time>2026-05-26T09:02:24.943Z</time>
      </trkpt>
      <trkpt lat="49.42265" lon="1.05918">
        <ele>22</ele>
        <time>2026-05-26T09:02:29.745Z</time>
      </trkpt>
      <trkpt lat="49.42261" lon="1.05917">
        <ele>23</ele>
        <time>2026-05-26T09:02:33.974Z</time>
      </trkpt>
      <trkpt lat="49.42257" lon="1.05916">
        <ele>23</ele>
        <time>2026-05-26T09:02:37.972Z</time>
      </trkpt>
      <trkpt lat="49.42251" lon="1.05915">
        <ele>23</ele>
        <time>2026-05-26T09:02:42.364Z</time>
      </trkpt>
      <trkpt lat="49.42247" lon="1.05914">
        <ele>23</ele>
        <time>2026-05-26T09:02:46.972Z</time>
      </trkpt>
      <trkpt lat="49.42243" lon="1.05914">
        <ele>23</ele>
        <time>2026-05-26T09:02:51.400Z</time>
      </trkpt>
      <trkpt lat="49.42238" lon="1.05913">
        <ele>23</ele>
        <time>2026-05-26T09:02:55.526Z</time>
      </trkpt>
      <trkpt lat="49.42232" lon="1.05913">
        <ele>24</ele>
        <time>2026-05-26T09:02:59.968Z</time>
      </trkpt>
      <trkpt lat="49.42226" lon="1.05911">
        <ele>24</ele>
        <time>2026-05-26T09:03:04.606Z</time>
      </trkpt>
      <trkpt lat="49.42222" lon="1.05921">
        <ele>24</ele>
        <time>2026-05-26T09:03:08.968Z</time>
      </trkpt>
      <trkpt lat="49.42217" lon="1.05926">
        <ele>24</ele>
        <time>2026-05-26T09:03:13.668Z</time>
      </trkpt>
      <trkpt lat="49.42211" lon="1.05927">
        <ele>24</ele>
        <time>2026-05-26T09:03:17.968Z</time>
      </trkpt>
      <trkpt lat="49.42206" lon="1.05926">
        <ele>22</ele>
        <time>2026-05-26T09:03:21.968Z</time>
      </trkpt>
      <trkpt lat="49.42201" lon="1.05921">
        <ele>22</ele>
        <time>2026-05-26T09:03:26.725Z</time>
      </trkpt>
      <trkpt lat="49.42197" lon="1.05914">
        <ele>22</ele>
        <time>2026-05-26T09:03:30.968Z</time>
      </trkpt>
      <trkpt lat="49.42196" lon="1.05909">
        <ele>22</ele>
        <time>2026-05-26T09:03:34.968Z</time>
      </trkpt>
      <trkpt lat="49.42191" lon="1.05908">
        <ele>22</ele>
        <time>2026-05-26T09:03:39.484Z</time>
      </trkpt>
      <trkpt lat="49.42191" lon="1.05914">
        <ele>22</ele>
        <time>2026-05-26T09:04:15.804Z</time>
      </trkpt>
      <trkpt lat="49.4219" lon="1.05918">
        <ele>22</ele>
        <time>2026-05-26T09:04:19.868Z</time>
      </trkpt>
      <trkpt lat="49.42183" lon="1.05926">
        <ele>22</ele>
        <time>2026-05-26T09:04:24.567Z</time>
      </trkpt>
      <trkpt lat="49.42178" lon="1.05929">
        <ele>20</ele>
        <time>2026-05-26T09:04:28.968Z</time>
      </trkpt>
      <trkpt lat="49.42173" lon="1.05931">
        <ele>20</ele>
        <time>2026-05-26T09:04:33.968Z</time>
      </trkpt>
      <trkpt lat="49.42167" lon="1.05931">
        <ele>20</ele>
        <time>2026-05-26T09:04:38.967Z</time>
      </trkpt>
      <trkpt lat="49.42163" lon="1.05932">
        <ele>20</ele>
        <time>2026-05-26T09:04:42.968Z</time>
      </trkpt>
      <trkpt lat="49.42158" lon="1.05931">
        <ele>20</ele>
        <time>2026-05-26T09:04:47.986Z</time>
      </trkpt>
      <trkpt lat="49.42154" lon="1.05929">
        <ele>20</ele>
        <time>2026-05-26T09:04:52.344Z</time>
      </trkpt>
      <trkpt lat="49.42149" lon="1.05929">
        <ele>18</ele>
        <time>2026-05-26T09:04:56.908Z</time>
      </trkpt>
      <trkpt lat="49.42146" lon="1.05932">
        <ele>19</ele>
        <time>2026-05-26T09:05:00.968Z</time>
      </trkpt>
      <trkpt lat="49.42143" lon="1.05932">
        <ele>19</ele>
        <time>2026-05-26T09:05:04.968Z</time>
      </trkpt>
      <trkpt lat="49.42138" lon="1.05931">
        <ele>19</ele>
        <time>2026-05-26T09:05:09.968Z</time>
      </trkpt>
      <trkpt lat="49.42133" lon="1.05931">
        <ele>19</ele>
        <time>2026-05-26T09:05:14.392Z</time>
      </trkpt>
      <trkpt lat="49.42128" lon="1.05929">
        <ele>18</ele>
        <time>2026-05-26T09:05:18.968Z</time>
      </trkpt>
      <trkpt lat="49.42122" lon="1.05927">
        <ele>19</ele>
        <time>2026-05-26T09:05:23.585Z</time>
      </trkpt>
      <trkpt lat="49.42116" lon="1.05924">
        <ele>19</ele>
        <time>2026-05-26T09:05:27.968Z</time>
      </trkpt>
      <trkpt lat="49.42113" lon="1.0592">
        <ele>19</ele>
        <time>2026-05-26T09:05:32.683Z</time>
      </trkpt>
      <trkpt lat="49.42111" lon="1.05918">
        <ele>19</ele>
        <time>2026-05-26T09:05:36.809Z</time>
      </trkpt>
      <trkpt lat="49.42106" lon="1.05913">
        <ele>19</ele>
        <time>2026-05-26T09:05:41.850Z</time>
      </trkpt>
      <trkpt lat="49.42105" lon="1.05908">
        <ele>19</ele>
        <time>2026-05-26T09:05:45.968Z</time>
      </trkpt>
      <trkpt lat="49.42102" lon="1.05899">
        <ele>19</ele>
        <time>2026-05-26T09:05:50.946Z</time>
      </trkpt>
      <trkpt lat="49.42101" lon="1.05892">
        <ele>19</ele>
        <time>2026-05-26T09:05:54.968Z</time>
      </trkpt>
      <trkpt lat="49.42098" lon="1.05886">
        <ele>19</ele>
        <time>2026-05-26T09:05:59.968Z</time>
      </trkpt>
      <trkpt lat="49.42098" lon="1.05878">
        <ele>19</ele>
        <time>2026-05-26T09:06:04.786Z</time>
      </trkpt>
      <trkpt lat="49.42097" lon="1.05872">
        <ele>21</ele>
        <time>2026-05-26T09:06:08.968Z</time>
      </trkpt>
      <trkpt lat="49.42097" lon="1.05865">
        <ele>20</ele>
        <time>2026-05-26T09:06:13.285Z</time>
      </trkpt>
      <trkpt lat="49.42092" lon="1.05863">
        <ele>21</ele>
        <time>2026-05-26T09:06:17.968Z</time>
      </trkpt>
      <trkpt lat="49.42089" lon="1.05866">
        <ele>21</ele>
        <time>2026-05-26T09:06:22.968Z</time>
      </trkpt>
      <trkpt lat="49.42088" lon="1.05866">
        <ele>21</ele>
        <time>2026-05-26T09:06:31.968Z</time>
      </trkpt>
      <trkpt lat="49.42088" lon="1.05865">
        <ele>21</ele>
        <time>2026-05-26T09:06:36.968Z</time>
      </trkpt>
      <trkpt lat="49.42088" lon="1.05864">
        <ele>21</ele>
        <time>2026-05-26T09:06:40.968Z</time>
      </trkpt>
      <trkpt lat="49.42087" lon="1.05857">
        <ele>21</ele>
        <time>2026-05-26T09:06:45.889Z</time>
      </trkpt>
      <trkpt lat="49.42084" lon="1.05851">
        <ele>21</ele>
        <time>2026-05-26T09:06:49.968Z</time>
      </trkpt>
      <trkpt lat="49.42079" lon="1.05844">
        <ele>21</ele>
        <time>2026-05-26T09:06:54.969Z</time>
      </trkpt>
      <trkpt lat="49.42078" lon="1.05835">
        <ele>21</ele>
        <time>2026-05-26T09:06:59.526Z</time>
      </trkpt>
      <trkpt lat="49.42075" lon="1.05828">
        <ele>21</ele>
        <time>2026-05-26T09:07:03.968Z</time>
      </trkpt>
      <trkpt lat="49.42074" lon="1.05819">
        <ele>21</ele>
        <time>2026-05-26T09:07:08.968Z</time>
      </trkpt>
      <trkpt lat="49.42075" lon="1.05811">
        <ele>19</ele>
        <time>2026-05-26T09:07:13.968Z</time>
      </trkpt>
      <trkpt lat="49.42074" lon="1.05802">
        <ele>19</ele>
        <time>2026-05-26T09:07:18.809Z</time>
      </trkpt>
      <trkpt lat="49.42073" lon="1.05795">
        <ele>19</ele>
        <time>2026-05-26T09:07:22.968Z</time>
      </trkpt>
      <trkpt lat="49.42073" lon="1.05786">
        <ele>19</ele>
        <time>2026-05-26T09:07:27.968Z</time>
      </trkpt>
      <trkpt lat="49.42076" lon="1.05778">
        <ele>19</ele>
        <time>2026-05-26T09:07:32.727Z</time>
      </trkpt>
      <trkpt lat="49.42079" lon="1.0578">
        <ele>19</ele>
        <time>2026-05-26T09:07:36.968Z</time>
      </trkpt>
      <trkpt lat="49.42079" lon="1.05783">
        <ele>19</ele>
        <time>2026-05-26T09:07:41.968Z</time>
      </trkpt>
      <trkpt lat="49.42079" lon="1.05784">
        <ele>19</ele>
        <time>2026-05-26T09:07:46.584Z</time>
      </trkpt>
      <trkpt lat="49.42082" lon="1.05792">
        <ele>19</ele>
        <time>2026-05-26T09:07:50.968Z</time>
      </trkpt>
      <trkpt lat="49.42086" lon="1.05799">
        <ele>19</ele>
        <time>2026-05-26T09:29:47.968Z</time>
      </trkpt>
      <trkpt lat="49.42087" lon="1.05807">
        <ele>19</ele>
        <time>2026-05-26T09:29:52.235Z</time>
      </trkpt>
      <trkpt lat="49.42088" lon="1.05814">
        <ele>19</ele>
        <time>2026-05-26T09:29:56.404Z</time>
      </trkpt>
      <trkpt lat="49.42091" lon="1.05819">
        <ele>19</ele>
        <time>2026-05-26T09:30:00.968Z</time>
      </trkpt>
      <trkpt lat="49.42097" lon="1.05824">
        <ele>21</ele>
        <time>2026-05-26T09:30:05.282Z</time>
      </trkpt>
      <trkpt lat="49.42099" lon="1.05832">
        <ele>19</ele>
        <time>2026-05-26T09:30:09.725Z</time>
      </trkpt>
      <trkpt lat="49.42097" lon="1.05844">
        <ele>21</ele>
        <time>2026-05-26T09:30:13.968Z</time>
      </trkpt>
      <trkpt lat="49.42097" lon="1.05852">
        <ele>21</ele>
        <time>2026-05-26T09:30:17.968Z</time>
      </trkpt>
      <trkpt lat="49.421" lon="1.05859">
        <ele>20</ele>
        <time>2026-05-26T09:30:22.968Z</time>
      </trkpt>
      <trkpt lat="49.421" lon="1.05867">
        <ele>20</ele>
        <time>2026-05-26T09:30:26.968Z</time>
      </trkpt>
      <trkpt lat="49.421" lon="1.05876">
        <ele>19</ele>
        <time>2026-05-26T09:30:31.387Z</time>
      </trkpt>
      <trkpt lat="49.421" lon="1.05884">
        <ele>19</ele>
        <time>2026-05-26T09:30:35.846Z</time>
      </trkpt>
      <trkpt lat="49.421" lon="1.05891">
        <ele>19</ele>
        <time>2026-05-26T09:30:40.202Z</time>
      </trkpt>
      <trkpt lat="49.421" lon="1.05899">
        <ele>19</ele>
        <time>2026-05-26T09:30:44.645Z</time>
      </trkpt>
      <trkpt lat="49.42103" lon="1.05907">
        <ele>19</ele>
        <time>2026-05-26T09:30:48.968Z</time>
      </trkpt>
      <trkpt lat="49.42108" lon="1.05914">
        <ele>19</ele>
        <time>2026-05-26T09:30:53.968Z</time>
      </trkpt>
      <trkpt lat="49.42113" lon="1.05919">
        <ele>19</ele>
        <time>2026-05-26T09:30:58.308Z</time>
      </trkpt>
      <trkpt lat="49.42118" lon="1.0592">
        <ele>19</ele>
        <time>2026-05-26T09:31:02.882Z</time>
      </trkpt>
      <trkpt lat="49.42123" lon="1.05922">
        <ele>19</ele>
        <time>2026-05-26T09:31:07.343Z</time>
      </trkpt>
      <trkpt lat="49.42129" lon="1.05924">
        <ele>18</ele>
        <time>2026-05-26T09:31:11.803Z</time>
      </trkpt>
      <trkpt lat="49.42133" lon="1.05925">
        <ele>18</ele>
        <time>2026-05-26T09:31:15.968Z</time>
      </trkpt>
      <trkpt lat="49.4214" lon="1.05926">
        <ele>18</ele>
        <time>2026-05-26T09:31:20.724Z</time>
      </trkpt>
      <trkpt lat="49.42146" lon="1.05927">
        <ele>18</ele>
        <time>2026-05-26T09:31:24.968Z</time>
      </trkpt>
      <trkpt lat="49.4215" lon="1.05929">
        <ele>18</ele>
        <time>2026-05-26T09:31:29.241Z</time>
      </trkpt>
      <trkpt lat="49.42155" lon="1.0593">
        <ele>20</ele>
        <time>2026-05-26T09:31:33.447Z</time>
      </trkpt>
      <trkpt lat="49.4216" lon="1.0593">
        <ele>20</ele>
        <time>2026-05-26T09:31:37.602Z</time>
      </trkpt>
      <trkpt lat="49.42164" lon="1.05931">
        <ele>20</ele>
        <time>2026-05-26T09:31:41.850Z</time>
      </trkpt>
      <trkpt lat="49.42169" lon="1.05932">
        <ele>20</ele>
        <time>2026-05-26T09:31:45.968Z</time>
      </trkpt>
      <trkpt lat="49.42174" lon="1.05931">
        <ele>20</ele>
        <time>2026-05-26T09:31:50.772Z</time>
      </trkpt>
      <trkpt lat="49.4218" lon="1.05928">
        <ele>20</ele>
        <time>2026-05-26T09:31:54.968Z</time>
      </trkpt>
      <trkpt lat="49.42184" lon="1.05926">
        <ele>22</ele>
        <time>2026-05-26T09:31:58.968Z</time>
      </trkpt>
      <trkpt lat="49.42189" lon="1.05924">
        <ele>22</ele>
        <time>2026-05-26T09:32:03.630Z</time>
      </trkpt>
      <trkpt lat="49.42193" lon="1.05921">
        <ele>22</ele>
        <time>2026-05-26T09:32:07.968Z</time>
      </trkpt>
      <trkpt lat="49.42199" lon="1.05918">
        <ele>22</ele>
        <time>2026-05-26T09:32:12.968Z</time>
      </trkpt>
      <trkpt lat="49.42205" lon="1.05919">
        <ele>22</ele>
        <time>2026-05-26T09:32:16.968Z</time>
      </trkpt>
      <trkpt lat="49.42212" lon="1.05922">
        <ele>24</ele>
        <time>2026-05-26T09:32:21.968Z</time>
      </trkpt>
      <trkpt lat="49.42218" lon="1.05922">
        <ele>24</ele>
        <time>2026-05-26T09:32:25.968Z</time>
      </trkpt>
      <trkpt lat="49.42222" lon="1.05922">
        <ele>24</ele>
        <time>2026-05-26T09:32:30.472Z</time>
      </trkpt>
      <trkpt lat="49.42226" lon="1.05921">
        <ele>24</ele>
        <time>2026-05-26T09:32:34.774Z</time>
      </trkpt>
      <trkpt lat="49.42229" lon="1.05918">
        <ele>24</ele>
        <time>2026-05-26T09:32:38.968Z</time>
      </trkpt>
      <trkpt lat="49.42235" lon="1.05918">
        <ele>24</ele>
        <time>2026-05-26T09:32:43.888Z</time>
      </trkpt>
      <trkpt lat="49.42239" lon="1.0592">
        <ele>23</ele>
        <time>2026-05-26T09:32:48.407Z</time>
      </trkpt>
      <trkpt lat="49.42244" lon="1.05922">
        <ele>23</ele>
        <time>2026-05-26T09:32:52.968Z</time>
      </trkpt>
      <trkpt lat="49.42248" lon="1.05929">
        <ele>23</ele>
        <time>2026-05-26T09:32:57.968Z</time>
      </trkpt>
      <trkpt lat="49.42251" lon="1.05937">
        <ele>24</ele>
        <time>2026-05-26T09:33:02.609Z</time>
      </trkpt>
      <trkpt lat="49.42252" lon="1.05944">
        <ele>24</ele>
        <time>2026-05-26T09:33:06.630Z</time>
      </trkpt>
      <trkpt lat="49.42253" lon="1.05952">
        <ele>24</ele>
        <time>2026-05-26T09:33:10.968Z</time>
      </trkpt>
      <trkpt lat="49.42252" lon="1.05961">
        <ele>24</ele>
        <time>2026-05-26T09:33:15.691Z</time>
      </trkpt>
      <trkpt lat="49.42252" lon="1.05969">
        <ele>24</ele>
        <time>2026-05-26T09:33:20.389Z</time>
      </trkpt>
      <trkpt lat="49.42251" lon="1.05977">
        <ele>24</ele>
        <time>2026-05-26T09:33:24.968Z</time>
      </trkpt>
      <trkpt lat="49.42251" lon="1.05985">
        <ele>24</ele>
        <time>2026-05-26T09:33:29.854Z</time>
      </trkpt>
      <trkpt lat="49.4225" lon="1.05994">
        <ele>24</ele>
        <time>2026-05-26T09:33:34.911Z</time>
      </trkpt>
      <trkpt lat="49.4225" lon="1.06002">
        <ele>24</ele>
        <time>2026-05-26T09:33:38.968Z</time>
      </trkpt>
      <trkpt lat="49.42249" lon="1.06012">
        <ele>24</ele>
        <time>2026-05-26T09:33:43.894Z</time>
      </trkpt>
      <trkpt lat="49.42249" lon="1.0602">
        <ele>23</ele>
        <time>2026-05-26T09:33:48.468Z</time>
      </trkpt>
      <trkpt lat="49.42249" lon="1.06029">
        <ele>23</ele>
        <time>2026-05-26T09:33:52.968Z</time>
      </trkpt>
      <trkpt lat="49.42248" lon="1.06038">
        <ele>23</ele>
        <time>2026-05-26T09:33:57.968Z</time>
      </trkpt>
      <trkpt lat="49.42248" lon="1.06046">
        <ele>23</ele>
        <time>2026-05-26T09:34:01.968Z</time>
      </trkpt>
      <trkpt lat="49.42247" lon="1.06053">
        <ele>23</ele>
        <time>2026-05-26T09:34:06.167Z</time>
      </trkpt>
      <trkpt lat="49.42247" lon="1.06062">
        <ele>23</ele>
        <time>2026-05-26T09:34:10.586Z</time>
      </trkpt>
      <trkpt lat="49.42247" lon="1.06069">
        <ele>23</ele>
        <time>2026-05-26T09:34:14.774Z</time>
      </trkpt>
      <trkpt lat="49.42247" lon="1.06077">
        <ele>22</ele>
        <time>2026-05-26T09:34:19.349Z</time>
      </trkpt>
      <trkpt lat="49.42246" lon="1.06084">
        <ele>22</ele>
        <time>2026-05-26T09:34:23.828Z</time>
      </trkpt>
      <trkpt lat="49.42247" lon="1.06086">
        <ele>22</ele>
        <time>2026-05-26T09:34:28.893Z</time>
      </trkpt>
      <trkpt lat="49.42245" lon="1.06099">
        <ele>23</ele>
        <time>2026-05-26T09:34:33.371Z</time>
      </trkpt>
      <trkpt lat="49.42244" lon="1.06108">
        <ele>23</ele>
        <time>2026-05-26T09:34:37.946Z</time>
      </trkpt>
      <trkpt lat="49.42244" lon="1.06115">
        <ele>23</ele>
        <time>2026-05-26T09:34:42.608Z</time>
      </trkpt>
      <trkpt lat="49.42245" lon="1.06122">
        <ele>23</ele>
        <time>2026-05-26T09:34:47.364Z</time>
      </trkpt>
      <trkpt lat="49.42244" lon="1.0613">
        <ele>23</ele>
        <time>2026-05-26T09:34:51.854Z</time>
      </trkpt>
      <trkpt lat="49.42244" lon="1.06138">
        <ele>23</ele>
        <time>2026-05-26T09:34:56.648Z</time>
      </trkpt>
      <trkpt lat="49.42243" lon="1.06146">
        <ele>23</ele>
        <time>2026-05-26T09:35:00.871Z</time>
      </trkpt>
      <trkpt lat="49.42243" lon="1.06156">
        <ele>23</ele>
        <time>2026-05-26T09:35:05.410Z</time>
      </trkpt>
      <trkpt lat="49.42242" lon="1.06164">
        <ele>23</ele>
        <time>2026-05-26T09:35:09.968Z</time>
      </trkpt>
      <trkpt lat="49.42241" lon="1.06173">
        <ele>23</ele>
        <time>2026-05-26T09:35:14.507Z</time>
      </trkpt>
      <trkpt lat="49.42241" lon="1.06181">
        <ele>22</ele>
        <time>2026-05-26T09:35:18.968Z</time>
      </trkpt>
      <trkpt lat="49.4224" lon="1.06191">
        <ele>22</ele>
        <time>2026-05-26T09:35:23.968Z</time>
      </trkpt>
      <trkpt lat="49.4224" lon="1.06199">
        <ele>22</ele>
        <time>2026-05-26T09:35:28.367Z</time>
      </trkpt>
      <trkpt lat="49.42239" lon="1.06207">
        <ele>22</ele>
        <time>2026-05-26T09:35:32.968Z</time>
      </trkpt>
      <trkpt lat="49.4224" lon="1.06214">
        <ele>22</ele>
        <time>2026-05-26T09:35:37.793Z</time>
      </trkpt>
      <trkpt lat="49.42243" lon="1.06219">
        <ele>22</ele>
        <time>2026-05-26T09:35:41.968Z</time>
      </trkpt>
      <trkpt lat="49.42248" lon="1.06223">
        <ele>22</ele>
        <time>2026-05-26T09:35:46.767Z</time>
      </trkpt>
      <trkpt lat="49.42252" lon="1.06225">
        <ele>22</ele>
        <time>2026-05-26T09:35:51.118Z</time>
      </trkpt>
      <trkpt lat="49.42257" lon="1.06226">
        <ele>22</ele>
        <time>2026-05-26T09:35:55.767Z</time>
      </trkpt>
      <trkpt lat="49.4226" lon="1.06235">
        <ele>22</ele>
        <time>2026-05-26T09:36:00.911Z</time>
      </trkpt>
      <trkpt lat="49.42261" lon="1.06243">
        <ele>21</ele>
        <time>2026-05-26T09:36:05.486Z</time>
      </trkpt>
      <trkpt lat="49.42262" lon="1.06252">
        <ele>21</ele>
        <time>2026-05-26T09:36:18.968Z</time>
      </trkpt>
      <trkpt lat="49.42262" lon="1.06252">
        <ele>21</ele>
        <time>2026-05-26T09:36:24.968Z</time>
      </trkpt>
      <trkpt lat="49.4226" lon="1.06254">
        <ele>21</ele>
        <time>2026-05-26T09:36:28.968Z</time>
      </trkpt>
      <trkpt lat="49.42259" lon="1.06257">
        <ele>21</ele>
        <time>2026-05-26T09:36:33.968Z</time>
      </trkpt>
      <trkpt lat="49.42255" lon="1.06262">
        <ele>21</ele>
        <time>2026-05-26T09:36:37.968Z</time>
      </trkpt>
      <trkpt lat="49.42254" lon="1.06262">
        <ele>21</ele>
        <time>2026-05-26T09:36:42.968Z</time>
      </trkpt>
      <trkpt lat="49.42253" lon="1.06262">
        <ele>21</ele>
        <time>2026-05-26T09:36:48.968Z</time>
      </trkpt>
      <trkpt lat="49.42253" lon="1.06262">
        <ele>21</ele>
        <time>2026-05-26T09:36:53.968Z</time>
      </trkpt>
      <trkpt lat="49.42247" lon="1.06263">
        <ele>21</ele>
        <time>2026-05-26T09:36:58.968Z</time>
      </trkpt>
      <trkpt lat="49.42242" lon="1.06269">
        <ele>22</ele>
        <time>2026-05-26T09:37:03.968Z</time>
      </trkpt>
      <trkpt lat="49.4224" lon="1.06276">
        <ele>22</ele>
        <time>2026-05-26T09:37:08.968Z</time>
      </trkpt>
      <trkpt lat="49.42244" lon="1.06283">
        <ele>22</ele>
        <time>2026-05-26T09:37:13.771Z</time>
      </trkpt>
      <trkpt lat="49.42246" lon="1.06289">
        <ele>22</ele>
        <time>2026-05-26T09:37:18.548Z</time>
      </trkpt>
      <trkpt lat="49.42248" lon="1.06296">
        <ele>23</ele>
        <time>2026-05-26T09:37:22.968Z</time>
      </trkpt>
      <trkpt lat="49.42251" lon="1.06303">
        <ele>23</ele>
        <time>2026-05-26T09:37:27.968Z</time>
      </trkpt>
      <trkpt lat="49.42254" lon="1.0631">
        <ele>23</ele>
        <time>2026-05-26T09:37:32.933Z</time>
      </trkpt>
      <trkpt lat="49.42255" lon="1.06315">
        <ele>23</ele>
        <time>2026-05-26T09:37:36.968Z</time>
      </trkpt>
      <trkpt lat="49.42258" lon="1.06322">
        <ele>23</ele>
        <time>2026-05-26T09:37:41.728Z</time>
      </trkpt>
      <trkpt lat="49.42259" lon="1.06329">
        <ele>23</ele>
        <time>2026-05-26T09:37:45.968Z</time>
      </trkpt>
      <trkpt lat="49.42262" lon="1.06337">
        <ele>23</ele>
        <time>2026-05-26T09:37:50.851Z</time>
      </trkpt>
      <trkpt lat="49.42264" lon="1.06342">
        <ele>23</ele>
        <time>2026-05-26T09:37:54.873Z</time>
      </trkpt>
      <trkpt lat="49.42266" lon="1.06349">
        <ele>24</ele>
        <time>2026-05-26T09:37:59.869Z</time>
      </trkpt>
      <trkpt lat="49.42268" lon="1.06356">
        <ele>24</ele>
        <time>2026-05-26T09:38:03.968Z</time>
      </trkpt>
      <trkpt lat="49.42268" lon="1.06362">
        <ele>24</ele>
        <time>2026-05-26T09:38:08.386Z</time>
      </trkpt>
      <trkpt lat="49.42266" lon="1.06363">
        <ele>24</ele>
        <time>2026-05-26T09:38:12.934Z</time>
      </trkpt>
      <trkpt lat="49.42262" lon="1.06365">
        <ele>23</ele>
        <time>2026-05-26T09:38:16.968Z</time>
      </trkpt>
      <trkpt lat="49.42264" lon="1.0637">
        <ele>24</ele>
        <time>2026-05-26T09:38:21.715Z</time>
      </trkpt>
      <trkpt lat="49.42268" lon="1.06379">
        <ele>25</ele>
        <time>2026-05-26T09:38:53.394Z</time>
      </trkpt>
      <trkpt lat="49.42264" lon="1.06381">
        <ele>24</ele>
        <time>2026-05-26T09:38:57.968Z</time>
      </trkpt>
      <trkpt lat="49.42261" lon="1.06384">
        <ele>24</ele>
        <time>2026-05-26T09:39:01.968Z</time>
      </trkpt>
      <trkpt lat="49.42256" lon="1.06385">
        <ele>24</ele>
        <time>2026-05-26T09:39:06.486Z</time>
      </trkpt>
      <trkpt lat="49.42254" lon="1.06385">
        <ele>24</ele>
        <time>2026-05-26T09:39:10.968Z</time>
      </trkpt>
      <trkpt lat="49.42254" lon="1.06385">
        <ele>24</ele>
        <time>2026-05-26T09:39:14.968Z</time>
      </trkpt>
      <trkpt lat="49.42249" lon="1.06388">
        <ele>24</ele>
        <time>2026-05-26T09:39:19.674Z</time>
      </trkpt>
      <trkpt lat="49.42244" lon="1.06391">
        <ele>24</ele>
        <time>2026-05-26T09:39:23.968Z</time>
      </trkpt>
      <trkpt lat="49.4224" lon="1.06394">
        <ele>24</ele>
        <time>2026-05-26T09:39:28.428Z</time>
      </trkpt>
      <trkpt lat="49.42231" lon="1.06398">
        <ele>22</ele>
        <time>2026-05-26T09:39:50.968Z</time>
      </trkpt>
      <trkpt lat="49.4223" lon="1.06397">
        <ele>22</ele>
        <time>2026-05-26T09:39:55.968Z</time>
      </trkpt>
      <trkpt lat="49.4223" lon="1.06396">
        <ele>22</ele>
        <time>2026-05-26T09:39:59.968Z</time>
      </trkpt>
      <trkpt lat="49.42229" lon="1.06395">
        <ele>22</ele>
        <time>2026-05-26T09:40:04.968Z</time>
      </trkpt>
      <trkpt lat="49.42228" lon="1.06391">
        <ele>22</ele>
        <time>2026-05-26T09:40:09.811Z</time>
      </trkpt>
      <trkpt lat="49.42226" lon="1.0638">
        <ele>22</ele>
        <time>2026-05-26T09:40:14.630Z</time>
      </trkpt>
      <trkpt lat="49.42224" lon="1.06375">
        <ele>23</ele>
        <time>2026-05-26T09:40:18.968Z</time>
      </trkpt>
      <trkpt lat="49.42221" lon="1.06368">
        <ele>23</ele>
        <time>2026-05-26T09:40:23.968Z</time>
      </trkpt>
      <trkpt lat="49.42219" lon="1.06361">
        <ele>23</ele>
        <time>2026-05-26T09:40:28.811Z</time>
      </trkpt>
      <trkpt lat="49.42218" lon="1.06356">
        <ele>23</ele>
        <time>2026-05-26T09:40:33.491Z</time>
      </trkpt>
      <trkpt lat="49.42216" lon="1.0635">
        <ele>23</ele>
        <time>2026-05-26T09:40:37.549Z</time>
      </trkpt>
      <trkpt lat="49.42216" lon="1.06345">
        <ele>23</ele>
        <time>2026-05-26T09:40:41.675Z</time>
      </trkpt>
      <trkpt lat="49.42213" lon="1.0634">
        <ele>23</ele>
        <time>2026-05-26T09:40:45.871Z</time>
      </trkpt>
      <trkpt lat="49.42211" lon="1.06334">
        <ele>23</ele>
        <time>2026-05-26T09:40:50.586Z</time>
      </trkpt>
      <trkpt lat="49.42209" lon="1.06329">
        <ele>23</ele>
        <time>2026-05-26T09:40:54.968Z</time>
      </trkpt>
      <trkpt lat="49.42207" lon="1.06323">
        <ele>24</ele>
        <time>2026-05-26T09:40:59.455Z</time>
      </trkpt>
      <trkpt lat="49.42205" lon="1.06316">
        <ele>23</ele>
        <time>2026-05-26T09:41:03.968Z</time>
      </trkpt>
      <trkpt lat="49.42202" lon="1.06308">
        <ele>23</ele>
        <time>2026-05-26T09:41:08.930Z</time>
      </trkpt>
      <trkpt lat="49.422" lon="1.06303">
        <ele>23</ele>
        <time>2026-05-26T09:41:13.687Z</time>
      </trkpt>
      <trkpt lat="49.42199" lon="1.06298">
        <ele>23</ele>
        <time>2026-05-26T09:41:17.823Z</time>
      </trkpt>
      <trkpt lat="49.42197" lon="1.06291">
        <ele>21</ele>
        <time>2026-05-26T09:41:22.467Z</time>
      </trkpt>
      <trkpt lat="49.42195" lon="1.06283">
        <ele>21</ele>
        <time>2026-05-26T09:41:26.507Z</time>
      </trkpt>
      <trkpt lat="49.42192" lon="1.06277">
        <ele>21</ele>
        <time>2026-05-26T09:41:30.968Z</time>
      </trkpt>
      <trkpt lat="49.4219" lon="1.0627">
        <ele>21</ele>
        <time>2026-05-26T09:41:35.968Z</time>
      </trkpt>
      <trkpt lat="49.42188" lon="1.06264">
        <ele>21</ele>
        <time>2026-05-26T09:41:40.529Z</time>
      </trkpt>
      <trkpt lat="49.4219" lon="1.06257">
        <ele>21</ele>
        <time>2026-05-26T09:41:44.968Z</time>
      </trkpt>
      <trkpt lat="49.42196" lon="1.06256">
        <ele>21</ele>
        <time>2026-05-26T09:41:49.467Z</time>
      </trkpt>
      <trkpt lat="49.42201" lon="1.06254">
        <ele>21</ele>
        <time>2026-05-26T09:41:53.647Z</time>
      </trkpt>
      <trkpt lat="49.42206" lon="1.0625">
        <ele>21</ele>
        <time>2026-05-26T09:41:58.265Z</time>
      </trkpt>
      <trkpt lat="49.42211" lon="1.06247">
        <ele>21</ele>
        <time>2026-05-26T09:42:02.770Z</time>
      </trkpt>
      <trkpt lat="49.42216" lon="1.06243">
        <ele>21</ele>
        <time>2026-05-26T09:42:07.686Z</time>
      </trkpt>
      <trkpt lat="49.42221" lon="1.0624">
        <ele>21</ele>
        <time>2026-05-26T09:42:12.270Z</time>
      </trkpt>
      <trkpt lat="49.42225" lon="1.06237">
        <ele>21</ele>
        <time>2026-05-26T09:42:16.484Z</time>
      </trkpt>
      <trkpt lat="49.42229" lon="1.06233">
        <ele>22</ele>
        <time>2026-05-26T09:42:20.968Z</time>
      </trkpt>
      <trkpt lat="49.42233" lon="1.0623">
        <ele>22</ele>
        <time>2026-05-26T09:42:24.968Z</time>
      </trkpt>
      <trkpt lat="49.42238" lon="1.06227">
        <ele>22</ele>
        <time>2026-05-26T09:42:29.963Z</time>
      </trkpt>
      <trkpt lat="49.42238" lon="1.06219">
        <ele>22</ele>
        <time>2026-05-26T09:42:33.968Z</time>
      </trkpt>
      <trkpt lat="49.42236" lon="1.06209">
        <ele>22</ele>
        <time>2026-05-26T09:42:38.848Z</time>
      </trkpt>
      <trkpt lat="49.42236" lon="1.062">
        <ele>23</ele>
        <time>2026-05-26T09:42:43.344Z</time>
      </trkpt>
      <trkpt lat="49.42237" lon="1.06192">
        <ele>22</ele>
        <time>2026-05-26T09:42:47.884Z</time>
      </trkpt>
      <trkpt lat="49.42238" lon="1.06185">
        <ele>22</ele>
        <time>2026-05-26T09:42:51.968Z</time>
      </trkpt>
      <trkpt lat="49.42238" lon="1.06177">
        <ele>23</ele>
        <time>2026-05-26T09:42:56.437Z</time>
      </trkpt>
      <trkpt lat="49.42239" lon="1.06168">
        <ele>23</ele>
        <time>2026-05-26T09:43:00.968Z</time>
      </trkpt>
      <trkpt lat="49.4224" lon="1.06161">
        <ele>23</ele>
        <time>2026-05-26T09:43:04.968Z</time>
      </trkpt>
      <trkpt lat="49.42241" lon="1.06153">
        <ele>23</ele>
        <time>2026-05-26T09:43:09.602Z</time>
      </trkpt>
      <trkpt lat="49.42242" lon="1.06146">
        <ele>23</ele>
        <time>2026-05-26T09:43:13.968Z</time>
      </trkpt>
      <trkpt lat="49.42243" lon="1.06138">
        <ele>23</ele>
        <time>2026-05-26T09:43:18.782Z</time>
      </trkpt>
      <trkpt lat="49.42243" lon="1.0613">
        <ele>23</ele>
        <time>2026-05-26T09:43:23.646Z</time>
      </trkpt>
      <trkpt lat="49.42243" lon="1.06122">
        <ele>23</ele>
        <time>2026-05-26T09:43:27.888Z</time>
      </trkpt>
      <trkpt lat="49.42243" lon="1.06114">
        <ele>23</ele>
        <time>2026-05-26T09:43:32.444Z</time>
      </trkpt>
      <trkpt lat="49.42244" lon="1.06105">
        <ele>23</ele>
        <time>2026-05-26T09:43:36.948Z</time>
      </trkpt>
      <trkpt lat="49.42244" lon="1.06099">
        <ele>23</ele>
        <time>2026-05-26T09:43:40.968Z</time>
      </trkpt>
      <trkpt lat="49.42244" lon="1.06091">
        <ele>22</ele>
        <time>2026-05-26T09:43:45.466Z</time>
      </trkpt>
      <trkpt lat="49.42244" lon="1.06083">
        <ele>22</ele>
        <time>2026-05-26T09:43:49.803Z</time>
      </trkpt>
      <trkpt lat="49.42245" lon="1.06076">
        <ele>22</ele>
        <time>2026-05-26T09:43:54.968Z</time>
      </trkpt>
      <trkpt lat="49.42245" lon="1.06071">
        <ele>22</ele>
        <time>2026-05-26T09:43:59.804Z</time>
      </trkpt>
      <trkpt lat="49.42245" lon="1.06063">
        <ele>23</ele>
        <time>2026-05-26T09:44:04.888Z</time>
      </trkpt>
      <trkpt lat="49.42245" lon="1.06056">
        <ele>23</ele>
        <time>2026-05-26T09:44:08.968Z</time>
      </trkpt>
      <trkpt lat="49.42246" lon="1.06047">
        <ele>23</ele>
        <time>2026-05-26T09:44:13.968Z</time>
      </trkpt>
      <trkpt lat="49.42246" lon="1.06038">
        <ele>23</ele>
        <time>2026-05-26T09:44:18.603Z</time>
      </trkpt>
      <trkpt lat="49.42247" lon="1.06029">
        <ele>23</ele>
        <time>2026-05-26T09:44:22.765Z</time>
      </trkpt>
      <trkpt lat="49.42247" lon="1.06021">
        <ele>23</ele>
        <time>2026-05-26T09:44:26.968Z</time>
      </trkpt>
      <trkpt lat="49.42247" lon="1.06012">
        <ele>24</ele>
        <time>2026-05-26T09:44:31.968Z</time>
      </trkpt>
      <trkpt lat="49.42248" lon="1.06004">
        <ele>24</ele>
        <time>2026-05-26T09:44:36.428Z</time>
      </trkpt>
      <trkpt lat="49.42248" lon="1.05996">
        <ele>24</ele>
        <time>2026-05-26T09:44:40.484Z</time>
      </trkpt>
      <trkpt lat="49.42249" lon="1.05987">
        <ele>24</ele>
        <time>2026-05-26T09:44:44.968Z</time>
      </trkpt>
      <trkpt lat="49.42249" lon="1.05979">
        <ele>24</ele>
        <time>2026-05-26T09:44:48.968Z</time>
      </trkpt>
      <trkpt lat="49.4225" lon="1.0597">
        <ele>24</ele>
        <time>2026-05-26T09:44:53.968Z</time>
      </trkpt>
      <trkpt lat="49.4225" lon="1.05961">
        <ele>24</ele>
        <time>2026-05-26T09:44:58.923Z</time>
      </trkpt>
      <trkpt lat="49.42251" lon="1.05954">
        <ele>24</ele>
        <time>2026-05-26T09:45:02.968Z</time>
      </trkpt>
      <trkpt lat="49.42251" lon="1.05948">
        <ele>24</ele>
        <time>2026-05-26T09:45:07.589Z</time>
      </trkpt>
      <trkpt lat="49.4225" lon="1.05939">
        <ele>24</ele>
        <time>2026-05-26T09:45:11.968Z</time>
      </trkpt>
      <trkpt lat="49.42247" lon="1.05931">
        <ele>24</ele>
        <time>2026-05-26T09:45:16.484Z</time>
      </trkpt>
      <trkpt lat="49.42243" lon="1.05925">
        <ele>23</ele>
        <time>2026-05-26T09:45:20.927Z</time>
      </trkpt>
      <trkpt lat="49.4224" lon="1.05919">
        <ele>23</ele>
        <time>2026-05-26T09:45:24.968Z</time>
      </trkpt>
      <trkpt lat="49.42234" lon="1.05917">
        <ele>24</ele>
        <time>2026-05-26T09:45:29.674Z</time>
      </trkpt>
      <trkpt lat="49.42229" lon="1.05916">
        <ele>24</ele>
        <time>2026-05-26T09:45:33.968Z</time>
      </trkpt>
      <trkpt lat="49.42224" lon="1.0592">
        <ele>24</ele>
        <time>2026-05-26T09:45:38.968Z</time>
      </trkpt>
      <trkpt lat="49.42219" lon="1.05921">
        <ele>24</ele>
        <time>2026-05-26T09:45:43.765Z</time>
      </trkpt>
      <trkpt lat="49.42214" lon="1.05924">
        <ele>24</ele>
        <time>2026-05-26T09:45:47.968Z</time>
      </trkpt>
      <trkpt lat="49.42209" lon="1.05927">
        <ele>24</ele>
        <time>2026-05-26T09:45:52.644Z</time>
      </trkpt>
      <trkpt lat="49.42204" lon="1.05931">
        <ele>22</ele>
        <time>2026-05-26T09:45:56.968Z</time>
      </trkpt>
      <trkpt lat="49.42199" lon="1.05924">
        <ele>22</ele>
        <time>2026-05-26T09:46:01.783Z</time>
      </trkpt>
      <trkpt lat="49.42197" lon="1.05916">
        <ele>22</ele>
        <time>2026-05-26T09:46:05.968Z</time>
      </trkpt>
      <trkpt lat="49.42193" lon="1.0591">
        <ele>22</ele>
        <time>2026-05-26T09:46:10.749Z</time>
      </trkpt>
      <trkpt lat="49.42187" lon="1.05916">
        <ele>22</ele>
        <time>2026-05-26T09:46:15.324Z</time>
      </trkpt>
      <trkpt lat="49.42185" lon="1.05923">
        <ele>22</ele>
        <time>2026-05-26T09:46:19.846Z</time>
      </trkpt>
      <trkpt lat="49.42181" lon="1.05927">
        <ele>22</ele>
        <time>2026-05-26T09:46:23.968Z</time>
      </trkpt>
      <trkpt lat="49.42176" lon="1.05929">
        <ele>20</ele>
        <time>2026-05-26T09:46:28.688Z</time>
      </trkpt>
      <trkpt lat="49.4217" lon="1.05931">
        <ele>20</ele>
        <time>2026-05-26T09:46:32.968Z</time>
      </trkpt>
      <trkpt lat="49.42165" lon="1.05931">
        <ele>20</ele>
        <time>2026-05-26T09:46:37.582Z</time>
      </trkpt>
      <trkpt lat="49.42158" lon="1.05931">
        <ele>20</ele>
        <time>2026-05-26T09:46:41.903Z</time>
      </trkpt>
      <trkpt lat="49.42154" lon="1.05931">
        <ele>20</ele>
        <time>2026-05-26T09:46:46.346Z</time>
      </trkpt>
      <trkpt lat="49.42149" lon="1.05929">
        <ele>18</ele>
        <time>2026-05-26T09:46:50.806Z</time>
      </trkpt>
      <trkpt lat="49.42143" lon="1.05929">
        <ele>18</ele>
        <time>2026-05-26T09:46:55.267Z</time>
      </trkpt>
      <trkpt lat="49.4214" lon="1.05928">
        <ele>18</ele>
        <time>2026-05-26T09:46:59.666Z</time>
      </trkpt>
      <trkpt lat="49.42135" lon="1.05929">
        <ele>18</ele>
        <time>2026-05-26T09:47:03.968Z</time>
      </trkpt>
      <trkpt lat="49.42132" lon="1.0593">
        <ele>18</ele>
        <time>2026-05-26T09:47:08.402Z</time>
      </trkpt>
      <trkpt lat="49.42126" lon="1.05928">
        <ele>18</ele>
        <time>2026-05-26T09:47:12.942Z</time>
      </trkpt>
      <trkpt lat="49.42121" lon="1.05925">
        <ele>19</ele>
        <time>2026-05-26T09:47:17.368Z</time>
      </trkpt>
      <trkpt lat="49.42116" lon="1.05924">
        <ele>19</ele>
        <time>2026-05-26T09:47:21.846Z</time>
      </trkpt>
      <trkpt lat="49.42112" lon="1.05917">
        <ele>19</ele>
        <time>2026-05-26T09:47:26.385Z</time>
      </trkpt>
      <trkpt lat="49.42109" lon="1.0591">
        <ele>19</ele>
        <time>2026-05-26T09:47:30.969Z</time>
      </trkpt>
      <trkpt lat="49.42106" lon="1.05905">
        <ele>19</ele>
        <time>2026-05-26T09:47:34.968Z</time>
      </trkpt>
      <trkpt lat="49.42104" lon="1.05897">
        <ele>19</ele>
        <time>2026-05-26T09:47:39.968Z</time>
      </trkpt>
      <trkpt lat="49.42104" lon="1.05889">
        <ele>19</ele>
        <time>2026-05-26T09:47:44.727Z</time>
      </trkpt>
      <trkpt lat="49.42104" lon="1.05881">
        <ele>19</ele>
        <time>2026-05-26T09:47:49.346Z</time>
      </trkpt>
      <trkpt lat="49.42105" lon="1.05873">
        <ele>20</ele>
        <time>2026-05-26T09:47:53.930Z</time>
      </trkpt>
      <trkpt lat="49.42105" lon="1.05865">
        <ele>20</ele>
        <time>2026-05-26T09:47:57.968Z</time>
      </trkpt>
      <trkpt lat="49.42099" lon="1.05862">
        <ele>20</ele>
        <time>2026-05-26T09:48:02.948Z</time>
      </trkpt>
      <trkpt lat="49.42096" lon="1.05857">
        <ele>21</ele>
        <time>2026-05-26T09:48:06.968Z</time>
      </trkpt>
      <trkpt lat="49.42093" lon="1.0585">
        <ele>21</ele>
        <time>2026-05-26T09:48:11.684Z</time>
      </trkpt>
      <trkpt lat="49.42088" lon="1.05844">
        <ele>21</ele>
        <time>2026-05-26T09:48:16.724Z</time>
      </trkpt>
      <trkpt lat="49.42085" lon="1.0584">
        <ele>21</ele>
        <time>2026-05-26T09:48:20.842Z</time>
      </trkpt>
      <trkpt lat="49.42082" lon="1.05836">
        <ele>21</ele>
        <time>2026-05-26T09:48:24.968Z</time>
      </trkpt>
      <trkpt lat="49.42083" lon="1.05828">
        <ele>21</ele>
        <time>2026-05-26T09:48:29.464Z</time>
      </trkpt>
      <trkpt lat="49.42084" lon="1.0582">
        <ele>21</ele>
        <time>2026-05-26T09:48:33.968Z</time>
      </trkpt>
      <trkpt lat="49.42086" lon="1.0581">
        <ele>19</ele>
        <time>2026-05-26T09:48:38.403Z</time>
      </trkpt>
      <trkpt lat="49.42087" lon="1.05802">
        <ele>19</ele>
        <time>2026-05-26T09:48:42.968Z</time>
      </trkpt>
      <trkpt lat="49.42087" lon="1.05796">
        <ele>19</ele>
        <time>2026-05-26T09:48:47.649Z</time>
      </trkpt>
      <trkpt lat="49.42086" lon="1.05789">
        <ele>19</ele>
        <time>2026-05-26T09:48:51.968Z</time>
      </trkpt>
      <trkpt lat="49.42086" lon="1.0578">
        <ele>19</ele>
        <time>2026-05-26T09:48:56.966Z</time>
      </trkpt>
      <trkpt lat="49.42084" lon="1.05774">
        <ele>19</ele>
        <time>2026-05-26T09:49:00.968Z</time>
      </trkpt>
      <trkpt lat="49.42081" lon="1.05766">
        <ele>19</ele>
        <time>2026-05-26T09:49:05.968Z</time>
      </trkpt>
      <trkpt lat="49.42079" lon="1.05759">
        <ele>19</ele>
        <time>2026-05-26T09:49:10.803Z</time>
      </trkpt>
      <trkpt lat="49.42077" lon="1.05751">
        <ele>19</ele>
        <time>2026-05-26T09:49:15.703Z</time>
      </trkpt>
      <trkpt lat="49.42077" lon="1.05744">
        <ele>19</ele>
        <time>2026-05-26T09:49:19.968Z</time>
      </trkpt>
      <trkpt lat="49.42076" lon="1.05735">
        <ele>19</ele>
        <time>2026-05-26T09:49:24.668Z</time>
      </trkpt>
      <trkpt lat="49.42075" lon="1.05727">
        <ele>19</ele>
        <time>2026-05-26T09:49:28.968Z</time>
      </trkpt>
      <trkpt lat="49.42075" lon="1.05719">
        <ele>19</ele>
        <time>2026-05-26T09:49:33.641Z</time>
      </trkpt>
      <trkpt lat="49.42075" lon="1.05709">
        <ele>19</ele>
        <time>2026-05-26T09:49:37.968Z</time>
      </trkpt>
      <trkpt lat="49.42074" lon="1.05701">
        <ele>17</ele>
        <time>2026-05-26T09:49:41.968Z</time>
      </trkpt>
      <trkpt lat="49.42074" lon="1.05693">
        <ele>17</ele>
        <time>2026-05-26T09:49:46.786Z</time>
      </trkpt>
      <trkpt lat="49.42073" lon="1.05684">
        <ele>17</ele>
        <time>2026-05-26T09:49:50.968Z</time>
      </trkpt>
      <trkpt lat="49.42073" lon="1.05675">
        <ele>18</ele>
        <time>2026-05-26T09:49:55.804Z</time>
      </trkpt>
      <trkpt lat="49.42073" lon="1.05668">
        <ele>18</ele>
        <time>2026-05-26T09:49:59.968Z</time>
      </trkpt>
      <trkpt lat="49.42073" lon="1.0566">
        <ele>18</ele>
        <time>2026-05-26T09:50:03.968Z</time>
      </trkpt>
      <trkpt lat="49.42073" lon="1.05653">
        <ele>18</ele>
        <time>2026-05-26T09:50:08.307Z</time>
      </trkpt>
      <trkpt lat="49.42072" lon="1.05644">
        <ele>17</ele>
        <time>2026-05-26T09:50:12.968Z</time>
      </trkpt>
      <trkpt lat="49.42071" lon="1.05634">
        <ele>17</ele>
        <time>2026-05-26T09:50:17.650Z</time>
      </trkpt>
      <trkpt lat="49.42071" lon="1.05627">
        <ele>17</ele>
        <time>2026-05-26T09:50:21.968Z</time>
      </trkpt>
      <trkpt lat="49.42071" lon="1.05619">
        <ele>17</ele>
        <time>2026-05-26T09:50:26.325Z</time>
      </trkpt>
      <trkpt lat="49.42071" lon="1.0561">
        <ele>17</ele>
        <time>2026-05-26T09:50:30.803Z</time>
      </trkpt>
      <trkpt lat="49.42071" lon="1.05603">
        <ele>17</ele>
        <time>2026-05-26T09:50:34.968Z</time>
      </trkpt>
      <trkpt lat="49.42071" lon="1.05595">
        <ele>16</ele>
        <time>2026-05-26T09:50:39.689Z</time>
      </trkpt>
      <trkpt lat="49.42071" lon="1.05589">
        <ele>16</ele>
        <time>2026-05-26T09:50:43.968Z</time>
      </trkpt>
      <trkpt lat="49.42071" lon="1.05581">
        <ele>16</ele>
        <time>2026-05-26T09:50:47.968Z</time>
      </trkpt>
      <trkpt lat="49.4207" lon="1.05572">
        <ele>16</ele>
        <time>2026-05-26T09:50:52.968Z</time>
      </trkpt>
      <trkpt lat="49.42069" lon="1.05562">
        <ele>16</ele>
        <time>2026-05-26T09:50:57.803Z</time>
      </trkpt>
      <trkpt lat="49.42068" lon="1.05556">
        <ele>16</ele>
        <time>2026-05-26T09:51:01.842Z</time>
      </trkpt>
      <trkpt lat="49.42069" lon="1.05548">
        <ele>16</ele>
        <time>2026-05-26T09:51:06.628Z</time>
      </trkpt>
      <trkpt lat="49.42068" lon="1.05541">
        <ele>18</ele>
        <time>2026-05-26T09:51:10.968Z</time>
      </trkpt>
      <trkpt lat="49.42068" lon="1.05537">
        <ele>18</ele>
        <time>2026-05-26T09:51:15.908Z</time>
      </trkpt>
      <trkpt lat="49.4207" lon="1.05529">
        <ele>18</ele>
        <time>2026-05-26T09:51:19.968Z</time>
      </trkpt>
      <trkpt lat="49.42072" lon="1.0552">
        <ele>18</ele>
        <time>2026-05-26T09:51:24.689Z</time>
      </trkpt>
      <trkpt lat="49.4207" lon="1.05511">
        <ele>19</ele>
        <time>2026-05-26T09:51:29.342Z</time>
      </trkpt>
      <trkpt lat="49.42067" lon="1.05503">
        <ele>20</ele>
        <time>2026-05-26T09:51:33.970Z</time>
      </trkpt>
      <trkpt lat="49.42064" lon="1.055">
        <ele>20</ele>
        <time>2026-05-26T09:51:37.968Z</time>
      </trkpt>
      <trkpt lat="49.42059" lon="1.05497">
        <ele>20</ele>
        <time>2026-05-26T09:51:42.663Z</time>
      </trkpt>
      <trkpt lat="49.42055" lon="1.05496">
        <ele>20</ele>
        <time>2026-05-26T09:51:46.968Z</time>
      </trkpt>
      <trkpt lat="49.42049" lon="1.05493">
        <ele>20</ele>
        <time>2026-05-26T09:51:51.690Z</time>
      </trkpt>
      <trkpt lat="49.42048" lon="1.05492">
        <ele>20</ele>
        <time>2026-05-26T09:53:17.922Z</time>
      </trkpt>
      <trkpt lat="49.42047" lon="1.05477">
        <ele>21</ele>
        <time>2026-05-26T09:53:22.487Z</time>
      </trkpt>
      <trkpt lat="49.42047" lon="1.05467">
        <ele>21</ele>
        <time>2026-05-26T09:53:26.544Z</time>
      </trkpt>
      <trkpt lat="49.42046" lon="1.05458">
        <ele>22</ele>
        <time>2026-05-26T09:53:30.968Z</time>
      </trkpt>
      <trkpt lat="49.42046" lon="1.05448">
        <ele>22</ele>
        <time>2026-05-26T09:53:35.968Z</time>
      </trkpt>
      <trkpt lat="49.42046" lon="1.0544">
        <ele>22</ele>
        <time>2026-05-26T09:53:40.645Z</time>
      </trkpt>
      <trkpt lat="49.42046" lon="1.05433">
        <ele>22</ele>
        <time>2026-05-26T09:53:44.887Z</time>
      </trkpt>
      <trkpt lat="49.42045" lon="1.05424">
        <ele>22</ele>
        <time>2026-05-26T09:53:49.487Z</time>
      </trkpt>
      <trkpt lat="49.42045" lon="1.05417">
        <ele>22</ele>
        <time>2026-05-26T09:53:53.968Z</time>
      </trkpt>
      <trkpt lat="49.42045" lon="1.05409">
        <ele>22</ele>
        <time>2026-05-26T09:53:58.690Z</time>
      </trkpt>
      <trkpt lat="49.42045" lon="1.054">
        <ele>21</ele>
        <time>2026-05-26T09:54:03.703Z</time>
      </trkpt>
      <trkpt lat="49.42044" lon="1.05392">
        <ele>21</ele>
        <time>2026-05-26T09:54:07.968Z</time>
      </trkpt>
      <trkpt lat="49.42044" lon="1.05384">
        <ele>21</ele>
        <time>2026-05-26T09:54:12.968Z</time>
      </trkpt>
      <trkpt lat="49.42043" lon="1.05378">
        <ele>21</ele>
        <time>2026-05-26T09:54:17.348Z</time>
      </trkpt>
      <trkpt lat="49.42042" lon="1.05369">
        <ele>21</ele>
        <time>2026-05-26T09:54:21.968Z</time>
      </trkpt>
      <trkpt lat="49.42041" lon="1.05363">
        <ele>21</ele>
        <time>2026-05-26T09:54:25.968Z</time>
      </trkpt>
      <trkpt lat="49.4204" lon="1.05361">
        <ele>21</ele>
        <time>2026-05-26T09:54:30.201Z</time>
      </trkpt>
      <trkpt lat="49.42039" lon="1.05352">
        <ele>21</ele>
        <time>2026-05-26T09:54:34.830Z</time>
      </trkpt>
      <trkpt lat="49.42038" lon="1.05344">
        <ele>23</ele>
        <time>2026-05-26T09:54:38.968Z</time>
      </trkpt>
      <trkpt lat="49.42038" lon="1.05336">
        <ele>23</ele>
        <time>2026-05-26T09:54:43.968Z</time>
      </trkpt>
      <trkpt lat="49.42037" lon="1.0533">
        <ele>23</ele>
        <time>2026-05-26T09:54:48.536Z</time>
      </trkpt>
      <trkpt lat="49.42037" lon="1.05322">
        <ele>23</ele>
        <time>2026-05-26T09:54:52.968Z</time>
      </trkpt>
      <trkpt lat="49.42036" lon="1.05314">
        <ele>24</ele>
        <time>2026-05-26T09:54:57.790Z</time>
      </trkpt>
      <trkpt lat="49.42034" lon="1.05306">
        <ele>24</ele>
        <time>2026-05-26T09:55:02.742Z</time>
      </trkpt>
      <trkpt lat="49.42032" lon="1.05299">
        <ele>24</ele>
        <time>2026-05-26T09:55:07.030Z</time>
      </trkpt>
      <trkpt lat="49.42029" lon="1.05292">
        <ele>24</ele>
        <time>2026-05-26T09:55:11.610Z</time>
      </trkpt>
      <trkpt lat="49.42026" lon="1.05286">
        <ele>24</ele>
        <time>2026-05-26T09:55:15.968Z</time>
      </trkpt>
      <trkpt lat="49.42023" lon="1.05279">
        <ele>24</ele>
        <time>2026-05-26T09:55:20.724Z</time>
      </trkpt>
      <trkpt lat="49.42022" lon="1.05269">
        <ele>24</ele>
        <time>2026-05-26T09:55:25.369Z</time>
      </trkpt>
      <trkpt lat="49.42026" lon="1.05262">
        <ele>23</ele>
        <time>2026-05-26T09:55:29.970Z</time>
      </trkpt>
      <trkpt lat="49.42029" lon="1.05256">
        <ele>23</ele>
        <time>2026-05-26T09:55:34.667Z</time>
      </trkpt>
      <trkpt lat="49.42031" lon="1.05252">
        <ele>23</ele>
        <time>2026-05-26T09:55:38.688Z</time>
      </trkpt>
      <trkpt lat="49.42034" lon="1.05246">
        <ele>23</ele>
        <time>2026-05-26T09:55:42.903Z</time>
      </trkpt>
      <trkpt lat="49.42034" lon="1.05238">
        <ele>23</ele>
        <time>2026-05-26T09:55:46.968Z</time>
      </trkpt>
      <trkpt lat="49.42035" lon="1.0523">
        <ele>21</ele>
        <time>2026-05-26T09:55:51.525Z</time>
      </trkpt>
      <trkpt lat="49.42036" lon="1.05222">
        <ele>21</ele>
        <time>2026-05-26T09:55:55.784Z</time>
      </trkpt>
      <trkpt lat="49.42036" lon="1.05214">
        <ele>21</ele>
        <time>2026-05-26T09:56:00.428Z</time>
      </trkpt>
      <trkpt lat="49.42036" lon="1.05205">
        <ele>19</ele>
        <time>2026-05-26T09:56:04.968Z</time>
      </trkpt>
      <trkpt lat="49.42037" lon="1.05195">
        <ele>19</ele>
        <time>2026-05-26T09:56:09.968Z</time>
      </trkpt>
      <trkpt lat="49.42036" lon="1.05188">
        <ele>19</ele>
        <time>2026-05-26T09:56:14.968Z</time>
      </trkpt>
      <trkpt lat="49.42036" lon="1.05184">
        <ele>19</ele>
        <time>2026-05-26T09:56:19.402Z</time>
      </trkpt>
      <trkpt lat="49.42039" lon="1.05179">
        <ele>18</ele>
        <time>2026-05-26T09:56:23.574Z</time>
      </trkpt>
      <trkpt lat="49.42044" lon="1.05179">
        <ele>16</ele>
        <time>2026-05-26T09:56:27.744Z</time>
      </trkpt>
      <trkpt lat="49.42049" lon="1.05179">
        <ele>16</ele>
        <time>2026-05-26T09:56:31.968Z</time>
      </trkpt>
      <trkpt lat="49.42055" lon="1.05179">
        <ele>16</ele>
        <time>2026-05-26T09:56:36.682Z</time>
      </trkpt>
      <trkpt lat="49.42059" lon="1.0518">
        <ele>16</ele>
        <time>2026-05-26T09:56:40.968Z</time>
      </trkpt>
      <trkpt lat="49.42065" lon="1.05179">
        <ele>16</ele>
        <time>2026-05-26T09:56:45.743Z</time>
      </trkpt>
      <trkpt lat="49.42069" lon="1.05177">
        <ele>16</ele>
        <time>2026-05-26T09:56:49.968Z</time>
      </trkpt>
      <trkpt lat="49.42075" lon="1.05175">
        <ele>16</ele>
        <time>2026-05-26T09:56:54.968Z</time>
      </trkpt>
      <trkpt lat="49.42079" lon="1.05174">
        <ele>16</ele>
        <time>2026-05-26T09:56:59.968Z</time>
      </trkpt>
      <trkpt lat="49.42079" lon="1.05173">
        <ele>16</ele>
        <time>2026-05-26T09:57:04.542Z</time>
      </trkpt>
      <trkpt lat="49.42081" lon="1.05167">
        <ele>16</ele>
        <time>2026-05-26T09:57:08.862Z</time>
      </trkpt>
      <trkpt lat="49.42082" lon="1.05161">
        <ele>16</ele>
        <time>2026-05-26T09:57:12.968Z</time>
      </trkpt>
      <trkpt lat="49.42081" lon="1.05154">
        <ele>16</ele>
        <time>2026-05-26T09:57:16.968Z</time>
      </trkpt>
      <trkpt lat="49.42075" lon="1.05154">
        <ele>16</ele>
        <time>2026-05-26T09:57:21.849Z</time>
      </trkpt>
      <trkpt lat="49.42071" lon="1.05151">
        <ele>16</ele>
        <time>2026-05-26T09:57:25.968Z</time>
      </trkpt>
      <trkpt lat="49.42067" lon="1.05147">
        <ele>15</ele>
        <time>2026-05-26T09:57:29.968Z</time>
      </trkpt>
      <trkpt lat="49.42063" lon="1.05142">
        <ele>15</ele>
        <time>2026-05-26T09:57:34.746Z</time>
      </trkpt>
      <trkpt lat="49.42058" lon="1.05137">
        <ele>15</ele>
        <time>2026-05-26T09:57:39.708Z</time>
      </trkpt>
      <trkpt lat="49.42055" lon="1.05133">
        <ele>15</ele>
        <time>2026-05-26T09:57:43.969Z</time>
      </trkpt>
      <trkpt lat="49.42051" lon="1.05128">
        <ele>15</ele>
        <time>2026-05-26T09:57:48.329Z</time>
      </trkpt>
      <trkpt lat="49.42047" lon="1.05124">
        <ele>16</ele>
        <time>2026-05-26T09:57:52.957Z</time>
      </trkpt>
      <trkpt lat="49.42043" lon="1.05119">
        <ele>16</ele>
        <time>2026-05-26T09:57:57.848Z</time>
      </trkpt>
      <trkpt lat="49.42039" lon="1.05115">
        <ele>18</ele>
        <time>2026-05-26T09:58:01.958Z</time>
      </trkpt>
      <trkpt lat="49.42034" lon="1.05111">
        <ele>18</ele>
        <time>2026-05-26T09:58:06.963Z</time>
      </trkpt>
      <trkpt lat="49.42029" lon="1.05106">
        <ele>18</ele>
        <time>2026-05-26T09:58:11.729Z</time>
      </trkpt>
      <trkpt lat="49.42025" lon="1.05101">
        <ele>18</ele>
        <time>2026-05-26T09:58:16.365Z</time>
      </trkpt>
      <trkpt lat="49.4202" lon="1.05096">
        <ele>18</ele>
        <time>2026-05-26T09:58:20.965Z</time>
      </trkpt>
      <trkpt lat="49.42015" lon="1.05092">
        <ele>18</ele>
        <time>2026-05-26T09:58:25.584Z</time>
      </trkpt>
      <trkpt lat="49.42011" lon="1.05087">
        <ele>22</ele>
        <time>2026-05-26T09:58:29.906Z</time>
      </trkpt>
      <trkpt lat="49.42008" lon="1.05082">
        <ele>22</ele>
        <time>2026-05-26T09:58:33.966Z</time>
      </trkpt>
      <trkpt lat="49.42004" lon="1.05076">
        <ele>22</ele>
        <time>2026-05-26T09:58:38.624Z</time>
      </trkpt>
      <trkpt lat="49.42" lon="1.05072">
        <ele>22</ele>
        <time>2026-05-26T09:58:42.961Z</time>
      </trkpt>
      <trkpt lat="49.41995" lon="1.05068">
        <ele>21</ele>
        <time>2026-05-26T09:58:47.684Z</time>
      </trkpt>
      <trkpt lat="49.4199" lon="1.05064">
        <ele>21</ele>
        <time>2026-05-26T09:58:51.959Z</time>
      </trkpt>
      <trkpt lat="49.41986" lon="1.05059">
        <ele>22</ele>
        <time>2026-05-26T09:58:56.921Z</time>
      </trkpt>
      <trkpt lat="49.41981" lon="1.05053">
        <ele>22</ele>
        <time>2026-05-26T09:59:01.549Z</time>
      </trkpt>
      <trkpt lat="49.41978" lon="1.05048">
        <ele>22</ele>
        <time>2026-05-26T09:59:05.958Z</time>
      </trkpt>
      <trkpt lat="49.41973" lon="1.05042">
        <ele>22</ele>
        <time>2026-05-26T09:59:10.967Z</time>
      </trkpt>
      <trkpt lat="49.41968" lon="1.05037">
        <ele>21</ele>
        <time>2026-05-26T09:59:15.843Z</time>
      </trkpt>
      <trkpt lat="49.41964" lon="1.05033">
        <ele>21</ele>
        <time>2026-05-26T09:59:19.963Z</time>
      </trkpt>
      <trkpt lat="49.41959" lon="1.05028">
        <ele>21</ele>
        <time>2026-05-26T09:59:24.747Z</time>
      </trkpt>
      <trkpt lat="49.41955" lon="1.05023">
        <ele>20</ele>
        <time>2026-05-26T09:59:29.365Z</time>
      </trkpt>
      <trkpt lat="49.4195" lon="1.05019">
        <ele>20</ele>
        <time>2026-05-26T09:59:33.808Z</time>
      </trkpt>
      <trkpt lat="49.41946" lon="1.05015">
        <ele>20</ele>
        <time>2026-05-26T09:59:37.966Z</time>
      </trkpt>
      <trkpt lat="49.41947" lon="1.05021">
        <ele>20</ele>
        <time>2026-05-26T10:00:06.965Z</time>
      </trkpt>
      <trkpt lat="49.41945" lon="1.0502">
        <ele>20</ele>
        <time>2026-05-26T10:00:11.689Z</time>
      </trkpt>
      <trkpt lat="49.41943" lon="1.05017">
        <ele>20</ele>
        <time>2026-05-26T10:00:15.965Z</time>
      </trkpt>
      <trkpt lat="49.41941" lon="1.05013">
        <ele>19</ele>
        <time>2026-05-26T10:00:19.965Z</time>
      </trkpt>
      <trkpt lat="49.41936" lon="1.05005">
        <ele>19</ele>
        <time>2026-05-26T10:00:24.868Z</time>
      </trkpt>
      <trkpt lat="49.41931" lon="1.05">
        <ele>19</ele>
        <time>2026-05-26T10:00:28.965Z</time>
      </trkpt>
      <trkpt lat="49.41926" lon="1.04995">
        <ele>20</ele>
        <time>2026-05-26T10:00:32.964Z</time>
      </trkpt>
      <trkpt lat="49.41921" lon="1.04991">
        <ele>20</ele>
        <time>2026-05-26T10:00:37.548Z</time>
      </trkpt>
      <trkpt lat="49.41917" lon="1.04985">
        <ele>20</ele>
        <time>2026-05-26T10:00:41.965Z</time>
      </trkpt>
      <trkpt lat="49.41912" lon="1.04981">
        <ele>20</ele>
        <time>2026-05-26T10:00:46.610Z</time>
      </trkpt>
      <trkpt lat="49.41908" lon="1.04977">
        <ele>20</ele>
        <time>2026-05-26T10:00:50.965Z</time>
      </trkpt>
      <trkpt lat="49.41903" lon="1.04971">
        <ele>20</ele>
        <time>2026-05-26T10:00:55.610Z</time>
      </trkpt>
      <trkpt lat="49.41899" lon="1.04967">
        <ele>21</ele>
        <time>2026-05-26T10:00:59.965Z</time>
      </trkpt>
      <trkpt lat="49.41894" lon="1.04961">
        <ele>21</ele>
        <time>2026-05-26T10:01:04.831Z</time>
      </trkpt>
      <trkpt lat="49.4189" lon="1.04957">
        <ele>22</ele>
        <time>2026-05-26T10:01:08.965Z</time>
      </trkpt>
      <trkpt lat="49.41885" lon="1.04951">
        <ele>22</ele>
        <time>2026-05-26T10:01:13.965Z</time>
      </trkpt>
      <trkpt lat="49.41881" lon="1.04946">
        <ele>22</ele>
        <time>2026-05-26T10:01:18.888Z</time>
      </trkpt>
      <trkpt lat="49.41878" lon="1.04949">
        <ele>22</ele>
        <time>2026-05-26T10:01:47.965Z</time>
      </trkpt>
      <trkpt lat="49.41876" lon="1.04945">
        <ele>22</ele>
        <time>2026-05-26T10:01:52.944Z</time>
      </trkpt>
      <trkpt lat="49.41872" lon="1.04938">
        <ele>22</ele>
        <time>2026-05-26T10:01:56.965Z</time>
      </trkpt>
      <trkpt lat="49.41866" lon="1.04932">
        <ele>22</ele>
        <time>2026-05-26T10:02:01.965Z</time>
      </trkpt>
      <trkpt lat="49.41861" lon="1.04926">
        <ele>22</ele>
        <time>2026-05-26T10:02:06.704Z</time>
      </trkpt>
      <trkpt lat="49.41857" lon="1.04921">
        <ele>22</ele>
        <time>2026-05-26T10:02:10.965Z</time>
      </trkpt>
      <trkpt lat="49.41852" lon="1.04915">
        <ele>22</ele>
        <time>2026-05-26T10:02:15.889Z</time>
      </trkpt>
      <trkpt lat="49.41849" lon="1.04911">
        <ele>22</ele>
        <time>2026-05-26T10:02:19.965Z</time>
      </trkpt>
      <trkpt lat="49.41845" lon="1.04907">
        <ele>21</ele>
        <time>2026-05-26T10:02:24.706Z</time>
      </trkpt>
      <trkpt lat="49.41841" lon="1.04903">
        <ele>21</ele>
        <time>2026-05-26T10:02:29.343Z</time>
      </trkpt>
      <trkpt lat="49.41837" lon="1.04899">
        <ele>20</ele>
        <time>2026-05-26T10:02:33.802Z</time>
      </trkpt>
      <trkpt lat="49.41835" lon="1.04893">
        <ele>20</ele>
        <time>2026-05-26T10:02:38.325Z</time>
      </trkpt>
      <trkpt lat="49.41833" lon="1.04887">
        <ele>20</ele>
        <time>2026-05-26T10:02:42.945Z</time>
      </trkpt>
      <trkpt lat="49.41833" lon="1.04878">
        <ele>20</ele>
        <time>2026-05-26T10:02:47.362Z</time>
      </trkpt>
      <trkpt lat="49.4183" lon="1.04872">
        <ele>19</ele>
        <time>2026-05-26T10:02:51.965Z</time>
      </trkpt>
      <trkpt lat="49.41828" lon="1.04863">
        <ele>19</ele>
        <time>2026-05-26T10:02:56.965Z</time>
      </trkpt>
      <trkpt lat="49.41831" lon="1.04856">
        <ele>19</ele>
        <time>2026-05-26T10:03:01.965Z</time>
      </trkpt>
      <trkpt lat="49.41832" lon="1.04851">
        <ele>19</ele>
        <time>2026-05-26T10:03:11.965Z</time>
      </trkpt>
      <trkpt lat="49.41832" lon="1.04851">
        <ele>19</ele>
        <time>2026-05-26T10:03:19.965Z</time>
      </trkpt>
      <trkpt lat="49.41833" lon="1.0485">
        <ele>19</ele>
        <time>2026-05-26T10:03:23.965Z</time>
      </trkpt>
      <trkpt lat="49.41834" lon="1.04847">
        <ele>19</ele>
        <time>2026-05-26T10:03:28.684Z</time>
      </trkpt>
      <trkpt lat="49.41839" lon="1.04841">
        <ele>20</ele>
        <time>2026-05-26T10:03:32.965Z</time>
      </trkpt>
      <trkpt lat="49.41841" lon="1.04834">
        <ele>20</ele>
        <time>2026-05-26T10:03:37.548Z</time>
      </trkpt>
      <trkpt lat="49.41844" lon="1.04828">
        <ele>20</ele>
        <time>2026-05-26T10:03:41.965Z</time>
      </trkpt>
      <trkpt lat="49.41847" lon="1.04821">
        <ele>20</ele>
        <time>2026-05-26T10:03:46.965Z</time>
      </trkpt>
      <trkpt lat="49.41848" lon="1.04815">
        <ele>21</ele>
        <time>2026-05-26T10:03:51.743Z</time>
      </trkpt>
      <trkpt lat="49.41843" lon="1.04811">
        <ele>20</ele>
        <time>2026-05-26T10:03:55.965Z</time>
      </trkpt>
      <trkpt lat="49.41838" lon="1.04807">
        <ele>20</ele>
        <time>2026-05-26T10:04:00.867Z</time>
      </trkpt>
      <trkpt lat="49.41835" lon="1.04803">
        <ele>20</ele>
        <time>2026-05-26T10:04:04.965Z</time>
      </trkpt>
      <trkpt lat="49.41831" lon="1.04798">
        <ele>20</ele>
        <time>2026-05-26T10:04:09.621Z</time>
      </trkpt>
      <trkpt lat="49.41826" lon="1.04795">
        <ele>20</ele>
        <time>2026-05-26T10:04:13.965Z</time>
      </trkpt>
      <trkpt lat="49.41821" lon="1.0479">
        <ele>20</ele>
        <time>2026-05-26T10:04:18.868Z</time>
      </trkpt>
      <trkpt lat="49.41817" lon="1.04786">
        <ele>21</ele>
        <time>2026-05-26T10:04:22.965Z</time>
      </trkpt>
      <trkpt lat="49.41813" lon="1.0478">
        <ele>21</ele>
        <time>2026-05-26T10:04:27.466Z</time>
      </trkpt>
      <trkpt lat="49.41809" lon="1.04775">
        <ele>21</ele>
        <time>2026-05-26T10:04:31.645Z</time>
      </trkpt>
      <trkpt lat="49.41805" lon="1.0477">
        <ele>21</ele>
        <time>2026-05-26T10:04:35.965Z</time>
      </trkpt>
      <trkpt lat="49.418" lon="1.04765">
        <ele>21</ele>
        <time>2026-05-26T10:04:40.302Z</time>
      </trkpt>
      <trkpt lat="49.41795" lon="1.04759">
        <ele>20</ele>
        <time>2026-05-26T10:04:44.965Z</time>
      </trkpt>
      <trkpt lat="49.41791" lon="1.04755">
        <ele>21</ele>
        <time>2026-05-26T10:04:49.329Z</time>
      </trkpt>
      <trkpt lat="49.41787" lon="1.04751">
        <ele>21</ele>
        <time>2026-05-26T10:04:53.965Z</time>
      </trkpt>
      <trkpt lat="49.41783" lon="1.04746">
        <ele>21</ele>
        <time>2026-05-26T10:04:58.490Z</time>
      </trkpt>
      <trkpt lat="49.41779" lon="1.04741">
        <ele>21</ele>
        <time>2026-05-26T10:05:02.965Z</time>
      </trkpt>
      <trkpt lat="49.41774" lon="1.04736">
        <ele>21</ele>
        <time>2026-05-26T10:05:07.927Z</time>
      </trkpt>
      <trkpt lat="49.4177" lon="1.04731">
        <ele>21</ele>
        <time>2026-05-26T10:05:11.965Z</time>
      </trkpt>
      <trkpt lat="49.41765" lon="1.04726">
        <ele>21</ele>
        <time>2026-05-26T10:05:16.965Z</time>
      </trkpt>
      <trkpt lat="49.41761" lon="1.04723">
        <ele>20</ele>
        <time>2026-05-26T10:05:21.249Z</time>
      </trkpt>
      <trkpt lat="49.41757" lon="1.04717">
        <ele>20</ele>
        <time>2026-05-26T10:05:25.965Z</time>
      </trkpt>
      <trkpt lat="49.41752" lon="1.04713">
        <ele>20</ele>
        <time>2026-05-26T10:05:30.751Z</time>
      </trkpt>
      <trkpt lat="49.41747" lon="1.04709">
        <ele>20</ele>
        <time>2026-05-26T10:05:34.965Z</time>
      </trkpt>
      <trkpt lat="49.41743" lon="1.04706">
        <ele>19</ele>
        <time>2026-05-26T10:05:39.965Z</time>
      </trkpt>
      <trkpt lat="49.41738" lon="1.04706">
        <ele>19</ele>
        <time>2026-05-26T10:05:44.405Z</time>
      </trkpt>
      <trkpt lat="49.41738" lon="1.047">
        <ele>19</ele>
        <time>2026-05-26T10:05:48.965Z</time>
      </trkpt>
      <trkpt lat="49.41739" lon="1.04692">
        <ele>19</ele>
        <time>2026-05-26T10:05:53.965Z</time>
      </trkpt>
      <trkpt lat="49.41739" lon="1.0469">
        <ele>19</ele>
        <time>2026-05-26T10:05:59.677Z</time>
      </trkpt>
      <trkpt lat="49.4174" lon="1.0469">
        <ele>19</ele>
        <time>2026-05-26T10:06:23.965Z</time>
      </trkpt>
      <trkpt lat="49.4174" lon="1.0469">
        <ele>19</ele>
        <time>2026-05-26T10:06:27.965Z</time>
      </trkpt>
      <trkpt lat="49.4174" lon="1.04689">
        <ele>19</ele>
        <time>2026-05-26T10:06:35.965Z</time>
      </trkpt>
      <trkpt lat="49.41744" lon="1.04682">
        <ele>19</ele>
        <time>2026-05-26T10:06:40.763Z</time>
      </trkpt>
      <trkpt lat="49.41748" lon="1.04675">
        <ele>19</ele>
        <time>2026-05-26T10:06:45.830Z</time>
      </trkpt>
      <trkpt lat="49.41748" lon="1.04668">
        <ele>19</ele>
        <time>2026-05-26T10:06:49.965Z</time>
      </trkpt>
      <trkpt lat="49.41746" lon="1.04663">
        <ele>19</ele>
        <time>2026-05-26T10:06:53.965Z</time>
      </trkpt>
      <trkpt lat="49.41743" lon="1.04659">
        <ele>19</ele>
        <time>2026-05-26T10:06:58.404Z</time>
      </trkpt>
      <trkpt lat="49.41739" lon="1.04655">
        <ele>19</ele>
        <time>2026-05-26T10:07:02.786Z</time>
      </trkpt>
      <trkpt lat="49.41736" lon="1.04651">
        <ele>18</ele>
        <time>2026-05-26T10:07:06.965Z</time>
      </trkpt>
      <trkpt lat="49.41732" lon="1.04647">
        <ele>18</ele>
        <time>2026-05-26T10:07:11.365Z</time>
      </trkpt>
      <trkpt lat="49.41734" lon="1.04638">
        <ele>18</ele>
        <time>2026-05-26T10:07:15.949Z</time>
      </trkpt>
      <trkpt lat="49.41738" lon="1.04633">
        <ele>18</ele>
        <time>2026-05-26T10:07:19.965Z</time>
      </trkpt>
      <trkpt lat="49.41743" lon="1.04628">
        <ele>18</ele>
        <time>2026-05-26T10:07:24.641Z</time>
      </trkpt>
      <trkpt lat="49.41747" lon="1.04622">
        <ele>18</ele>
        <time>2026-05-26T10:07:28.965Z</time>
      </trkpt>
      <trkpt lat="49.4175" lon="1.04615">
        <ele>18</ele>
        <time>2026-05-26T10:07:33.502Z</time>
      </trkpt>
      <trkpt lat="49.41752" lon="1.04608">
        <ele>18</ele>
        <time>2026-05-26T10:07:37.965Z</time>
      </trkpt>
      <trkpt lat="49.41755" lon="1.04603">
        <ele>18</ele>
        <time>2026-05-26T10:07:41.965Z</time>
      </trkpt>
      <trkpt lat="49.41759" lon="1.04597">
        <ele>18</ele>
        <time>2026-05-26T10:07:45.965Z</time>
      </trkpt>
      <trkpt lat="49.41762" lon="1.0459">
        <ele>17</ele>
        <time>2026-05-26T10:07:50.542Z</time>
      </trkpt>
      <trkpt lat="49.41765" lon="1.04583">
        <ele>18</ele>
        <time>2026-05-26T10:07:54.965Z</time>
      </trkpt>
      <trkpt lat="49.41769" lon="1.04574">
        <ele>18</ele>
        <time>2026-05-26T10:07:59.762Z</time>
      </trkpt>
      <trkpt lat="49.4177" lon="1.04569">
        <ele>18</ele>
        <time>2026-05-26T10:08:03.969Z</time>
      </trkpt>
      <trkpt lat="49.41773" lon="1.04562">
        <ele>18</ele>
        <time>2026-05-26T10:08:08.806Z</time>
      </trkpt>
      <trkpt lat="49.41775" lon="1.04556">
        <ele>18</ele>
        <time>2026-05-26T10:08:12.965Z</time>
      </trkpt>
      <trkpt lat="49.41779" lon="1.04548">
        <ele>18</ele>
        <time>2026-05-26T10:08:17.509Z</time>
      </trkpt>
      <trkpt lat="49.41781" lon="1.04542">
        <ele>18</ele>
        <time>2026-05-26T10:08:21.926Z</time>
      </trkpt>
      <trkpt lat="49.41779" lon="1.04538">
        <ele>19</ele>
        <time>2026-05-26T10:08:25.965Z</time>
      </trkpt>
      <trkpt lat="49.41773" lon="1.04539">
        <ele>19</ele>
        <time>2026-05-26T10:08:30.965Z</time>
      </trkpt>
      <trkpt lat="49.41768" lon="1.04541">
        <ele>19</ele>
        <time>2026-05-26T10:08:35.809Z</time>
      </trkpt>
      <trkpt lat="49.41764" lon="1.04539">
        <ele>17</ele>
        <time>2026-05-26T10:08:39.965Z</time>
      </trkpt>
      <trkpt lat="49.4176" lon="1.04536">
        <ele>17</ele>
        <time>2026-05-26T10:08:44.704Z</time>
      </trkpt>
      <trkpt lat="49.41756" lon="1.04535">
        <ele>17</ele>
        <time>2026-05-26T10:08:48.965Z</time>
      </trkpt>
      <trkpt lat="49.41751" lon="1.04536">
        <ele>17</ele>
        <time>2026-05-26T10:08:53.942Z</time>
      </trkpt>
      <trkpt lat="49.41748" lon="1.04537">
        <ele>17</ele>
        <time>2026-05-26T10:08:57.964Z</time>
      </trkpt>
      <trkpt lat="49.41743" lon="1.04535">
        <ele>17</ele>
        <time>2026-05-26T10:09:02.662Z</time>
      </trkpt>
      <trkpt lat="49.41739" lon="1.04535">
        <ele>17</ele>
        <time>2026-05-26T10:09:06.965Z</time>
      </trkpt>
      <trkpt lat="49.41735" lon="1.04532">
        <ele>15</ele>
        <time>2026-05-26T10:09:11.965Z</time>
      </trkpt>
      <trkpt lat="49.41732" lon="1.0453">
        <ele>15</ele>
        <time>2026-05-26T10:09:15.965Z</time>
      </trkpt>
      <trkpt lat="49.41732" lon="1.04531">
        <ele>15</ele>
        <time>2026-05-26T10:09:19.965Z</time>
      </trkpt>
      <trkpt lat="49.41728" lon="1.04532">
        <ele>15</ele>
        <time>2026-05-26T10:09:24.965Z</time>
      </trkpt>
      <trkpt lat="49.41726" lon="1.04532">
        <ele>15</ele>
        <time>2026-05-26T10:09:29.965Z</time>
      </trkpt>
      <trkpt lat="49.41723" lon="1.04532">
        <ele>15</ele>
        <time>2026-05-26T10:09:34.965Z</time>
      </trkpt>
      <trkpt lat="49.41718" lon="1.04532">
        <ele>15</ele>
        <time>2026-05-26T10:09:44.965Z</time>
      </trkpt>
      <trkpt lat="49.41718" lon="1.04531">
        <ele>15</ele>
        <time>2026-05-26T10:09:49.965Z</time>
      </trkpt>
      <trkpt lat="49.41715" lon="1.04529">
        <ele>15</ele>
        <time>2026-05-26T10:09:54.965Z</time>
      </trkpt>
      <trkpt lat="49.41712" lon="1.04529">
        <ele>15</ele>
        <time>2026-05-26T10:09:58.965Z</time>
      </trkpt>
      <trkpt lat="49.4171" lon="1.04528">
        <ele>15</ele>
        <time>2026-05-26T10:10:03.574Z</time>
      </trkpt>
      <trkpt lat="49.41709" lon="1.04527">
        <ele>15</ele>
        <time>2026-05-26T10:11:31.965Z</time>
      </trkpt>
      <trkpt lat="49.41709" lon="1.04527">
        <ele>15</ele>
        <time>2026-05-26T10:11:36.965Z</time>
      </trkpt>
      <trkpt lat="49.41708" lon="1.04525">
        <ele>16</ele>
        <time>2026-05-26T10:11:41.416Z</time>
      </trkpt>
      <trkpt lat="49.41701" lon="1.04523">
        <ele>16</ele>
        <time>2026-05-26T10:11:45.965Z</time>
      </trkpt>
      <trkpt lat="49.41696" lon="1.04525">
        <ele>16</ele>
        <time>2026-05-26T10:11:50.232Z</time>
      </trkpt>
      <trkpt lat="49.41692" lon="1.04527">
        <ele>16</ele>
        <time>2026-05-26T10:11:54.694Z</time>
      </trkpt>
      <trkpt lat="49.41686" lon="1.0453">
        <ele>16</ele>
        <time>2026-05-26T10:11:58.965Z</time>
      </trkpt>
      <trkpt lat="49.41681" lon="1.04535">
        <ele>16</ele>
        <time>2026-05-26T10:12:03.958Z</time>
      </trkpt>
      <trkpt lat="49.41678" lon="1.04538">
        <ele>16</ele>
        <time>2026-05-26T10:12:07.965Z</time>
      </trkpt>
      <trkpt lat="49.41673" lon="1.04541">
        <ele>16</ele>
        <time>2026-05-26T10:12:12.792Z</time>
      </trkpt>
      <trkpt lat="49.41669" lon="1.04545">
        <ele>17</ele>
        <time>2026-05-26T10:12:16.965Z</time>
      </trkpt>
      <trkpt lat="49.41664" lon="1.04551">
        <ele>17</ele>
        <time>2026-05-26T10:12:21.618Z</time>
      </trkpt>
      <trkpt lat="49.4166" lon="1.04556">
        <ele>17</ele>
        <time>2026-05-26T10:12:25.895Z</time>
      </trkpt>
      <trkpt lat="49.4166" lon="1.04556">
        <ele>17</ele>
        <time>2026-05-26T10:12:44.196Z</time>
      </trkpt>
      <trkpt lat="49.41662" lon="1.04559">
        <ele>17</ele>
        <time>2026-05-26T10:12:48.965Z</time>
      </trkpt>
      <trkpt lat="49.41664" lon="1.04555">
        <ele>17</ele>
        <time>2026-05-26T10:12:53.653Z</time>
      </trkpt>
      <trkpt lat="49.41665" lon="1.0455">
        <ele>17</ele>
        <time>2026-05-26T10:12:57.965Z</time>
      </trkpt>
      <trkpt lat="49.41667" lon="1.04547">
        <ele>17</ele>
        <time>2026-05-26T10:13:02.965Z</time>
      </trkpt>
    </trkseg>
  </trk>
</gpx>